<?xml version="1.0" encoding="UTF-8" standalone="no" ?>
<gpx xmlns="http://www.topografix.com/GPX/1/1" xmlns:xsi="http://www.w3.org/2001/XMLSchema-instance" xsi:schemaLocation="http://www.topografix.com/GPX/1/1 http://www.topografix.com/GPX/1/1/gpx.xsd" version="1.1" creator="VisuGPX - https://www.visugpx.com">
  <metadata>
    <name>La petite traversée du Jura </name>
  </metadata>
  <trk>
    <name><![CDATA[La petite traversée du Jura — R.ARA005]]></name>
    <trkseg>
      <trkpt lat="46.46505" lon="6.07299">
        <ele>1152.6</ele>
        <time>2021-10-06T16:36:34.067Z</time>
      </trkpt>
      <trkpt lat="46.46503" lon="6.07289">
        <ele>1152.3</ele>
        <time>2021-10-06T16:36:41.776Z</time>
      </trkpt>
      <trkpt lat="46.46514" lon="6.07283">
        <ele>1151.7</ele>
        <time>2021-10-06T16:36:52.978Z</time>
      </trkpt>
      <trkpt lat="46.46518" lon="6.07278">
        <ele>1151.4</ele>
        <time>2021-10-06T16:36:58.609Z</time>
      </trkpt>
      <trkpt lat="46.46519" lon="6.07274">
        <ele>1151.4</ele>
        <time>2021-10-06T16:37:01.625Z</time>
      </trkpt>
      <trkpt lat="46.46499" lon="6.07275">
        <ele>1152</ele>
        <time>2021-10-06T16:37:22.219Z</time>
      </trkpt>
      <trkpt lat="46.46441" lon="6.07277">
        <ele>1154.3</ele>
        <time>2021-10-06T16:38:21.997Z</time>
      </trkpt>
      <trkpt lat="46.46426" lon="6.07276">
        <ele>1155.4</ele>
        <time>2021-10-06T16:38:37.823Z</time>
      </trkpt>
      <trkpt lat="46.46407" lon="6.07274">
        <ele>1156.8</ele>
        <time>2021-10-06T16:38:56.614Z</time>
      </trkpt>
      <trkpt lat="46.46388" lon="6.07271">
        <ele>1158.3</ele>
        <time>2021-10-06T16:39:16.326Z</time>
      </trkpt>
      <trkpt lat="46.4636" lon="6.07264">
        <ele>1158.5</ele>
        <time>2021-10-06T16:39:44.419Z</time>
      </trkpt>
      <trkpt lat="46.46318" lon="6.07254">
        <ele>1157.2</ele>
        <time>2021-10-06T16:40:27.114Z</time>
      </trkpt>
      <trkpt lat="46.46312" lon="6.07254">
        <ele>1157.2</ele>
        <time>2021-10-06T16:40:33.122Z</time>
      </trkpt>
      <trkpt lat="46.46301" lon="6.07248">
        <ele>1156.8</ele>
        <time>2021-10-06T16:40:45.125Z</time>
      </trkpt>
      <trkpt lat="46.46294" lon="6.07243">
        <ele>1156.4</ele>
        <time>2021-10-06T16:40:53.608Z</time>
      </trkpt>
      <trkpt lat="46.4629" lon="6.07243">
        <ele>1156.3</ele>
        <time>2021-10-06T16:40:56.861Z</time>
      </trkpt>
      <trkpt lat="46.46282" lon="6.07239">
        <ele>1156.1</ele>
        <time>2021-10-06T16:41:06.480Z</time>
      </trkpt>
      <trkpt lat="46.46279" lon="6.07235">
        <ele>1156</ele>
        <time>2021-10-06T16:41:09.772Z</time>
      </trkpt>
      <trkpt lat="46.46278" lon="6.07231">
        <ele>1156</ele>
        <time>2021-10-06T16:41:13.317Z</time>
      </trkpt>
      <trkpt lat="46.46277" lon="6.07221">
        <ele>1155.9</ele>
        <time>2021-10-06T16:41:19.811Z</time>
      </trkpt>
      <trkpt lat="46.46277" lon="6.07215">
        <ele>1155.7</ele>
        <time>2021-10-06T16:41:24.100Z</time>
      </trkpt>
      <trkpt lat="46.46279" lon="6.07211">
        <ele>1155.6</ele>
        <time>2021-10-06T16:41:27.332Z</time>
      </trkpt>
      <trkpt lat="46.4628" lon="6.07208">
        <ele>1155.5</ele>
        <time>2021-10-06T16:41:30.246Z</time>
      </trkpt>
      <trkpt lat="46.46277" lon="6.07197">
        <ele>1155.1</ele>
        <time>2021-10-06T16:41:38.278Z</time>
      </trkpt>
      <trkpt lat="46.46272" lon="6.0719">
        <ele>1155.2</ele>
        <time>2021-10-06T16:41:45.608Z</time>
      </trkpt>
      <trkpt lat="46.46268" lon="6.07186">
        <ele>1155.3</ele>
        <time>2021-10-06T16:41:50.076Z</time>
      </trkpt>
      <trkpt lat="46.46249" lon="6.07185">
        <ele>1155.3</ele>
        <time>2021-10-06T16:42:09.637Z</time>
      </trkpt>
      <trkpt lat="46.46222" lon="6.07178">
        <ele>1154.6</ele>
        <time>2021-10-06T16:42:36.873Z</time>
      </trkpt>
      <trkpt lat="46.46204" lon="6.07161">
        <ele>1152.9</ele>
        <time>2021-10-06T16:42:59.071Z</time>
      </trkpt>
      <trkpt lat="46.46199" lon="6.07153">
        <ele>1152.1</ele>
        <time>2021-10-06T16:43:06.511Z</time>
      </trkpt>
      <trkpt lat="46.46193" lon="6.07155">
        <ele>1151.6</ele>
        <time>2021-10-06T16:43:12.860Z</time>
      </trkpt>
      <trkpt lat="46.46184" lon="6.07152">
        <ele>1151.3</ele>
        <time>2021-10-06T16:43:22.630Z</time>
      </trkpt>
      <trkpt lat="46.46168" lon="6.07127">
        <ele>1149.7</ele>
        <time>2021-10-06T16:43:46.648Z</time>
      </trkpt>
      <trkpt lat="46.46124" lon="6.07088">
        <ele>1149.5</ele>
        <time>2021-10-06T16:44:41.127Z</time>
      </trkpt>
      <trkpt lat="46.46088" lon="6.07095">
        <ele>1151.3</ele>
        <time>2021-10-06T16:45:20.173Z</time>
      </trkpt>
      <trkpt lat="46.46082" lon="6.07096">
        <ele>1151.4</ele>
        <time>2021-10-06T16:45:26.938Z</time>
      </trkpt>
      <trkpt lat="46.46075" lon="6.07095">
        <ele>1151.1</ele>
        <time>2021-10-06T16:45:35.337Z</time>
      </trkpt>
      <trkpt lat="46.46063" lon="6.07096">
        <ele>1151</ele>
        <time>2021-10-06T16:45:48.121Z</time>
      </trkpt>
      <trkpt lat="46.46041" lon="6.07085">
        <ele>1150.7</ele>
        <time>2021-10-06T16:46:12.425Z</time>
      </trkpt>
      <trkpt lat="46.46026" lon="6.0707">
        <ele>1149.6</ele>
        <time>2021-10-06T16:46:32.850Z</time>
      </trkpt>
      <trkpt lat="46.46" lon="6.07056">
        <ele>1148</ele>
        <time>2021-10-06T16:47:03.637Z</time>
      </trkpt>
      <trkpt lat="46.45986" lon="6.07041">
        <ele>1146.7</ele>
        <time>2021-10-06T16:47:22.178Z</time>
      </trkpt>
      <trkpt lat="46.45981" lon="6.07038">
        <ele>1146.2</ele>
        <time>2021-10-06T16:47:28.400Z</time>
      </trkpt>
      <trkpt lat="46.45974" lon="6.07032">
        <ele>1145.4</ele>
        <time>2021-10-06T16:47:37.628Z</time>
      </trkpt>
      <trkpt lat="46.45946" lon="6.07019">
        <ele>1143.1</ele>
        <time>2021-10-06T16:48:10.421Z</time>
      </trkpt>
      <trkpt lat="46.45931" lon="6.07023">
        <ele>1140.2</ele>
        <time>2021-10-06T16:48:27.960Z</time>
      </trkpt>
      <trkpt lat="46.45903" lon="6.07061">
        <ele>1137.4</ele>
        <time>2021-10-06T16:49:10.877Z</time>
      </trkpt>
      <trkpt lat="46.45893" lon="6.07076">
        <ele>1136</ele>
        <time>2021-10-06T16:49:26.658Z</time>
      </trkpt>
      <trkpt lat="46.45884" lon="6.07076">
        <ele>1134.1</ele>
        <time>2021-10-06T16:49:38.378Z</time>
      </trkpt>
      <trkpt lat="46.45868" lon="6.07074">
        <ele>1133.2</ele>
        <time>2021-10-06T16:49:55.901Z</time>
      </trkpt>
      <trkpt lat="46.45863" lon="6.07063">
        <ele>1131.9</ele>
        <time>2021-10-06T16:50:05.968Z</time>
      </trkpt>
      <trkpt lat="46.45862" lon="6.07045">
        <ele>1130.6</ele>
        <time>2021-10-06T16:50:21.017Z</time>
      </trkpt>
      <trkpt lat="46.45859" lon="6.07042">
        <ele>1130.5</ele>
        <time>2021-10-06T16:50:24.838Z</time>
      </trkpt>
      <trkpt lat="46.45838" lon="6.07018">
        <ele>1128.8</ele>
        <time>2021-10-06T16:50:53.096Z</time>
      </trkpt>
      <trkpt lat="46.45831" lon="6.07007">
        <ele>1128.2</ele>
        <time>2021-10-06T16:51:04.901Z</time>
      </trkpt>
      <trkpt lat="46.45826" lon="6.06998">
        <ele>1127.7</ele>
        <time>2021-10-06T16:51:13.319Z</time>
      </trkpt>
      <trkpt lat="46.45822" lon="6.06992">
        <ele>1127.4</ele>
        <time>2021-10-06T16:51:18.923Z</time>
      </trkpt>
      <trkpt lat="46.45794" lon="6.06949">
        <ele>1125.7</ele>
        <time>2021-10-06T16:52:03.516Z</time>
      </trkpt>
      <trkpt lat="46.4579" lon="6.06942">
        <ele>1125.4</ele>
        <time>2021-10-06T16:52:10.211Z</time>
      </trkpt>
      <trkpt lat="46.45767" lon="6.06898">
        <ele>1125</ele>
        <time>2021-10-06T16:52:51.255Z</time>
      </trkpt>
      <trkpt lat="46.45736" lon="6.06825">
        <ele>1123.9</ele>
        <time>2021-10-06T16:53:52.813Z</time>
      </trkpt>
      <trkpt lat="46.45687" lon="6.06684">
        <ele>1123.7</ele>
        <time>2021-10-06T16:55:43.164Z</time>
      </trkpt>
      <trkpt lat="46.45643" lon="6.06427">
        <ele>1123.4</ele>
        <time>2021-10-06T16:58:56.157Z</time>
      </trkpt>
      <trkpt lat="46.45641" lon="6.06421">
        <ele>1123.8</ele>
        <time>2021-10-06T16:59:02.042Z</time>
      </trkpt>
      <trkpt lat="46.4564" lon="6.06417">
        <ele>1124</ele>
        <time>2021-10-06T16:59:04.928Z</time>
      </trkpt>
      <trkpt lat="46.45635" lon="6.06409">
        <ele>1125</ele>
        <time>2021-10-06T16:59:13.060Z</time>
      </trkpt>
      <trkpt lat="46.45627" lon="6.06395">
        <ele>1126.6</ele>
        <time>2021-10-06T16:59:26.792Z</time>
      </trkpt>
      <trkpt lat="46.45603" lon="6.06365">
        <ele>1128.1</ele>
        <time>2021-10-06T17:00:04.890Z</time>
      </trkpt>
      <trkpt lat="46.45599" lon="6.06357">
        <ele>1127.9</ele>
        <time>2021-10-06T17:00:13.592Z</time>
      </trkpt>
      <trkpt lat="46.45574" lon="6.06379">
        <ele>1129.3</ele>
        <time>2021-10-06T17:00:49.281Z</time>
      </trkpt>
      <trkpt lat="46.45564" lon="6.06389">
        <ele>1129.3</ele>
        <time>2021-10-06T17:01:04.152Z</time>
      </trkpt>
      <trkpt lat="46.45563" lon="6.06386">
        <ele>1129.3</ele>
        <time>2021-10-06T17:01:10.329Z</time>
      </trkpt>
      <trkpt lat="46.45501" lon="6.06417">
        <ele>1137</ele>
        <time>2021-10-06T17:02:37.071Z</time>
      </trkpt>
      <trkpt lat="46.45484" lon="6.06433">
        <ele>1141.5</ele>
        <time>2021-10-06T17:03:07.669Z</time>
      </trkpt>
      <trkpt lat="46.45458" lon="6.06417">
        <ele>1145.6</ele>
        <time>2021-10-06T17:03:53.280Z</time>
      </trkpt>
      <trkpt lat="46.45408" lon="6.06428">
        <ele>1151.7</ele>
        <time>2021-10-06T17:05:16.143Z</time>
      </trkpt>
      <trkpt lat="46.45387" lon="6.06438">
        <ele>1154.7</ele>
        <time>2021-10-06T17:05:54.106Z</time>
      </trkpt>
      <trkpt lat="46.4535" lon="6.06481">
        <ele>1153.4</ele>
        <time>2021-10-06T17:07:21.474Z</time>
      </trkpt>
      <trkpt lat="46.45298" lon="6.06456">
        <ele>1165.2</ele>
        <time>2021-10-06T17:09:14.810Z</time>
      </trkpt>
      <trkpt lat="46.45274" lon="6.06433">
        <ele>1174.2</ele>
        <time>2021-10-06T17:10:15.699Z</time>
      </trkpt>
      <trkpt lat="46.4527" lon="6.06403">
        <ele>1181.7</ele>
        <time>2021-10-06T17:11:03.368Z</time>
      </trkpt>
      <trkpt lat="46.45289" lon="6.06333">
        <ele>1193.7</ele>
        <time>2021-10-06T17:13:01.750Z</time>
      </trkpt>
      <trkpt lat="46.45303" lon="6.0621">
        <ele>1215.2</ele>
        <time>2021-10-06T17:16:15.635Z</time>
      </trkpt>
      <trkpt lat="46.453" lon="6.0617">
        <ele>1223.9</ele>
        <time>2021-10-06T17:17:15.826Z</time>
      </trkpt>
      <trkpt lat="46.45288" lon="6.06126">
        <ele>1233.2</ele>
        <time>2021-10-06T17:18:24.243Z</time>
      </trkpt>
      <trkpt lat="46.45268" lon="6.06091">
        <ele>1241.9</ele>
        <time>2021-10-06T17:19:24.981Z</time>
      </trkpt>
      <trkpt lat="46.45248" lon="6.06081">
        <ele>1246.5</ele>
        <time>2021-10-06T17:20:05.697Z</time>
      </trkpt>
      <trkpt lat="46.45215" lon="6.06087">
        <ele>1254.3</ele>
        <time>2021-10-06T17:21:05.785Z</time>
      </trkpt>
      <trkpt lat="46.4518" lon="6.06102">
        <ele>1262.9</ele>
        <time>2021-10-06T17:22:07.372Z</time>
      </trkpt>
      <trkpt lat="46.45143" lon="6.06151">
        <ele>1269.9</ele>
        <time>2021-10-06T17:23:26.211Z</time>
      </trkpt>
      <trkpt lat="46.45136" lon="6.06171">
        <ele>1269.7</ele>
        <time>2021-10-06T17:23:49.171Z</time>
      </trkpt>
      <trkpt lat="46.45125" lon="6.06248">
        <ele>1268</ele>
        <time>2021-10-06T17:25:14.906Z</time>
      </trkpt>
      <trkpt lat="46.45101" lon="6.06287">
        <ele>1270.7</ele>
        <time>2021-10-06T17:26:14.341Z</time>
      </trkpt>
      <trkpt lat="46.451" lon="6.06314">
        <ele>1269</ele>
        <time>2021-10-06T17:26:45.558Z</time>
      </trkpt>
      <trkpt lat="46.4509" lon="6.0632">
        <ele>1272.7</ele>
        <time>2021-10-06T17:27:04.429Z</time>
      </trkpt>
      <trkpt lat="46.45074" lon="6.0635">
        <ele>1272.2</ele>
        <time>2021-10-06T17:27:51.015Z</time>
      </trkpt>
      <trkpt lat="46.4506" lon="6.06356">
        <ele>1276.2</ele>
        <time>2021-10-06T17:28:18.777Z</time>
      </trkpt>
      <trkpt lat="46.45033" lon="6.06354">
        <ele>1286.6</ele>
        <time>2021-10-06T17:29:11.942Z</time>
      </trkpt>
      <trkpt lat="46.45007" lon="6.06359">
        <ele>1293.1</ele>
        <time>2021-10-06T17:30:03.054Z</time>
      </trkpt>
      <trkpt lat="46.44974" lon="6.06396">
        <ele>1302.8</ele>
        <time>2021-10-06T17:31:28.654Z</time>
      </trkpt>
      <trkpt lat="46.44953" lon="6.0641">
        <ele>1306.7</ele>
        <time>2021-10-06T17:32:18.645Z</time>
      </trkpt>
      <trkpt lat="46.44925" lon="6.06399">
        <ele>1314.4</ele>
        <time>2021-10-06T17:33:22.171Z</time>
      </trkpt>
      <trkpt lat="46.44885" lon="6.06433">
        <ele>1328.9</ele>
        <time>2021-10-06T17:35:04.740Z</time>
      </trkpt>
      <trkpt lat="46.44851" lon="6.06444">
        <ele>1339.4</ele>
        <time>2021-10-06T17:36:23.130Z</time>
      </trkpt>
      <trkpt lat="46.44834" lon="6.06457">
        <ele>1344.9</ele>
        <time>2021-10-06T17:37:04.260Z</time>
      </trkpt>
      <trkpt lat="46.44816" lon="6.0648">
        <ele>1349.5</ele>
        <time>2021-10-06T17:37:55.447Z</time>
      </trkpt>
      <trkpt lat="46.44777" lon="6.06503">
        <ele>1362.8</ele>
        <time>2021-10-06T17:39:20.061Z</time>
      </trkpt>
      <trkpt lat="46.44732" lon="6.06546">
        <ele>1374.9</ele>
        <time>2021-10-06T17:41:02.271Z</time>
      </trkpt>
      <trkpt lat="46.44713" lon="6.06589">
        <ele>1381.9</ele>
        <time>2021-10-06T17:42:01.845Z</time>
      </trkpt>
      <trkpt lat="46.44686" lon="6.06616">
        <ele>1390.3</ele>
        <time>2021-10-06T17:42:49.253Z</time>
      </trkpt>
      <trkpt lat="46.44676" lon="6.06681">
        <ele>1395.1</ele>
        <time>2021-10-06T17:43:49.921Z</time>
      </trkpt>
      <trkpt lat="46.44649" lon="6.06755">
        <ele>1398.7</ele>
        <time>2021-10-06T17:44:56.444Z</time>
      </trkpt>
      <trkpt lat="46.44609" lon="6.06849">
        <ele>1399.7</ele>
        <time>2021-10-06T17:46:12.305Z</time>
      </trkpt>
      <trkpt lat="46.44588" lon="6.06874">
        <ele>1400.9</ele>
        <time>2021-10-06T17:46:40.181Z</time>
      </trkpt>
      <trkpt lat="46.44587" lon="6.06884">
        <ele>1401.6</ele>
        <time>2021-10-06T17:46:47.828Z</time>
      </trkpt>
      <trkpt lat="46.44594" lon="6.06904">
        <ele>1399.6</ele>
        <time>2021-10-06T17:47:05.176Z</time>
      </trkpt>
      <trkpt lat="46.44567" lon="6.06982">
        <ele>1396.1</ele>
        <time>2021-10-06T17:48:08.921Z</time>
      </trkpt>
      <trkpt lat="46.44563" lon="6.06985">
        <ele>1396.8</ele>
        <time>2021-10-06T17:48:16.444Z</time>
      </trkpt>
      <trkpt lat="46.44544" lon="6.06974">
        <ele>1398.4</ele>
        <time>2021-10-06T17:48:44.380Z</time>
      </trkpt>
      <trkpt lat="46.44524" lon="6.06958">
        <ele>1399</ele>
        <time>2021-10-06T17:49:07.837Z</time>
      </trkpt>
      <trkpt lat="46.44516" lon="6.06904">
        <ele>1401.2</ele>
        <time>2021-10-06T17:49:51.819Z</time>
      </trkpt>
      <trkpt lat="46.44493" lon="6.06812">
        <ele>1405.8</ele>
        <time>2021-10-06T17:51:10.754Z</time>
      </trkpt>
      <trkpt lat="46.44484" lon="6.06801">
        <ele>1407.1</ele>
        <time>2021-10-06T17:51:32.113Z</time>
      </trkpt>
      <trkpt lat="46.44469" lon="6.06825">
        <ele>1405.9</ele>
        <time>2021-10-06T17:51:58.166Z</time>
      </trkpt>
      <trkpt lat="46.44441" lon="6.06852">
        <ele>1404.8</ele>
        <time>2021-10-06T17:52:39.397Z</time>
      </trkpt>
      <trkpt lat="46.44393" lon="6.06864">
        <ele>1400.2</ele>
        <time>2021-10-06T17:53:37.361Z</time>
      </trkpt>
      <trkpt lat="46.44381" lon="6.06865">
        <ele>1399.2</ele>
        <time>2021-10-06T17:53:50.566Z</time>
      </trkpt>
      <trkpt lat="46.4437" lon="6.06805">
        <ele>1401</ele>
        <time>2021-10-06T17:54:37.646Z</time>
      </trkpt>
      <trkpt lat="46.4437" lon="6.0675">
        <ele>1404.3</ele>
        <time>2021-10-06T17:55:15.668Z</time>
      </trkpt>
      <trkpt lat="46.44386" lon="6.06647">
        <ele>1398.5</ele>
        <time>2021-10-06T17:56:29.506Z</time>
      </trkpt>
      <trkpt lat="46.44368" lon="6.0653">
        <ele>1391.5</ele>
        <time>2021-10-06T17:57:57.738Z</time>
      </trkpt>
      <trkpt lat="46.44363" lon="6.06407">
        <ele>1387.2</ele>
        <time>2021-10-06T17:59:34.024Z</time>
      </trkpt>
      <trkpt lat="46.44351" lon="6.06356">
        <ele>1387.3</ele>
        <time>2021-10-06T18:00:17.492Z</time>
      </trkpt>
      <trkpt lat="46.44321" lon="6.06332">
        <ele>1391.8</ele>
        <time>2021-10-06T18:00:58.184Z</time>
      </trkpt>
      <trkpt lat="46.44199" lon="6.06298">
        <ele>1382.8</ele>
        <time>2021-10-06T18:03:26.434Z</time>
      </trkpt>
      <trkpt lat="46.44184" lon="6.06298">
        <ele>1380.6</ele>
        <time>2021-10-06T18:03:44.732Z</time>
      </trkpt>
      <trkpt lat="46.44131" lon="6.06341">
        <ele>1371.4</ele>
        <time>2021-10-06T18:04:55.610Z</time>
      </trkpt>
      <trkpt lat="46.4412" lon="6.06339">
        <ele>1369.9</ele>
        <time>2021-10-06T18:05:08.379Z</time>
      </trkpt>
      <trkpt lat="46.44088" lon="6.06296">
        <ele>1366.4</ele>
        <time>2021-10-06T18:05:57.210Z</time>
      </trkpt>
      <trkpt lat="46.44065" lon="6.06204">
        <ele>1361.8</ele>
        <time>2021-10-06T18:07:09.045Z</time>
      </trkpt>
      <trkpt lat="46.44054" lon="6.06075">
        <ele>1359.4</ele>
        <time>2021-10-06T18:08:43.785Z</time>
      </trkpt>
      <trkpt lat="46.44042" lon="6.06079">
        <ele>1359.9</ele>
        <time>2021-10-06T18:08:58.044Z</time>
      </trkpt>
      <trkpt lat="46.44026" lon="6.06077">
        <ele>1360.2</ele>
        <time>2021-10-06T18:09:15.661Z</time>
      </trkpt>
      <trkpt lat="46.4402" lon="6.06072">
        <ele>1360.2</ele>
        <time>2021-10-06T18:09:24.607Z</time>
      </trkpt>
      <trkpt lat="46.44013" lon="6.06063">
        <ele>1359.9</ele>
        <time>2021-10-06T18:09:35.948Z</time>
      </trkpt>
      <trkpt lat="46.43988" lon="6.06018">
        <ele>1361.7</ele>
        <time>2021-10-06T18:10:23.533Z</time>
      </trkpt>
      <trkpt lat="46.43984" lon="6.06004">
        <ele>1362.3</ele>
        <time>2021-10-06T18:10:35.924Z</time>
      </trkpt>
      <trkpt lat="46.43943" lon="6.0604">
        <ele>1372.6</ele>
        <time>2021-10-06T18:11:35.143Z</time>
      </trkpt>
      <trkpt lat="46.43878" lon="6.06073">
        <ele>1379.7</ele>
        <time>2021-10-06T18:12:58.526Z</time>
      </trkpt>
      <trkpt lat="46.43854" lon="6.06112">
        <ele>1383.1</ele>
        <time>2021-10-06T18:13:41.122Z</time>
      </trkpt>
      <trkpt lat="46.43846" lon="6.06155">
        <ele>1389.1</ele>
        <time>2021-10-06T18:14:16.704Z</time>
      </trkpt>
      <trkpt lat="46.43825" lon="6.06167">
        <ele>1389.2</ele>
        <time>2021-10-06T18:14:41.548Z</time>
      </trkpt>
      <trkpt lat="46.4378" lon="6.06124">
        <ele>1385.6</ele>
        <time>2021-10-06T18:15:38.486Z</time>
      </trkpt>
      <trkpt lat="46.43764" lon="6.06131">
        <ele>1383.1</ele>
        <time>2021-10-06T18:15:56.414Z</time>
      </trkpt>
      <trkpt lat="46.43734" lon="6.06166">
        <ele>1382.2</ele>
        <time>2021-10-06T18:16:36.549Z</time>
      </trkpt>
      <trkpt lat="46.43696" lon="6.06194">
        <ele>1380.2</ele>
        <time>2021-10-06T18:17:20.323Z</time>
      </trkpt>
      <trkpt lat="46.43658" lon="6.06192">
        <ele>1377</ele>
        <time>2021-10-06T18:17:59.023Z</time>
      </trkpt>
      <trkpt lat="46.4361" lon="6.06238">
        <ele>1382</ele>
        <time>2021-10-06T18:18:58.855Z</time>
      </trkpt>
      <trkpt lat="46.43588" lon="6.06278">
        <ele>1379.8</ele>
        <time>2021-10-06T18:19:35.139Z</time>
      </trkpt>
      <trkpt lat="46.43534" lon="6.06416">
        <ele>1384.5</ele>
        <time>2021-10-06T18:21:28.281Z</time>
      </trkpt>
      <trkpt lat="46.4351" lon="6.0642">
        <ele>1386.3</ele>
        <time>2021-10-06T18:21:52.607Z</time>
      </trkpt>
      <trkpt lat="46.43451" lon="6.06407">
        <ele>1387.9</ele>
        <time>2021-10-06T18:22:53.028Z</time>
      </trkpt>
      <trkpt lat="46.43423" lon="6.06428">
        <ele>1388.5</ele>
        <time>2021-10-06T18:23:26.124Z</time>
      </trkpt>
      <trkpt lat="46.43397" lon="6.06425">
        <ele>1387.5</ele>
        <time>2021-10-06T18:23:52.831Z</time>
      </trkpt>
      <trkpt lat="46.43314" lon="6.06328">
        <ele>1386.6</ele>
        <time>2021-10-06T18:25:44.992Z</time>
      </trkpt>
      <trkpt lat="46.43298" lon="6.06291">
        <ele>1388.2</ele>
        <time>2021-10-06T18:26:17.002Z</time>
      </trkpt>
      <trkpt lat="46.43271" lon="6.06254">
        <ele>1384.5</ele>
        <time>2021-10-06T18:26:56.984Z</time>
      </trkpt>
      <trkpt lat="46.43206" lon="6.06205">
        <ele>1382.5</ele>
        <time>2021-10-06T18:28:14.890Z</time>
      </trkpt>
      <trkpt lat="46.43165" lon="6.06162">
        <ele>1376.2</ele>
        <time>2021-10-06T18:29:08.267Z</time>
      </trkpt>
      <trkpt lat="46.43141" lon="6.06151">
        <ele>1375.4</ele>
        <time>2021-10-06T18:29:35.369Z</time>
      </trkpt>
      <trkpt lat="46.43121" lon="6.0615">
        <ele>1375.5</ele>
        <time>2021-10-06T18:29:56.093Z</time>
      </trkpt>
      <trkpt lat="46.43078" lon="6.06141">
        <ele>1374.9</ele>
        <time>2021-10-06T18:30:43.030Z</time>
      </trkpt>
      <trkpt lat="46.43043" lon="6.06123">
        <ele>1376.5</ele>
        <time>2021-10-06T18:31:22.906Z</time>
      </trkpt>
      <trkpt lat="46.43028" lon="6.061">
        <ele>1377</ele>
        <time>2021-10-06T18:31:47.039Z</time>
      </trkpt>
      <trkpt lat="46.43012" lon="6.06057">
        <ele>1376.8</ele>
        <time>2021-10-06T18:32:23.549Z</time>
      </trkpt>
      <trkpt lat="46.43004" lon="6.06036">
        <ele>1377</ele>
        <time>2021-10-06T18:32:41.643Z</time>
      </trkpt>
      <trkpt lat="46.42955" lon="6.05974">
        <ele>1373.7</ele>
        <time>2021-10-06T18:33:52.906Z</time>
      </trkpt>
      <trkpt lat="46.4294" lon="6.05952">
        <ele>1370.1</ele>
        <time>2021-10-06T18:34:16.387Z</time>
      </trkpt>
      <trkpt lat="46.42933" lon="6.05942">
        <ele>1368.7</ele>
        <time>2021-10-06T18:34:27.505Z</time>
      </trkpt>
      <trkpt lat="46.42888" lon="6.05873">
        <ele>1359.9</ele>
        <time>2021-10-06T18:35:40.069Z</time>
      </trkpt>
      <trkpt lat="46.42857" lon="6.05821">
        <ele>1355.9</ele>
        <time>2021-10-06T18:36:32.675Z</time>
      </trkpt>
      <trkpt lat="46.42851" lon="6.05789">
        <ele>1354.5</ele>
        <time>2021-10-06T18:36:57.345Z</time>
      </trkpt>
      <trkpt lat="46.4286" lon="6.05718">
        <ele>1350.9</ele>
        <time>2021-10-06T18:37:50.462Z</time>
      </trkpt>
      <trkpt lat="46.42882" lon="6.05637">
        <ele>1348.2</ele>
        <time>2021-10-06T18:38:53.487Z</time>
      </trkpt>
      <trkpt lat="46.42884" lon="6.05598">
        <ele>1347.9</ele>
        <time>2021-10-06T18:39:21.291Z</time>
      </trkpt>
      <trkpt lat="46.42861" lon="6.05525">
        <ele>1348.1</ele>
        <time>2021-10-06T18:40:18.446Z</time>
      </trkpt>
      <trkpt lat="46.42781" lon="6.05358">
        <ele>1351.5</ele>
        <time>2021-10-06T18:42:39.787Z</time>
      </trkpt>
      <trkpt lat="46.42763" lon="6.05315">
        <ele>1356</ele>
        <time>2021-10-06T18:43:15.358Z</time>
      </trkpt>
      <trkpt lat="46.42752" lon="6.05299">
        <ele>1356</ele>
        <time>2021-10-06T18:43:31.127Z</time>
      </trkpt>
      <trkpt lat="46.42736" lon="6.05287">
        <ele>1355.3</ele>
        <time>2021-10-06T18:43:49.877Z</time>
      </trkpt>
      <trkpt lat="46.42682" lon="6.05278">
        <ele>1351.5</ele>
        <time>2021-10-06T18:44:46.423Z</time>
      </trkpt>
      <trkpt lat="46.42609" lon="6.05205">
        <ele>1352.9</ele>
        <time>2021-10-06T18:46:21.053Z</time>
      </trkpt>
      <trkpt lat="46.42519" lon="6.05154">
        <ele>1350</ele>
        <time>2021-10-06T18:48:07.459Z</time>
      </trkpt>
      <trkpt lat="46.42423" lon="6.05124">
        <ele>1341.4</ele>
        <time>2021-10-06T18:49:53.011Z</time>
      </trkpt>
      <trkpt lat="46.42377" lon="6.051">
        <ele>1339.9</ele>
        <time>2021-10-06T18:50:42.633Z</time>
      </trkpt>
      <trkpt lat="46.4236" lon="6.05089">
        <ele>1338.9</ele>
        <time>2021-10-06T18:51:01.767Z</time>
      </trkpt>
      <trkpt lat="46.42355" lon="6.05067">
        <ele>1338.9</ele>
        <time>2021-10-06T18:51:19.470Z</time>
      </trkpt>
      <trkpt lat="46.4234" lon="6.0497">
        <ele>1342</ele>
        <time>2021-10-06T18:52:36.228Z</time>
      </trkpt>
      <trkpt lat="46.42341" lon="6.04956">
        <ele>1342.8</ele>
        <time>2021-10-06T18:52:47.902Z</time>
      </trkpt>
      <trkpt lat="46.42367" lon="6.04926">
        <ele>1344.9</ele>
        <time>2021-10-06T18:53:29.053Z</time>
      </trkpt>
      <trkpt lat="46.42381" lon="6.04894">
        <ele>1346.4</ele>
        <time>2021-10-06T18:54:02.329Z</time>
      </trkpt>
      <trkpt lat="46.42402" lon="6.04823">
        <ele>1349.8</ele>
        <time>2021-10-06T18:55:12.506Z</time>
      </trkpt>
      <trkpt lat="46.4239" lon="6.04719">
        <ele>1361.5</ele>
        <time>2021-10-06T18:56:49.383Z</time>
      </trkpt>
      <trkpt lat="46.42354" lon="6.04569">
        <ele>1370.5</ele>
        <time>2021-10-06T18:59:09.869Z</time>
      </trkpt>
      <trkpt lat="46.42354" lon="6.0447">
        <ele>1380.1</ele>
        <time>2021-10-06T19:00:30.016Z</time>
      </trkpt>
      <trkpt lat="46.42348" lon="6.04397">
        <ele>1382.2</ele>
        <time>2021-10-06T19:01:23.936Z</time>
      </trkpt>
      <trkpt lat="46.42353" lon="6.04272">
        <ele>1362.9</ele>
        <time>2021-10-06T19:02:53.312Z</time>
      </trkpt>
      <trkpt lat="46.42374" lon="6.04096">
        <ele>1358</ele>
        <time>2021-10-06T19:05:06.690Z</time>
      </trkpt>
      <trkpt lat="46.42388" lon="6.0405">
        <ele>1357</ele>
        <time>2021-10-06T19:05:43.766Z</time>
      </trkpt>
      <trkpt lat="46.42391" lon="6.0402">
        <ele>1357.6</ele>
        <time>2021-10-06T19:06:06.131Z</time>
      </trkpt>
      <trkpt lat="46.42385" lon="6.03928">
        <ele>1357.8</ele>
        <time>2021-10-06T19:07:12.799Z</time>
      </trkpt>
      <trkpt lat="46.42362" lon="6.0389">
        <ele>1359</ele>
        <time>2021-10-06T19:07:49.838Z</time>
      </trkpt>
      <trkpt lat="46.42357" lon="6.03876">
        <ele>1358.4</ele>
        <time>2021-10-06T19:08:00.636Z</time>
      </trkpt>
      <trkpt lat="46.42354" lon="6.03784">
        <ele>1350.4</ele>
        <time>2021-10-06T19:09:06.510Z</time>
      </trkpt>
      <trkpt lat="46.42392" lon="6.03653">
        <ele>1350.9</ele>
        <time>2021-10-06T19:10:52.056Z</time>
      </trkpt>
      <trkpt lat="46.42399" lon="6.03619">
        <ele>1349.6</ele>
        <time>2021-10-06T19:11:19.466Z</time>
      </trkpt>
      <trkpt lat="46.42402" lon="6.03607">
        <ele>1348.8</ele>
        <time>2021-10-06T19:11:29.174Z</time>
      </trkpt>
      <trkpt lat="46.42401" lon="6.03597">
        <ele>1348.1</ele>
        <time>2021-10-06T19:11:37.077Z</time>
      </trkpt>
      <trkpt lat="46.42399" lon="6.03563">
        <ele>1345.4</ele>
        <time>2021-10-06T19:12:04.293Z</time>
      </trkpt>
      <trkpt lat="46.42379" lon="6.03422">
        <ele>1329.8</ele>
        <time>2021-10-06T19:14:02.115Z</time>
      </trkpt>
      <trkpt lat="46.4238" lon="6.03368">
        <ele>1323.4</ele>
        <time>2021-10-06T19:14:47.433Z</time>
      </trkpt>
      <trkpt lat="46.42368" lon="6.03325">
        <ele>1318.6</ele>
        <time>2021-10-06T19:15:27.034Z</time>
      </trkpt>
      <trkpt lat="46.42365" lon="6.03298">
        <ele>1317.4</ele>
        <time>2021-10-06T19:15:50.079Z</time>
      </trkpt>
      <trkpt lat="46.42366" lon="6.03199">
        <ele>1308</ele>
        <time>2021-10-06T19:17:15.917Z</time>
      </trkpt>
      <trkpt lat="46.42384" lon="6.0313">
        <ele>1302.3</ele>
        <time>2021-10-06T19:18:20.122Z</time>
      </trkpt>
      <trkpt lat="46.4239" lon="6.03074">
        <ele>1298.6</ele>
        <time>2021-10-06T19:19:08.112Z</time>
      </trkpt>
      <trkpt lat="46.4241" lon="6.03055">
        <ele>1295.7</ele>
        <time>2021-10-06T19:19:37.071Z</time>
      </trkpt>
      <trkpt lat="46.42425" lon="6.0305">
        <ele>1294.7</ele>
        <time>2021-10-06T19:19:55.686Z</time>
      </trkpt>
      <trkpt lat="46.42416" lon="6.03039">
        <ele>1293.8</ele>
        <time>2021-10-06T19:20:09.076Z</time>
      </trkpt>
      <trkpt lat="46.42419" lon="6.03038">
        <ele>1293.8</ele>
        <time>2021-10-06T19:20:13.079Z</time>
      </trkpt>
      <trkpt lat="46.42435" lon="6.03013">
        <ele>1292.7</ele>
        <time>2021-10-06T19:20:40.056Z</time>
      </trkpt>
      <trkpt lat="46.42436" lon="6.03007">
        <ele>1292.4</ele>
        <time>2021-10-06T19:20:45.154Z</time>
      </trkpt>
      <trkpt lat="46.4244" lon="6.03012">
        <ele>1293.1</ele>
        <time>2021-10-06T19:20:51.232Z</time>
      </trkpt>
      <trkpt lat="46.42491" lon="6.03087">
        <ele>1297.7</ele>
        <time>2021-10-06T19:22:09.209Z</time>
      </trkpt>
      <trkpt lat="46.42495" lon="6.03095">
        <ele>1298.4</ele>
        <time>2021-10-06T19:22:17.501Z</time>
      </trkpt>
      <trkpt lat="46.42491" lon="6.03087">
        <ele>1297.7</ele>
        <time>2021-10-06T19:22:25.602Z</time>
      </trkpt>
      <trkpt lat="46.4244" lon="6.03012">
        <ele>1293.1</ele>
        <time>2021-10-06T19:23:47.755Z</time>
      </trkpt>
      <trkpt lat="46.42436" lon="6.03007">
        <ele>1292.4</ele>
        <time>2021-10-06T19:23:54.153Z</time>
      </trkpt>
      <trkpt lat="46.42435" lon="6.03013">
        <ele>1292.7</ele>
        <time>2021-10-06T19:23:59.790Z</time>
      </trkpt>
      <trkpt lat="46.42419" lon="6.03038">
        <ele>1293.8</ele>
        <time>2021-10-06T19:24:29.327Z</time>
      </trkpt>
      <trkpt lat="46.42416" lon="6.03039">
        <ele>1293.8</ele>
        <time>2021-10-06T19:24:34.165Z</time>
      </trkpt>
      <trkpt lat="46.42425" lon="6.0305">
        <ele>1294.7</ele>
        <time>2021-10-06T19:24:48.703Z</time>
      </trkpt>
      <trkpt lat="46.4241" lon="6.03055">
        <ele>1295.7</ele>
        <time>2021-10-06T19:25:09.710Z</time>
      </trkpt>
      <trkpt lat="46.4239" lon="6.03074">
        <ele>1298.6</ele>
        <time>2021-10-06T19:25:41.870Z</time>
      </trkpt>
      <trkpt lat="46.42384" lon="6.0313">
        <ele>1302.3</ele>
        <time>2021-10-06T19:26:37.293Z</time>
      </trkpt>
      <trkpt lat="46.42366" lon="6.03199">
        <ele>1308</ele>
        <time>2021-10-06T19:27:55.623Z</time>
      </trkpt>
      <trkpt lat="46.42365" lon="6.03298">
        <ele>1317.4</ele>
        <time>2021-10-06T19:29:38.813Z</time>
      </trkpt>
      <trkpt lat="46.42368" lon="6.03325">
        <ele>1318.6</ele>
        <time>2021-10-06T19:30:05.648Z</time>
      </trkpt>
      <trkpt lat="46.4238" lon="6.03368">
        <ele>1323.4</ele>
        <time>2021-10-06T19:30:51.762Z</time>
      </trkpt>
      <trkpt lat="46.42379" lon="6.03422">
        <ele>1329.8</ele>
        <time>2021-10-06T19:31:44.466Z</time>
      </trkpt>
      <trkpt lat="46.42399" lon="6.03563">
        <ele>1345.4</ele>
        <time>2021-10-06T19:33:57.765Z</time>
      </trkpt>
      <trkpt lat="46.42401" lon="6.03597">
        <ele>1348.1</ele>
        <time>2021-10-06T19:34:28.211Z</time>
      </trkpt>
      <trkpt lat="46.42402" lon="6.03607">
        <ele>1348.8</ele>
        <time>2021-10-06T19:34:36.957Z</time>
      </trkpt>
      <trkpt lat="46.42399" lon="6.03619">
        <ele>1349.6</ele>
        <time>2021-10-06T19:34:47.526Z</time>
      </trkpt>
      <trkpt lat="46.42388" lon="6.03655">
        <ele>1350.9</ele>
        <time>2021-10-06T19:35:21.456Z</time>
      </trkpt>
      <trkpt lat="46.42365" lon="6.03691">
        <ele>1353</ele>
        <time>2021-10-06T19:36:02.233Z</time>
      </trkpt>
      <trkpt lat="46.42319" lon="6.03738">
        <ele>1356.4</ele>
        <time>2021-10-06T19:37:08.123Z</time>
      </trkpt>
      <trkpt lat="46.42313" lon="6.03761">
        <ele>1356.5</ele>
        <time>2021-10-06T19:37:28.049Z</time>
      </trkpt>
      <trkpt lat="46.42329" lon="6.03833">
        <ele>1357.8</ele>
        <time>2021-10-06T19:38:25.725Z</time>
      </trkpt>
      <trkpt lat="46.42325" lon="6.03905">
        <ele>1362.5</ele>
        <time>2021-10-06T19:39:19.421Z</time>
      </trkpt>
      <trkpt lat="46.42318" lon="6.03918">
        <ele>1362.9</ele>
        <time>2021-10-06T19:39:31.753Z</time>
      </trkpt>
      <trkpt lat="46.423" lon="6.03929">
        <ele>1362.9</ele>
        <time>2021-10-06T19:39:52.624Z</time>
      </trkpt>
      <trkpt lat="46.42262" lon="6.03937">
        <ele>1365.3</ele>
        <time>2021-10-06T19:40:34.153Z</time>
      </trkpt>
      <trkpt lat="46.4217" lon="6.03982">
        <ele>1372.3</ele>
        <time>2021-10-06T19:42:17.316Z</time>
      </trkpt>
      <trkpt lat="46.42139" lon="6.04018">
        <ele>1371</ele>
        <time>2021-10-06T19:42:57.703Z</time>
      </trkpt>
      <trkpt lat="46.42105" lon="6.04079">
        <ele>1372.6</ele>
        <time>2021-10-06T19:43:51.748Z</time>
      </trkpt>
      <trkpt lat="46.42084" lon="6.04091">
        <ele>1376.1</ele>
        <time>2021-10-06T19:44:15.478Z</time>
      </trkpt>
      <trkpt lat="46.42056" lon="6.0408">
        <ele>1375.9</ele>
        <time>2021-10-06T19:44:45.047Z</time>
      </trkpt>
      <trkpt lat="46.42019" lon="6.04042">
        <ele>1376.9</ele>
        <time>2021-10-06T19:45:31.019Z</time>
      </trkpt>
      <trkpt lat="46.41998" lon="6.04022">
        <ele>1376.2</ele>
        <time>2021-10-06T19:45:57.350Z</time>
      </trkpt>
      <trkpt lat="46.41996" lon="6.04029">
        <ele>1375.9</ele>
        <time>2021-10-06T19:46:02.807Z</time>
      </trkpt>
      <trkpt lat="46.42" lon="6.04054">
        <ele>1375</ele>
        <time>2021-10-06T19:46:20.950Z</time>
      </trkpt>
      <trkpt lat="46.41987" lon="6.04147">
        <ele>1372.1</ele>
        <time>2021-10-06T19:47:29.559Z</time>
      </trkpt>
      <trkpt lat="46.41976" lon="6.04183">
        <ele>1371.3</ele>
        <time>2021-10-06T19:47:58.631Z</time>
      </trkpt>
      <trkpt lat="46.41924" lon="6.04272">
        <ele>1368.7</ele>
        <time>2021-10-06T19:49:24.130Z</time>
      </trkpt>
      <trkpt lat="46.41934" lon="6.04222">
        <ele>1367.6</ele>
        <time>2021-10-06T19:50:02.962Z</time>
      </trkpt>
      <trkpt lat="46.41931" lon="6.04184">
        <ele>1366.5</ele>
        <time>2021-10-06T19:50:31.183Z</time>
      </trkpt>
      <trkpt lat="46.41922" lon="6.04149">
        <ele>1366.2</ele>
        <time>2021-10-06T19:50:58.454Z</time>
      </trkpt>
      <trkpt lat="46.41911" lon="6.04131">
        <ele>1366.3</ele>
        <time>2021-10-06T19:51:17.013Z</time>
      </trkpt>
      <trkpt lat="46.41879" lon="6.04103">
        <ele>1363.9</ele>
        <time>2021-10-06T19:51:58.202Z</time>
      </trkpt>
      <trkpt lat="46.41848" lon="6.04039">
        <ele>1362.5</ele>
        <time>2021-10-06T19:52:58.212Z</time>
      </trkpt>
      <trkpt lat="46.41819" lon="6.04008">
        <ele>1361</ele>
        <time>2021-10-06T19:53:37.894Z</time>
      </trkpt>
      <trkpt lat="46.41802" lon="6.03977">
        <ele>1359.3</ele>
        <time>2021-10-06T19:54:07.996Z</time>
      </trkpt>
      <trkpt lat="46.41792" lon="6.03936">
        <ele>1357.6</ele>
        <time>2021-10-06T19:54:41.995Z</time>
      </trkpt>
      <trkpt lat="46.41794" lon="6.03895">
        <ele>1358</ele>
        <time>2021-10-06T19:55:12.843Z</time>
      </trkpt>
      <trkpt lat="46.41778" lon="6.03869">
        <ele>1355.7</ele>
        <time>2021-10-06T19:55:40.111Z</time>
      </trkpt>
      <trkpt lat="46.4177" lon="6.03833">
        <ele>1354.9</ele>
        <time>2021-10-06T19:56:08.843Z</time>
      </trkpt>
      <trkpt lat="46.41761" lon="6.03828">
        <ele>1353.9</ele>
        <time>2021-10-06T19:56:19.004Z</time>
      </trkpt>
      <trkpt lat="46.41729" lon="6.03849">
        <ele>1348.7</ele>
        <time>2021-10-06T19:56:57.459Z</time>
      </trkpt>
      <trkpt lat="46.41611" lon="6.03868">
        <ele>1343</ele>
        <time>2021-10-06T19:59:00.531Z</time>
      </trkpt>
      <trkpt lat="46.416" lon="6.03865">
        <ele>1342.7</ele>
        <time>2021-10-06T19:59:12.189Z</time>
      </trkpt>
      <trkpt lat="46.41544" lon="6.0382">
        <ele>1347.6</ele>
        <time>2021-10-06T20:00:22.263Z</time>
      </trkpt>
      <trkpt lat="46.41535" lon="6.03805">
        <ele>1348.5</ele>
        <time>2021-10-06T20:00:38.271Z</time>
      </trkpt>
      <trkpt lat="46.41531" lon="6.03795">
        <ele>1349.2</ele>
        <time>2021-10-06T20:00:47.731Z</time>
      </trkpt>
      <trkpt lat="46.4153" lon="6.03786">
        <ele>1349.7</ele>
        <time>2021-10-06T20:00:55.143Z</time>
      </trkpt>
      <trkpt lat="46.41531" lon="6.03769">
        <ele>1350.1</ele>
        <time>2021-10-06T20:01:09.671Z</time>
      </trkpt>
      <trkpt lat="46.41539" lon="6.03706">
        <ele>1354.1</ele>
        <time>2021-10-06T20:02:03.268Z</time>
      </trkpt>
      <trkpt lat="46.41538" lon="6.0368">
        <ele>1356</ele>
        <time>2021-10-06T20:02:25.378Z</time>
      </trkpt>
      <trkpt lat="46.41519" lon="6.03658">
        <ele>1358</ele>
        <time>2021-10-06T20:02:57.349Z</time>
      </trkpt>
      <trkpt lat="46.41499" lon="6.03637">
        <ele>1360.3</ele>
        <time>2021-10-06T20:03:28.552Z</time>
      </trkpt>
      <trkpt lat="46.41484" lon="6.03618">
        <ele>1363</ele>
        <time>2021-10-06T20:03:54.392Z</time>
      </trkpt>
      <trkpt lat="46.41474" lon="6.03609">
        <ele>1364</ele>
        <time>2021-10-06T20:04:10.814Z</time>
      </trkpt>
      <trkpt lat="46.41443" lon="6.03602">
        <ele>1365.3</ele>
        <time>2021-10-06T20:04:50.117Z</time>
      </trkpt>
      <trkpt lat="46.414" lon="6.03623">
        <ele>1364.1</ele>
        <time>2021-10-06T20:05:49.713Z</time>
      </trkpt>
      <trkpt lat="46.41376" lon="6.03621">
        <ele>1364.1</ele>
        <time>2021-10-06T20:06:20.096Z</time>
      </trkpt>
      <trkpt lat="46.41338" lon="6.03606">
        <ele>1367</ele>
        <time>2021-10-06T20:07:10.737Z</time>
      </trkpt>
      <trkpt lat="46.41312" lon="6.03573">
        <ele>1371.6</ele>
        <time>2021-10-06T20:07:54.076Z</time>
      </trkpt>
      <trkpt lat="46.41282" lon="6.03573">
        <ele>1375.4</ele>
        <time>2021-10-06T20:08:32.740Z</time>
      </trkpt>
      <trkpt lat="46.41224" lon="6.03548">
        <ele>1381</ele>
        <time>2021-10-06T20:09:47.789Z</time>
      </trkpt>
      <trkpt lat="46.41152" lon="6.03431">
        <ele>1381.8</ele>
        <time>2021-10-06T20:11:56.519Z</time>
      </trkpt>
      <trkpt lat="46.41091" lon="6.03379">
        <ele>1382.4</ele>
        <time>2021-10-06T20:13:15.024Z</time>
      </trkpt>
      <trkpt lat="46.41042" lon="6.03323">
        <ele>1384.2</ele>
        <time>2021-10-06T20:14:19.881Z</time>
      </trkpt>
      <trkpt lat="46.41023" lon="6.03293">
        <ele>1384.1</ele>
        <time>2021-10-06T20:14:47.843Z</time>
      </trkpt>
      <trkpt lat="46.41003" lon="6.03277">
        <ele>1384.7</ele>
        <time>2021-10-06T20:15:11.743Z</time>
      </trkpt>
      <trkpt lat="46.40953" lon="6.032">
        <ele>1384.2</ele>
        <time>2021-10-06T20:16:26.692Z</time>
      </trkpt>
      <trkpt lat="46.40933" lon="6.03152">
        <ele>1382.8</ele>
        <time>2021-10-06T20:17:06.874Z</time>
      </trkpt>
      <trkpt lat="46.40897" lon="6.03126">
        <ele>1380.8</ele>
        <time>2021-10-06T20:17:48.559Z</time>
      </trkpt>
      <trkpt lat="46.40858" lon="6.0307">
        <ele>1378.2</ele>
        <time>2021-10-06T20:18:46.096Z</time>
      </trkpt>
      <trkpt lat="46.40819" lon="6.03059">
        <ele>1375.9</ele>
        <time>2021-10-06T20:19:27.124Z</time>
      </trkpt>
      <trkpt lat="46.40744" lon="6.02961">
        <ele>1375.2</ele>
        <time>2021-10-06T20:21:12.231Z</time>
      </trkpt>
      <trkpt lat="46.40736" lon="6.02944">
        <ele>1375</ele>
        <time>2021-10-06T20:21:26.881Z</time>
      </trkpt>
      <trkpt lat="46.40727" lon="6.02924">
        <ele>1373.8</ele>
        <time>2021-10-06T20:21:44.435Z</time>
      </trkpt>
      <trkpt lat="46.40658" lon="6.02853">
        <ele>1372.5</ele>
        <time>2021-10-06T20:23:15.619Z</time>
      </trkpt>
      <trkpt lat="46.40646" lon="6.02835">
        <ele>1373.3</ele>
        <time>2021-10-06T20:23:35.743Z</time>
      </trkpt>
      <trkpt lat="46.40632" lon="6.02827">
        <ele>1373.1</ele>
        <time>2021-10-06T20:23:52.376Z</time>
      </trkpt>
      <trkpt lat="46.4061" lon="6.0282">
        <ele>1373.1</ele>
        <time>2021-10-06T20:24:19.697Z</time>
      </trkpt>
      <trkpt lat="46.40553" lon="6.02783">
        <ele>1365.7</ele>
        <time>2021-10-06T20:25:32.594Z</time>
      </trkpt>
      <trkpt lat="46.40549" lon="6.02742">
        <ele>1361.5</ele>
        <time>2021-10-06T20:26:04.665Z</time>
      </trkpt>
      <trkpt lat="46.40549" lon="6.02735">
        <ele>1360.9</ele>
        <time>2021-10-06T20:26:11.678Z</time>
      </trkpt>
      <trkpt lat="46.40546" lon="6.02732">
        <ele>1360.6</ele>
        <time>2021-10-06T20:26:16.163Z</time>
      </trkpt>
      <trkpt lat="46.40428" lon="6.02552">
        <ele>1342.7</ele>
        <time>2021-10-06T20:29:41.243Z</time>
      </trkpt>
      <trkpt lat="46.4042" lon="6.02528">
        <ele>1340.1</ele>
        <time>2021-10-06T20:30:03.172Z</time>
      </trkpt>
      <trkpt lat="46.40404" lon="6.02491">
        <ele>1337.5</ele>
        <time>2021-10-06T20:30:38.673Z</time>
      </trkpt>
      <trkpt lat="46.4038" lon="6.02446">
        <ele>1334.1</ele>
        <time>2021-10-06T20:31:26.616Z</time>
      </trkpt>
      <trkpt lat="46.40352" lon="6.02413">
        <ele>1332.2</ele>
        <time>2021-10-06T20:32:09.609Z</time>
      </trkpt>
      <trkpt lat="46.40344" lon="6.02386">
        <ele>1331.2</ele>
        <time>2021-10-06T20:32:34.695Z</time>
      </trkpt>
      <trkpt lat="46.40341" lon="6.02383">
        <ele>1330.9</ele>
        <time>2021-10-06T20:32:39.275Z</time>
      </trkpt>
      <trkpt lat="46.40321" lon="6.02346">
        <ele>1328.9</ele>
        <time>2021-10-06T20:33:18.053Z</time>
      </trkpt>
      <trkpt lat="46.40314" lon="6.02335">
        <ele>1327.8</ele>
        <time>2021-10-06T20:33:30.606Z</time>
      </trkpt>
      <trkpt lat="46.40309" lon="6.02328">
        <ele>1327.3</ele>
        <time>2021-10-06T20:33:38.835Z</time>
      </trkpt>
      <trkpt lat="46.40302" lon="6.02322">
        <ele>1326.7</ele>
        <time>2021-10-06T20:33:48.702Z</time>
      </trkpt>
      <trkpt lat="46.40074" lon="6.02214">
        <ele>1302.1</ele>
        <time>2021-10-06T20:38:24.636Z</time>
      </trkpt>
      <trkpt lat="46.40049" lon="6.02201">
        <ele>1300.7</ele>
        <time>2021-10-06T20:38:54.661Z</time>
      </trkpt>
      <trkpt lat="46.39986" lon="6.02101">
        <ele>1297</ele>
        <time>2021-10-06T20:40:38.487Z</time>
      </trkpt>
      <trkpt lat="46.39933" lon="6.02006">
        <ele>1294.4</ele>
        <time>2021-10-06T20:42:11.305Z</time>
      </trkpt>
      <trkpt lat="46.39907" lon="6.01978">
        <ele>1293</ele>
        <time>2021-10-06T20:42:47.223Z</time>
      </trkpt>
      <trkpt lat="46.39812" lon="6.01835">
        <ele>1281</ele>
        <time>2021-10-06T20:45:15.786Z</time>
      </trkpt>
      <trkpt lat="46.39797" lon="6.01766">
        <ele>1278.3</ele>
        <time>2021-10-06T20:46:09.439Z</time>
      </trkpt>
      <trkpt lat="46.39785" lon="6.0174">
        <ele>1277.2</ele>
        <time>2021-10-06T20:46:32.874Z</time>
      </trkpt>
      <trkpt lat="46.39758" lon="6.01706">
        <ele>1276.4</ele>
        <time>2021-10-06T20:47:10.751Z</time>
      </trkpt>
      <trkpt lat="46.39728" lon="6.01649">
        <ele>1275.5</ele>
        <time>2021-10-06T20:48:03.142Z</time>
      </trkpt>
      <trkpt lat="46.39708" lon="6.01623">
        <ele>1274.7</ele>
        <time>2021-10-06T20:48:32.075Z</time>
      </trkpt>
      <trkpt lat="46.39683" lon="6.01608">
        <ele>1274.3</ele>
        <time>2021-10-06T20:49:00.449Z</time>
      </trkpt>
      <trkpt lat="46.39662" lon="6.01585">
        <ele>1273.3</ele>
        <time>2021-10-06T20:49:29.777Z</time>
      </trkpt>
      <trkpt lat="46.39599" lon="6.01466">
        <ele>1269.1</ele>
        <time>2021-10-06T20:51:23.016Z</time>
      </trkpt>
      <trkpt lat="46.39571" lon="6.01413">
        <ele>1266.5</ele>
        <time>2021-10-06T20:52:14.558Z</time>
      </trkpt>
      <trkpt lat="46.3956" lon="6.01368">
        <ele>1266.1</ele>
        <time>2021-10-06T20:52:51.236Z</time>
      </trkpt>
      <trkpt lat="46.39542" lon="6.01333">
        <ele>1266</ele>
        <time>2021-10-06T20:53:24.320Z</time>
      </trkpt>
      <trkpt lat="46.3952" lon="6.01304">
        <ele>1265.8</ele>
        <time>2021-10-06T20:53:57.763Z</time>
      </trkpt>
      <trkpt lat="46.39497" lon="6.01278">
        <ele>1264.9</ele>
        <time>2021-10-06T20:54:30.315Z</time>
      </trkpt>
      <trkpt lat="46.39467" lon="6.01245">
        <ele>1264.1</ele>
        <time>2021-10-06T20:55:11.511Z</time>
      </trkpt>
      <trkpt lat="46.39456" lon="6.01221">
        <ele>1264.4</ele>
        <time>2021-10-06T20:55:33.679Z</time>
      </trkpt>
      <trkpt lat="46.39455" lon="6.012">
        <ele>1264.1</ele>
        <time>2021-10-06T20:55:50.006Z</time>
      </trkpt>
      <trkpt lat="46.39466" lon="6.01099">
        <ele>1256.7</ele>
        <time>2021-10-06T20:57:09.831Z</time>
      </trkpt>
      <trkpt lat="46.39466" lon="6.01049">
        <ele>1256</ele>
        <time>2021-10-06T20:57:48.815Z</time>
      </trkpt>
      <trkpt lat="46.39455" lon="6.01017">
        <ele>1256.8</ele>
        <time>2021-10-06T20:58:16.464Z</time>
      </trkpt>
      <trkpt lat="46.39444" lon="6.00988">
        <ele>1257</ele>
        <time>2021-10-06T20:58:42.544Z</time>
      </trkpt>
      <trkpt lat="46.39391" lon="6.00897">
        <ele>1256.1</ele>
        <time>2021-10-06T21:00:12.922Z</time>
      </trkpt>
      <trkpt lat="46.39387" lon="6.00891">
        <ele>1255.9</ele>
        <time>2021-10-06T21:00:18.397Z</time>
      </trkpt>
      <trkpt lat="46.39319" lon="6.00815">
        <ele>1256.2</ele>
        <time>2021-10-06T21:01:48.511Z</time>
      </trkpt>
      <trkpt lat="46.393" lon="6.00768">
        <ele>1257.8</ele>
        <time>2021-10-06T21:02:26.506Z</time>
      </trkpt>
      <trkpt lat="46.39299" lon="6.00744">
        <ele>1258.2</ele>
        <time>2021-10-06T21:02:43.492Z</time>
      </trkpt>
      <trkpt lat="46.39295" lon="6.00721">
        <ele>1259.1</ele>
        <time>2021-10-06T21:03:02.093Z</time>
      </trkpt>
      <trkpt lat="46.39289" lon="6.00711">
        <ele>1259.8</ele>
        <time>2021-10-06T21:03:11.908Z</time>
      </trkpt>
      <trkpt lat="46.39261" lon="6.007">
        <ele>1261.1</ele>
        <time>2021-10-06T21:03:43.890Z</time>
      </trkpt>
      <trkpt lat="46.39241" lon="6.00702">
        <ele>1262.3</ele>
        <time>2021-10-06T21:04:05.592Z</time>
      </trkpt>
      <trkpt lat="46.39212" lon="6.00709">
        <ele>1264.6</ele>
        <time>2021-10-06T21:04:38.685Z</time>
      </trkpt>
      <trkpt lat="46.39199" lon="6.00712">
        <ele>1264.6</ele>
        <time>2021-10-06T21:04:53.985Z</time>
      </trkpt>
      <trkpt lat="46.3914" lon="6.00718">
        <ele>1267</ele>
        <time>2021-10-06T21:06:01.531Z</time>
      </trkpt>
      <trkpt lat="46.39122" lon="6.00726">
        <ele>1266.8</ele>
        <time>2021-10-06T21:06:24.108Z</time>
      </trkpt>
      <trkpt lat="46.39103" lon="6.00735">
        <ele>1267.9</ele>
        <time>2021-10-06T21:06:46.817Z</time>
      </trkpt>
      <trkpt lat="46.39095" lon="6.00736">
        <ele>1269.2</ele>
        <time>2021-10-06T21:06:56.713Z</time>
      </trkpt>
      <trkpt lat="46.39088" lon="6.00734">
        <ele>1270.3</ele>
        <time>2021-10-06T21:07:04.547Z</time>
      </trkpt>
      <trkpt lat="46.39043" lon="6.00692">
        <ele>1270.6</ele>
        <time>2021-10-06T21:08:05.242Z</time>
      </trkpt>
      <trkpt lat="46.3902" lon="6.00671">
        <ele>1269.9</ele>
        <time>2021-10-06T21:08:36.482Z</time>
      </trkpt>
      <trkpt lat="46.38987" lon="6.00684">
        <ele>1272.4</ele>
        <time>2021-10-06T21:09:14.104Z</time>
      </trkpt>
      <trkpt lat="46.38897" lon="6.00656">
        <ele>1271.6</ele>
        <time>2021-10-06T21:10:51.836Z</time>
      </trkpt>
      <trkpt lat="46.38845" lon="6.00594">
        <ele>1270.6</ele>
        <time>2021-10-06T21:12:00.516Z</time>
      </trkpt>
      <trkpt lat="46.38805" lon="6.00577">
        <ele>1270.3</ele>
        <time>2021-10-06T21:12:43.971Z</time>
      </trkpt>
      <trkpt lat="46.38765" lon="6.00583">
        <ele>1269.7</ele>
        <time>2021-10-06T21:13:26.055Z</time>
      </trkpt>
      <trkpt lat="46.38727" lon="6.00555">
        <ele>1265.5</ele>
        <time>2021-10-06T21:14:10.923Z</time>
      </trkpt>
      <trkpt lat="46.38684" lon="6.00487">
        <ele>1264.2</ele>
        <time>2021-10-06T21:15:16.504Z</time>
      </trkpt>
      <trkpt lat="46.38656" lon="6.00426">
        <ele>1264.1</ele>
        <time>2021-10-06T21:16:06.671Z</time>
      </trkpt>
      <trkpt lat="46.3857" lon="6.0033">
        <ele>1271.6</ele>
        <time>2021-10-06T21:18:02.531Z</time>
      </trkpt>
      <trkpt lat="46.38532" lon="6.00262">
        <ele>1273.9</ele>
        <time>2021-10-06T21:19:09.444Z</time>
      </trkpt>
      <trkpt lat="46.3851" lon="6.00177">
        <ele>1273.7</ele>
        <time>2021-10-06T21:20:17.163Z</time>
      </trkpt>
      <trkpt lat="46.38506" lon="6.00168">
        <ele>1274.3</ele>
        <time>2021-10-06T21:20:25.493Z</time>
      </trkpt>
      <trkpt lat="46.38501" lon="6.00155">
        <ele>1274.9</ele>
        <time>2021-10-06T21:20:36.733Z</time>
      </trkpt>
      <trkpt lat="46.38486" lon="6.0012">
        <ele>1275.5</ele>
        <time>2021-10-06T21:21:06.720Z</time>
      </trkpt>
      <trkpt lat="46.3847" lon="6.00099">
        <ele>1275.5</ele>
        <time>2021-10-06T21:21:29.133Z</time>
      </trkpt>
      <trkpt lat="46.38376" lon="6.00072">
        <ele>1274</ele>
        <time>2021-10-06T21:23:07.263Z</time>
      </trkpt>
      <trkpt lat="46.38351" lon="6.00071">
        <ele>1274.4</ele>
        <time>2021-10-06T21:23:32.952Z</time>
      </trkpt>
      <trkpt lat="46.38305" lon="6.00051">
        <ele>1273.8</ele>
        <time>2021-10-06T21:24:21.561Z</time>
      </trkpt>
      <trkpt lat="46.38286" lon="6.00038">
        <ele>1273.8</ele>
        <time>2021-10-06T21:24:42.463Z</time>
      </trkpt>
      <trkpt lat="46.38269" lon="6.00018">
        <ele>1273.3</ele>
        <time>2021-10-06T21:25:05.008Z</time>
      </trkpt>
      <trkpt lat="46.38256" lon="6.00018">
        <ele>1271.8</ele>
        <time>2021-10-06T21:25:17.889Z</time>
      </trkpt>
      <trkpt lat="46.38217" lon="6.00018">
        <ele>1268.8</ele>
        <time>2021-10-06T21:25:56.618Z</time>
      </trkpt>
      <trkpt lat="46.38187" lon="5.99982">
        <ele>1266.8</ele>
        <time>2021-10-06T21:26:36.406Z</time>
      </trkpt>
      <trkpt lat="46.38083" lon="5.99926">
        <ele>1262.7</ele>
        <time>2021-10-06T21:28:27.761Z</time>
      </trkpt>
      <trkpt lat="46.38055" lon="5.99898">
        <ele>1262</ele>
        <time>2021-10-06T21:29:02.610Z</time>
      </trkpt>
      <trkpt lat="46.37998" lon="5.99863">
        <ele>1261.6</ele>
        <time>2021-10-06T21:30:07.479Z</time>
      </trkpt>
      <trkpt lat="46.37968" lon="5.99826">
        <ele>1261.5</ele>
        <time>2021-10-06T21:30:49.864Z</time>
      </trkpt>
      <trkpt lat="46.379" lon="5.9979">
        <ele>1262.4</ele>
        <time>2021-10-06T21:32:10.181Z</time>
      </trkpt>
      <trkpt lat="46.37881" lon="5.99773">
        <ele>1258.2</ele>
        <time>2021-10-06T21:32:35.662Z</time>
      </trkpt>
      <trkpt lat="46.37865" lon="5.99745">
        <ele>1251.7</ele>
        <time>2021-10-06T21:33:04.707Z</time>
      </trkpt>
      <trkpt lat="46.3783" lon="5.9972">
        <ele>1244.5</ele>
        <time>2021-10-06T21:33:47.766Z</time>
      </trkpt>
      <trkpt lat="46.3781" lon="5.99708">
        <ele>1242.7</ele>
        <time>2021-10-06T21:34:12.619Z</time>
      </trkpt>
      <trkpt lat="46.37778" lon="5.99721">
        <ele>1238.2</ele>
        <time>2021-10-06T21:34:50.663Z</time>
      </trkpt>
      <trkpt lat="46.37744" lon="5.99646">
        <ele>1237.9</ele>
        <time>2021-10-06T21:35:59.840Z</time>
      </trkpt>
      <trkpt lat="46.37703" lon="5.99601">
        <ele>1234.3</ele>
        <time>2021-10-06T21:36:58.031Z</time>
      </trkpt>
      <trkpt lat="46.37658" lon="5.99602">
        <ele>1232.7</ele>
        <time>2021-10-06T21:37:49.571Z</time>
      </trkpt>
      <trkpt lat="46.37636" lon="5.9961">
        <ele>1233.2</ele>
        <time>2021-10-06T21:38:16.135Z</time>
      </trkpt>
      <trkpt lat="46.37625" lon="5.99613">
        <ele>1234.3</ele>
        <time>2021-10-06T21:38:29.684Z</time>
      </trkpt>
      <trkpt lat="46.37619" lon="5.99621">
        <ele>1235.3</ele>
        <time>2021-10-06T21:38:38.965Z</time>
      </trkpt>
      <trkpt lat="46.37574" lon="5.99712">
        <ele>1239.8</ele>
        <time>2021-10-06T21:40:08.661Z</time>
      </trkpt>
      <trkpt lat="46.37563" lon="5.99717">
        <ele>1240.4</ele>
        <time>2021-10-06T21:40:21.698Z</time>
      </trkpt>
      <trkpt lat="46.37559" lon="5.99719">
        <ele>1240.6</ele>
        <time>2021-10-06T21:40:27.324Z</time>
      </trkpt>
      <trkpt lat="46.37553" lon="5.99718">
        <ele>1240.9</ele>
        <time>2021-10-06T21:40:34.842Z</time>
      </trkpt>
      <trkpt lat="46.37543" lon="5.99718">
        <ele>1241.4</ele>
        <time>2021-10-06T21:40:45.320Z</time>
      </trkpt>
      <trkpt lat="46.37525" lon="5.99713">
        <ele>1242.2</ele>
        <time>2021-10-06T21:41:07.051Z</time>
      </trkpt>
      <trkpt lat="46.37514" lon="5.99708">
        <ele>1240.8</ele>
        <time>2021-10-06T21:41:19.717Z</time>
      </trkpt>
      <trkpt lat="46.37493" lon="5.99677">
        <ele>1237.9</ele>
        <time>2021-10-06T21:41:54.320Z</time>
      </trkpt>
      <trkpt lat="46.37456" lon="5.99644">
        <ele>1237.3</ele>
        <time>2021-10-06T21:42:41.991Z</time>
      </trkpt>
      <trkpt lat="46.37424" lon="5.99601">
        <ele>1238.2</ele>
        <time>2021-10-06T21:43:29.577Z</time>
      </trkpt>
      <trkpt lat="46.37405" lon="5.99559">
        <ele>1240</ele>
        <time>2021-10-06T21:44:05.009Z</time>
      </trkpt>
      <trkpt lat="46.37403" lon="5.99482">
        <ele>1242.2</ele>
        <time>2021-10-06T21:45:00.078Z</time>
      </trkpt>
      <trkpt lat="46.37375" lon="5.99436">
        <ele>1238.2</ele>
        <time>2021-10-06T21:45:44.222Z</time>
      </trkpt>
      <trkpt lat="46.3735" lon="5.99383">
        <ele>1236.6</ele>
        <time>2021-10-06T21:46:30.989Z</time>
      </trkpt>
      <trkpt lat="46.37277" lon="5.99296">
        <ele>1227.1</ele>
        <time>2021-10-06T21:48:10.949Z</time>
      </trkpt>
      <trkpt lat="46.37276" lon="5.99276">
        <ele>1225.8</ele>
        <time>2021-10-06T21:48:25.266Z</time>
      </trkpt>
      <trkpt lat="46.37284" lon="5.99253">
        <ele>1226.8</ele>
        <time>2021-10-06T21:48:43.723Z</time>
      </trkpt>
      <trkpt lat="46.373" lon="5.99243">
        <ele>1228.6</ele>
        <time>2021-10-06T21:49:02.528Z</time>
      </trkpt>
      <trkpt lat="46.37301" lon="5.99219">
        <ele>1229.6</ele>
        <time>2021-10-06T21:49:19.427Z</time>
      </trkpt>
      <trkpt lat="46.37278" lon="5.9914">
        <ele>1230.1</ele>
        <time>2021-10-06T21:50:18.597Z</time>
      </trkpt>
      <trkpt lat="46.3726" lon="5.99106">
        <ele>1230.3</ele>
        <time>2021-10-06T21:50:49.117Z</time>
      </trkpt>
      <trkpt lat="46.37233" lon="5.99004">
        <ele>1227.7</ele>
        <time>2021-10-06T21:52:09.172Z</time>
      </trkpt>
      <trkpt lat="46.37212" lon="5.9897">
        <ele>1223.9</ele>
        <time>2021-10-06T21:52:42.661Z</time>
      </trkpt>
      <trkpt lat="46.3718" lon="5.98894">
        <ele>1218.3</ele>
        <time>2021-10-06T21:53:52.162Z</time>
      </trkpt>
      <trkpt lat="46.37168" lon="5.9888">
        <ele>1216.1</ele>
        <time>2021-10-06T21:54:09.758Z</time>
      </trkpt>
      <trkpt lat="46.37126" lon="5.98896">
        <ele>1213.2</ele>
        <time>2021-10-06T21:54:59.744Z</time>
      </trkpt>
      <trkpt lat="46.37105" lon="5.9889">
        <ele>1212.5</ele>
        <time>2021-10-06T21:55:24.544Z</time>
      </trkpt>
      <trkpt lat="46.37084" lon="5.9885">
        <ele>1212.6</ele>
        <time>2021-10-06T21:56:04.542Z</time>
      </trkpt>
      <trkpt lat="46.37064" lon="5.98764">
        <ele>1212.3</ele>
        <time>2021-10-06T21:57:21.471Z</time>
      </trkpt>
      <trkpt lat="46.37058" lon="5.98754">
        <ele>1210.1</ele>
        <time>2021-10-06T21:57:32.282Z</time>
      </trkpt>
      <trkpt lat="46.37015" lon="5.9872">
        <ele>1202.9</ele>
        <time>2021-10-06T21:58:34.537Z</time>
      </trkpt>
      <trkpt lat="46.37003" lon="5.9869">
        <ele>1200.5</ele>
        <time>2021-10-06T21:59:03.679Z</time>
      </trkpt>
      <trkpt lat="46.37001" lon="5.98674">
        <ele>1199.4</ele>
        <time>2021-10-06T21:59:21.546Z</time>
      </trkpt>
      <trkpt lat="46.36991" lon="5.98691">
        <ele>1198.6</ele>
        <time>2021-10-06T21:59:41.303Z</time>
      </trkpt>
      <trkpt lat="46.36987" lon="5.98704">
        <ele>1197.7</ele>
        <time>2021-10-06T21:59:53.472Z</time>
      </trkpt>
      <trkpt lat="46.36987" lon="5.98711">
        <ele>1197.5</ele>
        <time>2021-10-06T22:00:00.353Z</time>
      </trkpt>
      <trkpt lat="46.36986" lon="5.98723">
        <ele>1196.9</ele>
        <time>2021-10-06T22:00:14.654Z</time>
      </trkpt>
      <trkpt lat="46.3698" lon="5.98743">
        <ele>1193.8</ele>
        <time>2021-10-06T22:00:33.341Z</time>
      </trkpt>
      <trkpt lat="46.36967" lon="5.98744">
        <ele>1190.2</ele>
        <time>2021-10-06T22:00:50.729Z</time>
      </trkpt>
      <trkpt lat="46.36937" lon="5.98692">
        <ele>1185.7</ele>
        <time>2021-10-06T22:01:55.750Z</time>
      </trkpt>
      <trkpt lat="46.36932" lon="5.98675">
        <ele>1185.4</ele>
        <time>2021-10-06T22:02:11.295Z</time>
      </trkpt>
      <trkpt lat="46.3691" lon="5.98688">
        <ele>1177.4</ele>
        <time>2021-10-06T22:02:51.037Z</time>
      </trkpt>
      <trkpt lat="46.36885" lon="5.98674">
        <ele>1174</ele>
        <time>2021-10-06T22:03:30.650Z</time>
      </trkpt>
      <trkpt lat="46.36843" lon="5.98622">
        <ele>1171.2</ele>
        <time>2021-10-06T22:04:51.465Z</time>
      </trkpt>
      <trkpt lat="46.3682" lon="5.98598">
        <ele>1167.3</ele>
        <time>2021-10-06T22:05:35.841Z</time>
      </trkpt>
      <trkpt lat="46.36806" lon="5.9859">
        <ele>1161.2</ele>
        <time>2021-10-06T22:05:58.084Z</time>
      </trkpt>
      <trkpt lat="46.36799" lon="5.98603">
        <ele>1155.4</ele>
        <time>2021-10-06T22:06:20.813Z</time>
      </trkpt>
      <trkpt lat="46.36697" lon="5.98468">
        <ele>1123.2</ele>
        <time>2021-10-06T22:09:49.201Z</time>
      </trkpt>
      <trkpt lat="46.36692" lon="5.9846">
        <ele>1121.6</ele>
        <time>2021-10-06T22:10:05.548Z</time>
      </trkpt>
      <trkpt lat="46.36615" lon="5.98322">
        <ele>1106.1</ele>
        <time>2021-10-06T22:12:53.819Z</time>
      </trkpt>
      <trkpt lat="46.36559" lon="5.98201">
        <ele>1083.3</ele>
        <time>2021-10-06T22:15:06.235Z</time>
      </trkpt>
      <trkpt lat="46.36564" lon="5.98279">
        <ele>1074.2</ele>
        <time>2021-10-06T22:16:15.574Z</time>
      </trkpt>
      <trkpt lat="46.36586" lon="5.98439">
        <ele>1054.1</ele>
        <time>2021-10-06T22:18:38.570Z</time>
      </trkpt>
      <trkpt lat="46.36624" lon="5.98561">
        <ele>1055.5</ele>
        <time>2021-10-06T22:20:31.493Z</time>
      </trkpt>
      <trkpt lat="46.36677" lon="5.9881">
        <ele>1029.8</ele>
        <time>2021-10-06T22:24:04.039Z</time>
      </trkpt>
      <trkpt lat="46.36718" lon="5.98948">
        <ele>1023.7</ele>
        <time>2021-10-06T22:26:03.527Z</time>
      </trkpt>
      <trkpt lat="46.3673" lon="5.99021">
        <ele>1017.2</ele>
        <time>2021-10-06T22:27:02.179Z</time>
      </trkpt>
      <trkpt lat="46.36731" lon="5.9906">
        <ele>1011.7</ele>
        <time>2021-10-06T22:27:32.223Z</time>
      </trkpt>
      <trkpt lat="46.36776" lon="5.99254">
        <ele>998.5</ele>
        <time>2021-10-06T22:30:08.029Z</time>
      </trkpt>
      <trkpt lat="46.36786" lon="5.99289">
        <ele>996.1</ele>
        <time>2021-10-06T22:30:36.564Z</time>
      </trkpt>
      <trkpt lat="46.3679" lon="5.99296">
        <ele>996.6</ele>
        <time>2021-10-06T22:30:43.258Z</time>
      </trkpt>
      <trkpt lat="46.36801" lon="5.99349">
        <ele>994.2</ele>
        <time>2021-10-06T22:31:24.175Z</time>
      </trkpt>
      <trkpt lat="46.36802" lon="5.99369">
        <ele>993</ele>
        <time>2021-10-06T22:31:38.588Z</time>
      </trkpt>
      <trkpt lat="46.36805" lon="5.99388">
        <ele>992</ele>
        <time>2021-10-06T22:31:53.058Z</time>
      </trkpt>
      <trkpt lat="46.36809" lon="5.994">
        <ele>992</ele>
        <time>2021-10-06T22:32:02.116Z</time>
      </trkpt>
      <trkpt lat="46.36811" lon="5.99405">
        <ele>992.2</ele>
        <time>2021-10-06T22:32:06.513Z</time>
      </trkpt>
      <trkpt lat="46.3679" lon="5.99421">
        <ele>989.1</ele>
        <time>2021-10-06T22:32:30.224Z</time>
      </trkpt>
      <trkpt lat="46.36774" lon="5.99441">
        <ele>986</ele>
        <time>2021-10-06T22:32:52.705Z</time>
      </trkpt>
      <trkpt lat="46.36765" lon="5.99466">
        <ele>984.7</ele>
        <time>2021-10-06T22:33:12.606Z</time>
      </trkpt>
      <trkpt lat="46.36763" lon="5.99478">
        <ele>984.1</ele>
        <time>2021-10-06T22:33:20.881Z</time>
      </trkpt>
      <trkpt lat="46.36755" lon="5.99482">
        <ele>983.5</ele>
        <time>2021-10-06T22:33:30.983Z</time>
      </trkpt>
      <trkpt lat="46.3675" lon="5.99486">
        <ele>983</ele>
        <time>2021-10-06T22:33:37.233Z</time>
      </trkpt>
      <trkpt lat="46.36743" lon="5.99492">
        <ele>982.8</ele>
        <time>2021-10-06T22:33:45.208Z</time>
      </trkpt>
      <trkpt lat="46.3674" lon="5.99494">
        <ele>982.8</ele>
        <time>2021-10-06T22:33:48.956Z</time>
      </trkpt>
      <trkpt lat="46.36736" lon="5.99497">
        <ele>983</ele>
        <time>2021-10-06T22:33:54.458Z</time>
      </trkpt>
      <trkpt lat="46.36727" lon="5.99503">
        <ele>983.7</ele>
        <time>2021-10-06T22:34:05.455Z</time>
      </trkpt>
      <trkpt lat="46.36721" lon="5.99508">
        <ele>984</ele>
        <time>2021-10-06T22:34:12.966Z</time>
      </trkpt>
      <trkpt lat="46.36708" lon="5.99517">
        <ele>984.3</ele>
        <time>2021-10-06T22:34:30.943Z</time>
      </trkpt>
      <trkpt lat="46.367" lon="5.99523">
        <ele>984.6</ele>
        <time>2021-10-06T22:34:40.578Z</time>
      </trkpt>
      <trkpt lat="46.36693" lon="5.99528">
        <ele>985.1</ele>
        <time>2021-10-06T22:34:50.842Z</time>
      </trkpt>
      <trkpt lat="46.36667" lon="5.9955">
        <ele>987.8</ele>
        <time>2021-10-06T22:35:26.850Z</time>
      </trkpt>
      <trkpt lat="46.36666" lon="5.99552">
        <ele>987.9</ele>
        <time>2021-10-06T22:35:29.324Z</time>
      </trkpt>
      <trkpt lat="46.36652" lon="5.99574">
        <ele>990.2</ele>
        <time>2021-10-06T22:35:58.050Z</time>
      </trkpt>
      <trkpt lat="46.3663" lon="5.99614">
        <ele>991.8</ele>
        <time>2021-10-06T22:36:53.143Z</time>
      </trkpt>
      <trkpt lat="46.36624" lon="5.99626">
        <ele>992.6</ele>
        <time>2021-10-06T22:37:09.147Z</time>
      </trkpt>
      <trkpt lat="46.36617" lon="5.99612">
        <ele>992.6</ele>
        <time>2021-10-06T22:37:29.575Z</time>
      </trkpt>
      <trkpt lat="46.36624" lon="5.99626">
        <ele>992.6</ele>
        <time>2021-10-06T22:37:47.486Z</time>
      </trkpt>
      <trkpt lat="46.36622" lon="5.99631">
        <ele>993</ele>
        <time>2021-10-06T22:37:58.705Z</time>
      </trkpt>
      <trkpt lat="46.36591" lon="5.99705">
        <ele>999.7</ele>
        <time>2021-10-06T22:39:33.674Z</time>
      </trkpt>
      <trkpt lat="46.36588" lon="5.99717">
        <ele>1000.9</ele>
        <time>2021-10-06T22:39:49.305Z</time>
      </trkpt>
      <trkpt lat="46.36588" lon="5.99736">
        <ele>1002.4</ele>
        <time>2021-10-06T22:40:13.448Z</time>
      </trkpt>
      <trkpt lat="46.36586" lon="5.9974">
        <ele>1002.9</ele>
        <time>2021-10-06T22:40:24.910Z</time>
      </trkpt>
      <trkpt lat="46.3658" lon="5.99753">
        <ele>1005.2</ele>
        <time>2021-10-06T22:40:45.388Z</time>
      </trkpt>
      <trkpt lat="46.3657" lon="5.99734">
        <ele>1007.2</ele>
        <time>2021-10-06T22:41:25.781Z</time>
      </trkpt>
      <trkpt lat="46.36565" lon="5.99734">
        <ele>1008.9</ele>
        <time>2021-10-06T22:41:34.124Z</time>
      </trkpt>
      <trkpt lat="46.36565" lon="5.99775">
        <ele>1013.3</ele>
        <time>2021-10-06T22:42:44.884Z</time>
      </trkpt>
      <trkpt lat="46.36556" lon="5.99765">
        <ele>1015.6</ele>
        <time>2021-10-06T22:43:13.680Z</time>
      </trkpt>
      <trkpt lat="46.36541" lon="5.99762">
        <ele>1017.5</ele>
        <time>2021-10-06T22:43:47.258Z</time>
      </trkpt>
      <trkpt lat="46.36544" lon="5.99787">
        <ele>1021.3</ele>
        <time>2021-10-06T22:44:23.438Z</time>
      </trkpt>
      <trkpt lat="46.36541" lon="5.99799">
        <ele>1023.2</ele>
        <time>2021-10-06T22:44:49.611Z</time>
      </trkpt>
      <trkpt lat="46.36514" lon="5.99791">
        <ele>1027.1</ele>
        <time>2021-10-06T22:45:52.053Z</time>
      </trkpt>
      <trkpt lat="46.36508" lon="5.99792">
        <ele>1028.4</ele>
        <time>2021-10-06T22:46:12.594Z</time>
      </trkpt>
      <trkpt lat="46.36485" lon="5.99805">
        <ele>1035.7</ele>
        <time>2021-10-06T22:47:22.254Z</time>
      </trkpt>
      <trkpt lat="46.3636" lon="5.99802">
        <ele>1075.9</ele>
        <time>2021-10-06T22:53:06.697Z</time>
      </trkpt>
      <trkpt lat="46.36347" lon="5.99806">
        <ele>1081.8</ele>
        <time>2021-10-06T22:53:49.476Z</time>
      </trkpt>
      <trkpt lat="46.36354" lon="5.99834">
        <ele>1083.5</ele>
        <time>2021-10-06T22:54:34.781Z</time>
      </trkpt>
      <trkpt lat="46.364" lon="5.99988">
        <ele>1098.8</ele>
        <time>2021-10-06T22:58:54.267Z</time>
      </trkpt>
      <trkpt lat="46.36429" lon="6.00055">
        <ele>1103.3</ele>
        <time>2021-10-06T23:00:30.799Z</time>
      </trkpt>
      <trkpt lat="46.36438" lon="6.00129">
        <ele>1113.3</ele>
        <time>2021-10-06T23:01:47.008Z</time>
      </trkpt>
      <trkpt lat="46.36468" lon="6.00223">
        <ele>1119.6</ele>
        <time>2021-10-06T23:03:30.480Z</time>
      </trkpt>
      <trkpt lat="46.36471" lon="6.00278">
        <ele>1124.5</ele>
        <time>2021-10-06T23:04:23.234Z</time>
      </trkpt>
      <trkpt lat="46.36463" lon="6.00319">
        <ele>1138.6</ele>
        <time>2021-10-06T23:05:09.313Z</time>
      </trkpt>
      <trkpt lat="46.36468" lon="6.00365">
        <ele>1135.1</ele>
        <time>2021-10-06T23:05:59.490Z</time>
      </trkpt>
      <trkpt lat="46.36464" lon="6.00437">
        <ele>1145.5</ele>
        <time>2021-10-06T23:07:14.233Z</time>
      </trkpt>
      <trkpt lat="46.36469" lon="6.00502">
        <ele>1152.4</ele>
        <time>2021-10-06T23:08:17.053Z</time>
      </trkpt>
      <trkpt lat="46.3647" lon="6.00506">
        <ele>1152.7</ele>
        <time>2021-10-06T23:08:25.786Z</time>
      </trkpt>
      <trkpt lat="46.36474" lon="6.00538">
        <ele>1155.6</ele>
        <time>2021-10-06T23:08:55.192Z</time>
      </trkpt>
      <trkpt lat="46.36489" lon="6.0059">
        <ele>1164.8</ele>
        <time>2021-10-06T23:10:05.981Z</time>
      </trkpt>
      <trkpt lat="46.36502" lon="6.00615">
        <ele>1167.8</ele>
        <time>2021-10-06T23:10:48.807Z</time>
      </trkpt>
      <trkpt lat="46.36521" lon="6.00638">
        <ele>1172</ele>
        <time>2021-10-06T23:11:37.801Z</time>
      </trkpt>
      <trkpt lat="46.36572" lon="6.00668">
        <ele>1176.4</ele>
        <time>2021-10-06T23:13:40.861Z</time>
      </trkpt>
      <trkpt lat="46.36577" lon="6.00676">
        <ele>1179.8</ele>
        <time>2021-10-06T23:14:03.790Z</time>
      </trkpt>
      <trkpt lat="46.36573" lon="6.00684">
        <ele>1184.7</ele>
        <time>2021-10-06T23:14:13.421Z</time>
      </trkpt>
      <trkpt lat="46.3657" lon="6.00684">
        <ele>1185.7</ele>
        <time>2021-10-06T23:14:21.049Z</time>
      </trkpt>
      <trkpt lat="46.36588" lon="6.00702">
        <ele>1188.1</ele>
        <time>2021-10-06T23:15:17.549Z</time>
      </trkpt>
      <trkpt lat="46.36609" lon="6.00753">
        <ele>1204.6</ele>
        <time>2021-10-06T23:16:54.812Z</time>
      </trkpt>
      <trkpt lat="46.36614" lon="6.00788">
        <ele>1218.8</ele>
        <time>2021-10-06T23:17:44.756Z</time>
      </trkpt>
      <trkpt lat="46.366" lon="6.00788">
        <ele>1226.4</ele>
        <time>2021-10-06T23:18:22.337Z</time>
      </trkpt>
      <trkpt lat="46.36585" lon="6.00809">
        <ele>1244.6</ele>
        <time>2021-10-06T23:19:04.981Z</time>
      </trkpt>
      <trkpt lat="46.36587" lon="6.00825">
        <ele>1249.3</ele>
        <time>2021-10-06T23:19:39.461Z</time>
      </trkpt>
      <trkpt lat="46.36607" lon="6.00852">
        <ele>1253.2</ele>
        <time>2021-10-06T23:20:34.188Z</time>
      </trkpt>
      <trkpt lat="46.36627" lon="6.00889">
        <ele>1259.7</ele>
        <time>2021-10-06T23:21:36.444Z</time>
      </trkpt>
      <trkpt lat="46.36692" lon="6.00954">
        <ele>1267.1</ele>
        <time>2021-10-06T23:23:52.379Z</time>
      </trkpt>
      <trkpt lat="46.36742" lon="6.01059">
        <ele>1276.6</ele>
        <time>2021-10-06T23:25:39.738Z</time>
      </trkpt>
      <trkpt lat="46.3678" lon="6.01161">
        <ele>1288.8</ele>
        <time>2021-10-06T23:27:12.751Z</time>
      </trkpt>
      <trkpt lat="46.36786" lon="6.01222">
        <ele>1296</ele>
        <time>2021-10-06T23:28:03.918Z</time>
      </trkpt>
      <trkpt lat="46.36764" lon="6.01262">
        <ele>1297.1</ele>
        <time>2021-10-06T23:28:46.527Z</time>
      </trkpt>
      <trkpt lat="46.36765" lon="6.01356">
        <ele>1306.9</ele>
        <time>2021-10-06T23:30:06.818Z</time>
      </trkpt>
      <trkpt lat="46.36764" lon="6.01362">
        <ele>1307.9</ele>
        <time>2021-10-06T23:30:14.189Z</time>
      </trkpt>
      <trkpt lat="46.36761" lon="6.01371">
        <ele>1309.4</ele>
        <time>2021-10-06T23:30:24.418Z</time>
      </trkpt>
      <trkpt lat="46.36721" lon="6.01426">
        <ele>1320.6</ele>
        <time>2021-10-06T23:31:34.144Z</time>
      </trkpt>
      <trkpt lat="46.36707" lon="6.01436">
        <ele>1322.3</ele>
        <time>2021-10-06T23:31:55.657Z</time>
      </trkpt>
      <trkpt lat="46.36706" lon="6.01428">
        <ele>1322.6</ele>
        <time>2021-10-06T23:32:04.038Z</time>
      </trkpt>
      <trkpt lat="46.36709" lon="6.01392">
        <ele>1325.4</ele>
        <time>2021-10-06T23:32:36.196Z</time>
      </trkpt>
      <trkpt lat="46.36701" lon="6.01355">
        <ele>1326.5</ele>
        <time>2021-10-06T23:33:10.655Z</time>
      </trkpt>
      <trkpt lat="46.36699" lon="6.01345">
        <ele>1325.8</ele>
        <time>2021-10-06T23:33:20.736Z</time>
      </trkpt>
      <trkpt lat="46.36695" lon="6.01335">
        <ele>1325.9</ele>
        <time>2021-10-06T23:33:32.441Z</time>
      </trkpt>
      <trkpt lat="46.36682" lon="6.01298">
        <ele>1326.4</ele>
        <time>2021-10-06T23:34:08.708Z</time>
      </trkpt>
      <trkpt lat="46.36673" lon="6.0129">
        <ele>1327.2</ele>
        <time>2021-10-06T23:34:26.927Z</time>
      </trkpt>
      <trkpt lat="46.36661" lon="6.01291">
        <ele>1328.4</ele>
        <time>2021-10-06T23:34:40.980Z</time>
      </trkpt>
      <trkpt lat="46.36657" lon="6.01294">
        <ele>1328.7</ele>
        <time>2021-10-06T23:34:47.189Z</time>
      </trkpt>
      <trkpt lat="46.36617" lon="6.01276">
        <ele>1331.2</ele>
        <time>2021-10-06T23:35:44.006Z</time>
      </trkpt>
      <trkpt lat="46.36544" lon="6.01238">
        <ele>1338.2</ele>
        <time>2021-10-06T23:37:28.111Z</time>
      </trkpt>
      <trkpt lat="46.3654" lon="6.01234">
        <ele>1338.8</ele>
        <time>2021-10-06T23:37:34.868Z</time>
      </trkpt>
      <trkpt lat="46.3654" lon="6.01227">
        <ele>1338.7</ele>
        <time>2021-10-06T23:37:43.259Z</time>
      </trkpt>
      <trkpt lat="46.36536" lon="6.01208">
        <ele>1339.6</ele>
        <time>2021-10-06T23:38:01.003Z</time>
      </trkpt>
      <trkpt lat="46.36501" lon="6.01198">
        <ele>1343.3</ele>
        <time>2021-10-06T23:38:54.239Z</time>
      </trkpt>
      <trkpt lat="46.36488" lon="6.0116">
        <ele>1345.4</ele>
        <time>2021-10-06T23:39:39.621Z</time>
      </trkpt>
      <trkpt lat="46.36479" lon="6.0115">
        <ele>1346.7</ele>
        <time>2021-10-06T23:39:59.228Z</time>
      </trkpt>
      <trkpt lat="46.36467" lon="6.01153">
        <ele>1348.6</ele>
        <time>2021-10-06T23:40:15.052Z</time>
      </trkpt>
      <trkpt lat="46.36452" lon="6.01182">
        <ele>1351.6</ele>
        <time>2021-10-06T23:40:58.726Z</time>
      </trkpt>
      <trkpt lat="46.36443" lon="6.01185">
        <ele>1351.9</ele>
        <time>2021-10-06T23:41:10.501Z</time>
      </trkpt>
      <trkpt lat="46.36434" lon="6.01181">
        <ele>1353.5</ele>
        <time>2021-10-06T23:41:29.529Z</time>
      </trkpt>
      <trkpt lat="46.36415" lon="6.01158">
        <ele>1355</ele>
        <time>2021-10-06T23:42:07.986Z</time>
      </trkpt>
      <trkpt lat="46.36399" lon="6.01142">
        <ele>1356.7</ele>
        <time>2021-10-06T23:42:38.485Z</time>
      </trkpt>
      <trkpt lat="46.36394" lon="6.01134">
        <ele>1357.2</ele>
        <time>2021-10-06T23:42:52.033Z</time>
      </trkpt>
      <trkpt lat="46.36384" lon="6.01118">
        <ele>1359</ele>
        <time>2021-10-06T23:43:12.361Z</time>
      </trkpt>
      <trkpt lat="46.36363" lon="6.011">
        <ele>1362.2</ele>
        <time>2021-10-06T23:43:51.978Z</time>
      </trkpt>
      <trkpt lat="46.36354" lon="6.01079">
        <ele>1364.7</ele>
        <time>2021-10-06T23:44:15.825Z</time>
      </trkpt>
      <trkpt lat="46.3634" lon="6.01027">
        <ele>1368.4</ele>
        <time>2021-10-06T23:45:14.673Z</time>
      </trkpt>
      <trkpt lat="46.36338" lon="6.00982">
        <ele>1369.5</ele>
        <time>2021-10-06T23:46:01.300Z</time>
      </trkpt>
      <trkpt lat="46.36333" lon="6.0097">
        <ele>1371.7</ele>
        <time>2021-10-06T23:46:17.869Z</time>
      </trkpt>
      <trkpt lat="46.363" lon="6.00951">
        <ele>1375.8</ele>
        <time>2021-10-06T23:47:13.093Z</time>
      </trkpt>
      <trkpt lat="46.36287" lon="6.0093">
        <ele>1378.2</ele>
        <time>2021-10-06T23:47:42.067Z</time>
      </trkpt>
      <trkpt lat="46.36273" lon="6.00892">
        <ele>1381.3</ele>
        <time>2021-10-06T23:48:25.223Z</time>
      </trkpt>
      <trkpt lat="46.36224" lon="6.00852">
        <ele>1389.1</ele>
        <time>2021-10-06T23:49:39.563Z</time>
      </trkpt>
      <trkpt lat="46.36221" lon="6.00846">
        <ele>1389.8</ele>
        <time>2021-10-06T23:49:48.923Z</time>
      </trkpt>
      <trkpt lat="46.36215" lon="6.00848">
        <ele>1391.3</ele>
        <time>2021-10-06T23:49:59.964Z</time>
      </trkpt>
      <trkpt lat="46.36181" lon="6.00874">
        <ele>1400.9</ele>
        <time>2021-10-06T23:50:52.645Z</time>
      </trkpt>
      <trkpt lat="46.3616" lon="6.00875">
        <ele>1405.2</ele>
        <time>2021-10-06T23:51:18.453Z</time>
      </trkpt>
      <trkpt lat="46.36102" lon="6.00832">
        <ele>1413.5</ele>
        <time>2021-10-06T23:52:52.404Z</time>
      </trkpt>
      <trkpt lat="46.36093" lon="6.00812">
        <ele>1415.7</ele>
        <time>2021-10-06T23:53:18.007Z</time>
      </trkpt>
      <trkpt lat="46.3607" lon="6.00802">
        <ele>1417.2</ele>
        <time>2021-10-06T23:53:51.602Z</time>
      </trkpt>
      <trkpt lat="46.36062" lon="6.00784">
        <ele>1419.8</ele>
        <time>2021-10-06T23:54:09.803Z</time>
      </trkpt>
      <trkpt lat="46.36061" lon="6.00776">
        <ele>1420.5</ele>
        <time>2021-10-06T23:54:18.092Z</time>
      </trkpt>
      <trkpt lat="46.36055" lon="6.00775">
        <ele>1421.3</ele>
        <time>2021-10-06T23:54:27.141Z</time>
      </trkpt>
      <trkpt lat="46.36032" lon="6.00761">
        <ele>1422.4</ele>
        <time>2021-10-06T23:54:59.575Z</time>
      </trkpt>
      <trkpt lat="46.36019" lon="6.00765">
        <ele>1423.5</ele>
        <time>2021-10-06T23:55:18.584Z</time>
      </trkpt>
      <trkpt lat="46.36012" lon="6.00756">
        <ele>1425.3</ele>
        <time>2021-10-06T23:55:30.797Z</time>
      </trkpt>
      <trkpt lat="46.35999" lon="6.00748">
        <ele>1427.1</ele>
        <time>2021-10-06T23:55:47.901Z</time>
      </trkpt>
      <trkpt lat="46.35987" lon="6.00745">
        <ele>1428.5</ele>
        <time>2021-10-06T23:56:06.758Z</time>
      </trkpt>
      <trkpt lat="46.35983" lon="6.00745">
        <ele>1428.8</ele>
        <time>2021-10-06T23:56:11.671Z</time>
      </trkpt>
      <trkpt lat="46.35976" lon="6.00739">
        <ele>1429.3</ele>
        <time>2021-10-06T23:56:22.847Z</time>
      </trkpt>
      <trkpt lat="46.35963" lon="6.00737">
        <ele>1429.8</ele>
        <time>2021-10-06T23:56:39.405Z</time>
      </trkpt>
      <trkpt lat="46.35932" lon="6.00759">
        <ele>1433.5</ele>
        <time>2021-10-06T23:57:25.669Z</time>
      </trkpt>
      <trkpt lat="46.35906" lon="6.00734">
        <ele>1436</ele>
        <time>2021-10-06T23:58:11.444Z</time>
      </trkpt>
      <trkpt lat="46.35857" lon="6.00709">
        <ele>1440.1</ele>
        <time>2021-10-06T23:59:21.325Z</time>
      </trkpt>
      <trkpt lat="46.35838" lon="6.00721">
        <ele>1441.7</ele>
        <time>2021-10-06T23:59:48.749Z</time>
      </trkpt>
      <trkpt lat="46.35819" lon="6.00759">
        <ele>1449.4</ele>
        <time>2021-10-07T00:00:29.944Z</time>
      </trkpt>
      <trkpt lat="46.35799" lon="6.00808">
        <ele>1456.5</ele>
        <time>2021-10-07T00:01:18.479Z</time>
      </trkpt>
      <trkpt lat="46.35793" lon="6.00806">
        <ele>1456.5</ele>
        <time>2021-10-07T00:01:27.487Z</time>
      </trkpt>
      <trkpt lat="46.35769" lon="6.00801">
        <ele>1458.3</ele>
        <time>2021-10-07T00:01:55.841Z</time>
      </trkpt>
      <trkpt lat="46.35746" lon="6.00768">
        <ele>1458.2</ele>
        <time>2021-10-07T00:02:33.930Z</time>
      </trkpt>
      <trkpt lat="46.35715" lon="6.00748">
        <ele>1459.8</ele>
        <time>2021-10-07T00:03:13.799Z</time>
      </trkpt>
      <trkpt lat="46.35699" lon="6.00728">
        <ele>1459.2</ele>
        <time>2021-10-07T00:03:38.659Z</time>
      </trkpt>
      <trkpt lat="46.35667" lon="6.00613">
        <ele>1460.3</ele>
        <time>2021-10-07T00:05:07.240Z</time>
      </trkpt>
      <trkpt lat="46.35654" lon="6.00588">
        <ele>1461.3</ele>
        <time>2021-10-07T00:05:29.092Z</time>
      </trkpt>
      <trkpt lat="46.3562" lon="6.00546">
        <ele>1462.4</ele>
        <time>2021-10-07T00:06:13.855Z</time>
      </trkpt>
      <trkpt lat="46.35594" lon="6.00534">
        <ele>1462.1</ele>
        <time>2021-10-07T00:06:41.594Z</time>
      </trkpt>
      <trkpt lat="46.35585" lon="6.00535">
        <ele>1463.2</ele>
        <time>2021-10-07T00:06:51.482Z</time>
      </trkpt>
      <trkpt lat="46.35552" lon="6.00572">
        <ele>1465.7</ele>
        <time>2021-10-07T00:07:33.261Z</time>
      </trkpt>
      <trkpt lat="46.35526" lon="6.00581">
        <ele>1465.8</ele>
        <time>2021-10-07T00:08:00.113Z</time>
      </trkpt>
      <trkpt lat="46.35512" lon="6.00574">
        <ele>1466.6</ele>
        <time>2021-10-07T00:08:15.596Z</time>
      </trkpt>
      <trkpt lat="46.35505" lon="6.00562">
        <ele>1466.1</ele>
        <time>2021-10-07T00:08:26.495Z</time>
      </trkpt>
      <trkpt lat="46.35503" lon="6.00551">
        <ele>1465.8</ele>
        <time>2021-10-07T00:08:34.261Z</time>
      </trkpt>
      <trkpt lat="46.35512" lon="6.00519">
        <ele>1465.2</ele>
        <time>2021-10-07T00:08:58.593Z</time>
      </trkpt>
      <trkpt lat="46.35506" lon="6.00507">
        <ele>1465.5</ele>
        <time>2021-10-07T00:09:09.210Z</time>
      </trkpt>
      <trkpt lat="46.35481" lon="6.00508">
        <ele>1466.9</ele>
        <time>2021-10-07T00:09:33.689Z</time>
      </trkpt>
      <trkpt lat="46.35458" lon="6.00497">
        <ele>1465.6</ele>
        <time>2021-10-07T00:09:58.490Z</time>
      </trkpt>
      <trkpt lat="46.35434" lon="6.005">
        <ele>1466.3</ele>
        <time>2021-10-07T00:10:22.787Z</time>
      </trkpt>
      <trkpt lat="46.35405" lon="6.00473">
        <ele>1465.1</ele>
        <time>2021-10-07T00:10:58.424Z</time>
      </trkpt>
      <trkpt lat="46.35354" lon="6.00502">
        <ele>1466.9</ele>
        <time>2021-10-07T00:11:57.011Z</time>
      </trkpt>
      <trkpt lat="46.35335" lon="6.00502">
        <ele>1466.5</ele>
        <time>2021-10-07T00:12:18.450Z</time>
      </trkpt>
      <trkpt lat="46.35331" lon="6.00501">
        <ele>1466.4</ele>
        <time>2021-10-07T00:12:22.713Z</time>
      </trkpt>
      <trkpt lat="46.35319" lon="6.00498">
        <ele>1468</ele>
        <time>2021-10-07T00:12:37.534Z</time>
      </trkpt>
      <trkpt lat="46.35287" lon="6.00492">
        <ele>1470</ele>
        <time>2021-10-07T00:13:15.464Z</time>
      </trkpt>
      <trkpt lat="46.35246" lon="6.00512">
        <ele>1472.1</ele>
        <time>2021-10-07T00:14:08.280Z</time>
      </trkpt>
      <trkpt lat="46.35213" lon="6.00481">
        <ele>1474.3</ele>
        <time>2021-10-07T00:14:58.970Z</time>
      </trkpt>
      <trkpt lat="46.35198" lon="6.0046">
        <ele>1477.3</ele>
        <time>2021-10-07T00:15:27.220Z</time>
      </trkpt>
      <trkpt lat="46.3516" lon="6.00435">
        <ele>1483</ele>
        <time>2021-10-07T00:16:23.172Z</time>
      </trkpt>
      <trkpt lat="46.35151" lon="6.00415">
        <ele>1483.8</ele>
        <time>2021-10-07T00:16:47.311Z</time>
      </trkpt>
      <trkpt lat="46.3512" lon="6.00382">
        <ele>1487.3</ele>
        <time>2021-10-07T00:17:44.105Z</time>
      </trkpt>
      <trkpt lat="46.35079" lon="6.00363">
        <ele>1494.8</ele>
        <time>2021-10-07T00:18:54.253Z</time>
      </trkpt>
      <trkpt lat="46.35046" lon="6.0033">
        <ele>1499.7</ele>
        <time>2021-10-07T00:19:57.301Z</time>
      </trkpt>
      <trkpt lat="46.3503" lon="6.00307">
        <ele>1502.4</ele>
        <time>2021-10-07T00:20:33.480Z</time>
      </trkpt>
      <trkpt lat="46.35005" lon="6.00273">
        <ele>1507.9</ele>
        <time>2021-10-07T00:21:27.196Z</time>
      </trkpt>
      <trkpt lat="46.35001" lon="6.00243">
        <ele>1509.2</ele>
        <time>2021-10-07T00:21:58.911Z</time>
      </trkpt>
      <trkpt lat="46.34994" lon="6.00234">
        <ele>1510</ele>
        <time>2021-10-07T00:22:12.884Z</time>
      </trkpt>
      <trkpt lat="46.3498" lon="6.00236">
        <ele>1513</ele>
        <time>2021-10-07T00:22:37.841Z</time>
      </trkpt>
      <trkpt lat="46.34965" lon="6.00251">
        <ele>1517.2</ele>
        <time>2021-10-07T00:23:13.787Z</time>
      </trkpt>
      <trkpt lat="46.34938" lon="6.00308">
        <ele>1530.1</ele>
        <time>2021-10-07T00:24:34.950Z</time>
      </trkpt>
      <trkpt lat="46.3493" lon="6.00345">
        <ele>1533.6</ele>
        <time>2021-10-07T00:25:20.707Z</time>
      </trkpt>
      <trkpt lat="46.34913" lon="6.00356">
        <ele>1535.6</ele>
        <time>2021-10-07T00:25:48.432Z</time>
      </trkpt>
      <trkpt lat="46.34905" lon="6.00351">
        <ele>1536.3</ele>
        <time>2021-10-07T00:26:07.076Z</time>
      </trkpt>
      <trkpt lat="46.34892" lon="6.00369">
        <ele>1539.9</ele>
        <time>2021-10-07T00:26:29.946Z</time>
      </trkpt>
      <trkpt lat="46.34891" lon="6.00387">
        <ele>1543.2</ele>
        <time>2021-10-07T00:26:49.754Z</time>
      </trkpt>
      <trkpt lat="46.34887" lon="6.00391">
        <ele>1544.3</ele>
        <time>2021-10-07T00:27:01.572Z</time>
      </trkpt>
      <trkpt lat="46.3487" lon="6.00428">
        <ele>1550.6</ele>
        <time>2021-10-07T00:27:41.357Z</time>
      </trkpt>
      <trkpt lat="46.34853" lon="6.00452">
        <ele>1557.1</ele>
        <time>2021-10-07T00:28:07.562Z</time>
      </trkpt>
      <trkpt lat="46.34857" lon="6.00522">
        <ele>1568.8</ele>
        <time>2021-10-07T00:29:02.701Z</time>
      </trkpt>
      <trkpt lat="46.34848" lon="6.00547">
        <ele>1575.1</ele>
        <time>2021-10-07T00:29:24.019Z</time>
      </trkpt>
      <trkpt lat="46.34834" lon="6.00551">
        <ele>1580.7</ele>
        <time>2021-10-07T00:29:39.153Z</time>
      </trkpt>
      <trkpt lat="46.34826" lon="6.00598">
        <ele>1587.2</ele>
        <time>2021-10-07T00:30:14.541Z</time>
      </trkpt>
      <trkpt lat="46.34816" lon="6.00619">
        <ele>1590.7</ele>
        <time>2021-10-07T00:30:32.907Z</time>
      </trkpt>
      <trkpt lat="46.3481" lon="6.00619">
        <ele>1592.4</ele>
        <time>2021-10-07T00:30:39.843Z</time>
      </trkpt>
      <trkpt lat="46.34799" lon="6.00635">
        <ele>1589.8</ele>
        <time>2021-10-07T00:30:55.854Z</time>
      </trkpt>
      <trkpt lat="46.34792" lon="6.00611">
        <ele>1592</ele>
        <time>2021-10-07T00:31:14.533Z</time>
      </trkpt>
      <trkpt lat="46.34775" lon="6.00596">
        <ele>1591.6</ele>
        <time>2021-10-07T00:31:35.087Z</time>
      </trkpt>
      <trkpt lat="46.34743" lon="6.00595">
        <ele>1586.7</ele>
        <time>2021-10-07T00:32:08.620Z</time>
      </trkpt>
      <trkpt lat="46.34728" lon="6.00588">
        <ele>1587.6</ele>
        <time>2021-10-07T00:32:23.936Z</time>
      </trkpt>
      <trkpt lat="46.34716" lon="6.00572">
        <ele>1589.1</ele>
        <time>2021-10-07T00:32:40.992Z</time>
      </trkpt>
      <trkpt lat="46.34705" lon="6.0058">
        <ele>1592.1</ele>
        <time>2021-10-07T00:32:53.445Z</time>
      </trkpt>
      <trkpt lat="46.34667" lon="6.00562">
        <ele>1593.1</ele>
        <time>2021-10-07T00:33:35.862Z</time>
      </trkpt>
      <trkpt lat="46.34638" lon="6.00536">
        <ele>1591.5</ele>
        <time>2021-10-07T00:34:18.348Z</time>
      </trkpt>
      <trkpt lat="46.34628" lon="6.00517">
        <ele>1590</ele>
        <time>2021-10-07T00:34:38.796Z</time>
      </trkpt>
      <trkpt lat="46.34597" lon="6.00497">
        <ele>1592.7</ele>
        <time>2021-10-07T00:35:20.699Z</time>
      </trkpt>
      <trkpt lat="46.34544" lon="6.00492">
        <ele>1595.8</ele>
        <time>2021-10-07T00:36:22.693Z</time>
      </trkpt>
      <trkpt lat="46.34534" lon="6.00486">
        <ele>1596.8</ele>
        <time>2021-10-07T00:36:34.789Z</time>
      </trkpt>
      <trkpt lat="46.34503" lon="6.005">
        <ele>1599.5</ele>
        <time>2021-10-07T00:37:10.586Z</time>
      </trkpt>
      <trkpt lat="46.34472" lon="6.00488">
        <ele>1604</ele>
        <time>2021-10-07T00:37:45.390Z</time>
      </trkpt>
      <trkpt lat="46.34453" lon="6.00499">
        <ele>1607.9</ele>
        <time>2021-10-07T00:38:05.760Z</time>
      </trkpt>
      <trkpt lat="46.34429" lon="6.00499">
        <ele>1608.5</ele>
        <time>2021-10-07T00:38:30.132Z</time>
      </trkpt>
      <trkpt lat="46.34361" lon="6.00448">
        <ele>1599.4</ele>
        <time>2021-10-07T00:39:51.146Z</time>
      </trkpt>
      <trkpt lat="46.34354" lon="6.00423">
        <ele>1593.8</ele>
        <time>2021-10-07T00:40:10.922Z</time>
      </trkpt>
      <trkpt lat="46.34345" lon="6.00408">
        <ele>1589.1</ele>
        <time>2021-10-07T00:40:26.275Z</time>
      </trkpt>
      <trkpt lat="46.34332" lon="6.00416">
        <ele>1585.8</ele>
        <time>2021-10-07T00:40:42.236Z</time>
      </trkpt>
      <trkpt lat="46.34312" lon="6.00418">
        <ele>1583.8</ele>
        <time>2021-10-07T00:41:03.996Z</time>
      </trkpt>
      <trkpt lat="46.34292" lon="6.00402">
        <ele>1579.5</ele>
        <time>2021-10-07T00:41:28.702Z</time>
      </trkpt>
      <trkpt lat="46.34256" lon="6.0041">
        <ele>1574</ele>
        <time>2021-10-07T00:42:07.203Z</time>
      </trkpt>
      <trkpt lat="46.34221" lon="6.00399">
        <ele>1568.8</ele>
        <time>2021-10-07T00:42:43.603Z</time>
      </trkpt>
      <trkpt lat="46.34182" lon="6.00372">
        <ele>1564.4</ele>
        <time>2021-10-07T00:43:27.856Z</time>
      </trkpt>
      <trkpt lat="46.34174" lon="6.00356">
        <ele>1562.2</ele>
        <time>2021-10-07T00:43:43.202Z</time>
      </trkpt>
      <trkpt lat="46.34161" lon="6.00349">
        <ele>1561</ele>
        <time>2021-10-07T00:43:57.605Z</time>
      </trkpt>
      <trkpt lat="46.34132" lon="6.00295">
        <ele>1562.3</ele>
        <time>2021-10-07T00:44:51.723Z</time>
      </trkpt>
      <trkpt lat="46.34111" lon="6.00292">
        <ele>1567.7</ele>
        <time>2021-10-07T00:45:15.884Z</time>
      </trkpt>
      <trkpt lat="46.34105" lon="6.00296">
        <ele>1569.3</ele>
        <time>2021-10-07T00:45:22.931Z</time>
      </trkpt>
      <trkpt lat="46.34099" lon="6.00286">
        <ele>1572.9</ele>
        <time>2021-10-07T00:45:33.942Z</time>
      </trkpt>
      <trkpt lat="46.34092" lon="6.00286">
        <ele>1575.7</ele>
        <time>2021-10-07T00:45:42.138Z</time>
      </trkpt>
      <trkpt lat="46.34082" lon="6.00299">
        <ele>1578</ele>
        <time>2021-10-07T00:45:56.878Z</time>
      </trkpt>
      <trkpt lat="46.34071" lon="6.00303">
        <ele>1581.1</ele>
        <time>2021-10-07T00:46:10.115Z</time>
      </trkpt>
      <trkpt lat="46.33991" lon="6.00278">
        <ele>1592</ele>
        <time>2021-10-07T00:47:43.018Z</time>
      </trkpt>
      <trkpt lat="46.33935" lon="6.00286">
        <ele>1602.4</ele>
        <time>2021-10-07T00:48:41.533Z</time>
      </trkpt>
      <trkpt lat="46.33917" lon="6.00281">
        <ele>1603</ele>
        <time>2021-10-07T00:48:59.864Z</time>
      </trkpt>
      <trkpt lat="46.33851" lon="6.00244">
        <ele>1601.5</ele>
        <time>2021-10-07T00:50:13.389Z</time>
      </trkpt>
      <trkpt lat="46.33844" lon="6.0023">
        <ele>1599.9</ele>
        <time>2021-10-07T00:50:25.992Z</time>
      </trkpt>
      <trkpt lat="46.33782" lon="6.00221">
        <ele>1601.8</ele>
        <time>2021-10-07T00:51:32.150Z</time>
      </trkpt>
      <trkpt lat="46.33714" lon="6.00192">
        <ele>1597.8</ele>
        <time>2021-10-07T00:52:47.292Z</time>
      </trkpt>
      <trkpt lat="46.33642" lon="6.00178">
        <ele>1599.4</ele>
        <time>2021-10-07T00:54:03.252Z</time>
      </trkpt>
      <trkpt lat="46.3361" lon="6.00158">
        <ele>1601.6</ele>
        <time>2021-10-07T00:54:39.169Z</time>
      </trkpt>
      <trkpt lat="46.33596" lon="6.00139">
        <ele>1604.8</ele>
        <time>2021-10-07T00:54:58.095Z</time>
      </trkpt>
      <trkpt lat="46.33578" lon="6.00127">
        <ele>1604.2</ele>
        <time>2021-10-07T00:55:17.781Z</time>
      </trkpt>
      <trkpt lat="46.33548" lon="6.00123">
        <ele>1603.9</ele>
        <time>2021-10-07T00:55:48.323Z</time>
      </trkpt>
      <trkpt lat="46.33536" lon="6.00113">
        <ele>1606.2</ele>
        <time>2021-10-07T00:56:02.312Z</time>
      </trkpt>
      <trkpt lat="46.33445" lon="6.00074">
        <ele>1603.5</ele>
        <time>2021-10-07T00:57:37.808Z</time>
      </trkpt>
      <trkpt lat="46.33375" lon="6.0005">
        <ele>1593.1</ele>
        <time>2021-10-07T00:58:49.668Z</time>
      </trkpt>
      <trkpt lat="46.33258" lon="5.99976">
        <ele>1586.4</ele>
        <time>2021-10-07T01:01:05.497Z</time>
      </trkpt>
      <trkpt lat="46.33241" lon="5.99987">
        <ele>1579.8</ele>
        <time>2021-10-07T01:01:24.542Z</time>
      </trkpt>
      <trkpt lat="46.33236" lon="5.9998">
        <ele>1578</ele>
        <time>2021-10-07T01:01:31.340Z</time>
      </trkpt>
      <trkpt lat="46.33194" lon="5.99985">
        <ele>1560.5</ele>
        <time>2021-10-07T01:02:14.543Z</time>
      </trkpt>
      <trkpt lat="46.33185" lon="5.99989">
        <ele>1558.7</ele>
        <time>2021-10-07T01:02:24.926Z</time>
      </trkpt>
      <trkpt lat="46.33165" lon="5.99997">
        <ele>1556.5</ele>
        <time>2021-10-07T01:02:47.012Z</time>
      </trkpt>
      <trkpt lat="46.33125" lon="5.99993">
        <ele>1554.2</ele>
        <time>2021-10-07T01:03:29.347Z</time>
      </trkpt>
      <trkpt lat="46.33086" lon="5.99963">
        <ele>1551.4</ele>
        <time>2021-10-07T01:04:17.707Z</time>
      </trkpt>
      <trkpt lat="46.33038" lon="5.99939">
        <ele>1554.6</ele>
        <time>2021-10-07T01:05:20.593Z</time>
      </trkpt>
      <trkpt lat="46.33024" lon="5.9994">
        <ele>1556.7</ele>
        <time>2021-10-07T01:05:37.236Z</time>
      </trkpt>
      <trkpt lat="46.32982" lon="5.99961">
        <ele>1563</ele>
        <time>2021-10-07T01:06:38.843Z</time>
      </trkpt>
      <trkpt lat="46.32957" lon="5.99963">
        <ele>1566.8</ele>
        <time>2021-10-07T01:07:11.572Z</time>
      </trkpt>
      <trkpt lat="46.32947" lon="5.99972">
        <ele>1568.6</ele>
        <time>2021-10-07T01:07:27.929Z</time>
      </trkpt>
      <trkpt lat="46.32936" lon="6.00006">
        <ele>1567.9</ele>
        <time>2021-10-07T01:07:59.702Z</time>
      </trkpt>
      <trkpt lat="46.32923" lon="6.00012">
        <ele>1571.4</ele>
        <time>2021-10-07T01:08:18.878Z</time>
      </trkpt>
      <trkpt lat="46.32905" lon="6.0001">
        <ele>1575.3</ele>
        <time>2021-10-07T01:08:39.439Z</time>
      </trkpt>
      <trkpt lat="46.32843" lon="6.00059">
        <ele>1594.7</ele>
        <time>2021-10-07T01:10:00.983Z</time>
      </trkpt>
      <trkpt lat="46.32788" lon="6.00069">
        <ele>1595.5</ele>
        <time>2021-10-07T01:10:58.659Z</time>
      </trkpt>
      <trkpt lat="46.32751" lon="6.00093">
        <ele>1600.2</ele>
        <time>2021-10-07T01:11:44.710Z</time>
      </trkpt>
      <trkpt lat="46.32726" lon="6.00118">
        <ele>1599.7</ele>
        <time>2021-10-07T01:12:17.627Z</time>
      </trkpt>
      <trkpt lat="46.32708" lon="6.00137">
        <ele>1593</ele>
        <time>2021-10-07T01:12:42.720Z</time>
      </trkpt>
      <trkpt lat="46.32665" lon="6.00133">
        <ele>1590.6</ele>
        <time>2021-10-07T01:13:29.318Z</time>
      </trkpt>
      <trkpt lat="46.32652" lon="6.00135">
        <ele>1587.8</ele>
        <time>2021-10-07T01:13:43.211Z</time>
      </trkpt>
      <trkpt lat="46.32634" lon="6.00153">
        <ele>1581.3</ele>
        <time>2021-10-07T01:14:10.513Z</time>
      </trkpt>
      <trkpt lat="46.32593" lon="6.00154">
        <ele>1579</ele>
        <time>2021-10-07T01:15:02.405Z</time>
      </trkpt>
      <trkpt lat="46.32554" lon="6.00127">
        <ele>1587.2</ele>
        <time>2021-10-07T01:16:03.344Z</time>
      </trkpt>
      <trkpt lat="46.3251" lon="6.0012">
        <ele>1597.5</ele>
        <time>2021-10-07T01:17:15.304Z</time>
      </trkpt>
      <trkpt lat="46.32508" lon="6.0012">
        <ele>1597.6</ele>
        <time>2021-10-07T01:17:19.891Z</time>
      </trkpt>
      <trkpt lat="46.32471" lon="6.00082">
        <ele>1606.8</ele>
        <time>2021-10-07T01:18:45.600Z</time>
      </trkpt>
      <trkpt lat="46.32461" lon="5.99997">
        <ele>1613.6</ele>
        <time>2021-10-07T01:20:54.760Z</time>
      </trkpt>
      <trkpt lat="46.3245" lon="5.99952">
        <ele>1612.8</ele>
        <time>2021-10-07T01:22:13.883Z</time>
      </trkpt>
      <trkpt lat="46.32442" lon="5.99886">
        <ele>1614</ele>
        <time>2021-10-07T01:24:04.617Z</time>
      </trkpt>
      <trkpt lat="46.32432" lon="5.9983">
        <ele>1614</ele>
        <time>2021-10-07T01:25:38.656Z</time>
      </trkpt>
      <trkpt lat="46.32395" lon="5.99779">
        <ele>1615.5</ele>
        <time>2021-10-07T01:27:36.689Z</time>
      </trkpt>
      <trkpt lat="46.32382" lon="5.99752">
        <ele>1621.8</ele>
        <time>2021-10-07T01:28:25.583Z</time>
      </trkpt>
      <trkpt lat="46.32379" lon="5.99714">
        <ele>1626.5</ele>
        <time>2021-10-07T01:29:24.414Z</time>
      </trkpt>
      <trkpt lat="46.32362" lon="5.99701">
        <ele>1634.4</ele>
        <time>2021-10-07T01:30:05.712Z</time>
      </trkpt>
      <trkpt lat="46.32349" lon="5.99698">
        <ele>1639.1</ele>
        <time>2021-10-07T01:30:34.317Z</time>
      </trkpt>
      <trkpt lat="46.32317" lon="5.99662">
        <ele>1652.1</ele>
        <time>2021-10-07T01:31:56.501Z</time>
      </trkpt>
      <trkpt lat="46.3225" lon="5.99536">
        <ele>1682.8</ele>
        <time>2021-10-07T01:34:48.062Z</time>
      </trkpt>
      <trkpt lat="46.32232" lon="5.99538">
        <ele>1684.5</ele>
        <time>2021-10-07T01:35:13.448Z</time>
      </trkpt>
      <trkpt lat="46.32224" lon="5.9952">
        <ele>1686.3</ele>
        <time>2021-10-07T01:35:32.963Z</time>
      </trkpt>
      <trkpt lat="46.32127" lon="5.99388">
        <ele>1664.7</ele>
        <time>2021-10-07T01:38:33.766Z</time>
      </trkpt>
      <trkpt lat="46.32069" lon="5.9934">
        <ele>1643.4</ele>
        <time>2021-10-07T01:40:11.814Z</time>
      </trkpt>
      <trkpt lat="46.32053" lon="5.99298">
        <ele>1637.8</ele>
        <time>2021-10-07T01:40:58.440Z</time>
      </trkpt>
      <trkpt lat="46.32036" lon="5.99275">
        <ele>1634.5</ele>
        <time>2021-10-07T01:41:30.727Z</time>
      </trkpt>
      <trkpt lat="46.31943" lon="5.99181">
        <ele>1627.9</ele>
        <time>2021-10-07T01:43:53.522Z</time>
      </trkpt>
      <trkpt lat="46.31915" lon="5.99136">
        <ele>1635.4</ele>
        <time>2021-10-07T01:44:56.162Z</time>
      </trkpt>
      <trkpt lat="46.31873" lon="5.99085">
        <ele>1644.6</ele>
        <time>2021-10-07T01:46:21.944Z</time>
      </trkpt>
      <trkpt lat="46.31861" lon="5.99081">
        <ele>1646.2</ele>
        <time>2021-10-07T01:46:42.221Z</time>
      </trkpt>
      <trkpt lat="46.31813" lon="5.99012">
        <ele>1660.6</ele>
        <time>2021-10-07T01:48:26.878Z</time>
      </trkpt>
      <trkpt lat="46.31761" lon="5.98981">
        <ele>1665.6</ele>
        <time>2021-10-07T01:49:44.378Z</time>
      </trkpt>
      <trkpt lat="46.31703" lon="5.98924">
        <ele>1671.5</ele>
        <time>2021-10-07T01:51:18.101Z</time>
      </trkpt>
      <trkpt lat="46.3169" lon="5.98904">
        <ele>1672.7</ele>
        <time>2021-10-07T01:51:45.823Z</time>
      </trkpt>
      <trkpt lat="46.31635" lon="5.98858">
        <ele>1662.4</ele>
        <time>2021-10-07T01:53:26.825Z</time>
      </trkpt>
      <trkpt lat="46.31593" lon="5.98839">
        <ele>1648.8</ele>
        <time>2021-10-07T01:54:42.702Z</time>
      </trkpt>
      <trkpt lat="46.31507" lon="5.98784">
        <ele>1611.9</ele>
        <time>2021-10-07T01:57:39.973Z</time>
      </trkpt>
      <trkpt lat="46.31468" lon="5.98732">
        <ele>1592.7</ele>
        <time>2021-10-07T01:59:13.901Z</time>
      </trkpt>
      <trkpt lat="46.31447" lon="5.98689">
        <ele>1582.8</ele>
        <time>2021-10-07T02:00:13.222Z</time>
      </trkpt>
      <trkpt lat="46.31424" lon="5.98663">
        <ele>1577.9</ele>
        <time>2021-10-07T02:00:59.175Z</time>
      </trkpt>
      <trkpt lat="46.31301" lon="5.98585">
        <ele>1578.2</ele>
        <time>2021-10-07T02:03:59.877Z</time>
      </trkpt>
      <trkpt lat="46.31278" lon="5.98582">
        <ele>1580</ele>
        <time>2021-10-07T02:04:33.986Z</time>
      </trkpt>
      <trkpt lat="46.31255" lon="5.9856">
        <ele>1581.2</ele>
        <time>2021-10-07T02:05:15.588Z</time>
      </trkpt>
      <trkpt lat="46.31165" lon="5.98515">
        <ele>1590</ele>
        <time>2021-10-07T02:07:48.797Z</time>
      </trkpt>
      <trkpt lat="46.3115" lon="5.9849">
        <ele>1592.5</ele>
        <time>2021-10-07T02:08:26.078Z</time>
      </trkpt>
      <trkpt lat="46.3113" lon="5.98438">
        <ele>1594.4</ele>
        <time>2021-10-07T02:09:32.873Z</time>
      </trkpt>
      <trkpt lat="46.31128" lon="5.98398">
        <ele>1597.8</ele>
        <time>2021-10-07T02:10:17.311Z</time>
      </trkpt>
      <trkpt lat="46.31084" lon="5.98357">
        <ele>1605.2</ele>
        <time>2021-10-07T02:11:34.507Z</time>
      </trkpt>
      <trkpt lat="46.31068" lon="5.98359">
        <ele>1606.6</ele>
        <time>2021-10-07T02:11:57.976Z</time>
      </trkpt>
      <trkpt lat="46.31055" lon="5.9835">
        <ele>1608.4</ele>
        <time>2021-10-07T02:12:16.139Z</time>
      </trkpt>
      <trkpt lat="46.31002" lon="5.98338">
        <ele>1605.6</ele>
        <time>2021-10-07T02:13:24.746Z</time>
      </trkpt>
      <trkpt lat="46.30961" lon="5.98337">
        <ele>1603.4</ele>
        <time>2021-10-07T02:14:18.823Z</time>
      </trkpt>
      <trkpt lat="46.3094" lon="5.98326">
        <ele>1601</ele>
        <time>2021-10-07T02:14:48.744Z</time>
      </trkpt>
      <trkpt lat="46.30899" lon="5.98317">
        <ele>1598.1</ele>
        <time>2021-10-07T02:15:45.578Z</time>
      </trkpt>
      <trkpt lat="46.30809" lon="5.98237">
        <ele>1587</ele>
        <time>2021-10-07T02:18:12.381Z</time>
      </trkpt>
      <trkpt lat="46.30786" lon="5.9823">
        <ele>1586</ele>
        <time>2021-10-07T02:18:43.543Z</time>
      </trkpt>
      <trkpt lat="46.30767" lon="5.98235">
        <ele>1588.1</ele>
        <time>2021-10-07T02:19:10.924Z</time>
      </trkpt>
      <trkpt lat="46.30751" lon="5.98227">
        <ele>1588.5</ele>
        <time>2021-10-07T02:19:32.627Z</time>
      </trkpt>
      <trkpt lat="46.30687" lon="5.98175">
        <ele>1591.8</ele>
        <time>2021-10-07T02:21:08.058Z</time>
      </trkpt>
      <trkpt lat="46.30627" lon="5.98144">
        <ele>1590.2</ele>
        <time>2021-10-07T02:22:28.633Z</time>
      </trkpt>
      <trkpt lat="46.30577" lon="5.98104">
        <ele>1588</ele>
        <time>2021-10-07T02:23:44.232Z</time>
      </trkpt>
      <trkpt lat="46.30543" lon="5.98089">
        <ele>1591.6</ele>
        <time>2021-10-07T02:24:31.851Z</time>
      </trkpt>
      <trkpt lat="46.30477" lon="5.98046">
        <ele>1605.4</ele>
        <time>2021-10-07T02:26:05.948Z</time>
      </trkpt>
      <trkpt lat="46.30459" lon="5.98029">
        <ele>1610.3</ele>
        <time>2021-10-07T02:26:33.193Z</time>
      </trkpt>
      <trkpt lat="46.3043" lon="5.97988">
        <ele>1611.3</ele>
        <time>2021-10-07T02:27:26.281Z</time>
      </trkpt>
      <trkpt lat="46.30408" lon="5.9792">
        <ele>1604.3</ele>
        <time>2021-10-07T02:28:36.708Z</time>
      </trkpt>
      <trkpt lat="46.30388" lon="5.97893">
        <ele>1602.2</ele>
        <time>2021-10-07T02:29:15.412Z</time>
      </trkpt>
      <trkpt lat="46.30378" lon="5.97868">
        <ele>1599.8</ele>
        <time>2021-10-07T02:29:43.897Z</time>
      </trkpt>
      <trkpt lat="46.30373" lon="5.97839">
        <ele>1597.6</ele>
        <time>2021-10-07T02:30:14.815Z</time>
      </trkpt>
      <trkpt lat="46.30381" lon="5.97811">
        <ele>1595.3</ele>
        <time>2021-10-07T02:30:45.034Z</time>
      </trkpt>
      <trkpt lat="46.30386" lon="5.97753">
        <ele>1590.4</ele>
        <time>2021-10-07T02:31:48.032Z</time>
      </trkpt>
      <trkpt lat="46.30365" lon="5.97696">
        <ele>1582.6</ele>
        <time>2021-10-07T02:32:59.483Z</time>
      </trkpt>
      <trkpt lat="46.30341" lon="5.97608">
        <ele>1564.8</ele>
        <time>2021-10-07T02:34:45.076Z</time>
      </trkpt>
      <trkpt lat="46.30313" lon="5.97544">
        <ele>1550.6</ele>
        <time>2021-10-07T02:36:13.813Z</time>
      </trkpt>
      <trkpt lat="46.30291" lon="5.97526">
        <ele>1544.2</ele>
        <time>2021-10-07T02:36:55.120Z</time>
      </trkpt>
      <trkpt lat="46.30275" lon="5.97491">
        <ele>1538.4</ele>
        <time>2021-10-07T02:37:42.396Z</time>
      </trkpt>
      <trkpt lat="46.30246" lon="5.97455">
        <ele>1532.5</ele>
        <time>2021-10-07T02:38:44.079Z</time>
      </trkpt>
      <trkpt lat="46.30237" lon="5.97452">
        <ele>1531.7</ele>
        <time>2021-10-07T02:39:00.782Z</time>
      </trkpt>
      <trkpt lat="46.30234" lon="5.97452">
        <ele>1531.5</ele>
        <time>2021-10-07T02:39:05.505Z</time>
      </trkpt>
      <trkpt lat="46.30204" lon="5.97464">
        <ele>1531.5</ele>
        <time>2021-10-07T02:39:55.033Z</time>
      </trkpt>
      <trkpt lat="46.30189" lon="5.97463">
        <ele>1530.4</ele>
        <time>2021-10-07T02:40:17.226Z</time>
      </trkpt>
      <trkpt lat="46.30179" lon="5.97461">
        <ele>1529.2</ele>
        <time>2021-10-07T02:40:32.055Z</time>
      </trkpt>
      <trkpt lat="46.30173" lon="5.97464">
        <ele>1528.8</ele>
        <time>2021-10-07T02:40:43.776Z</time>
      </trkpt>
      <trkpt lat="46.30151" lon="5.97458">
        <ele>1526.9</ele>
        <time>2021-10-07T02:41:16.857Z</time>
      </trkpt>
      <trkpt lat="46.30129" lon="5.97432">
        <ele>1523.9</ele>
        <time>2021-10-07T02:42:01.486Z</time>
      </trkpt>
      <trkpt lat="46.30107" lon="5.97343">
        <ele>1520.8</ele>
        <time>2021-10-07T02:43:36.953Z</time>
      </trkpt>
      <trkpt lat="46.30088" lon="5.973">
        <ele>1521.3</ele>
        <time>2021-10-07T02:44:27.565Z</time>
      </trkpt>
      <trkpt lat="46.30067" lon="5.97287">
        <ele>1521.2</ele>
        <time>2021-10-07T02:44:59.038Z</time>
      </trkpt>
      <trkpt lat="46.30024" lon="5.97238">
        <ele>1518.1</ele>
        <time>2021-10-07T02:46:14.936Z</time>
      </trkpt>
      <trkpt lat="46.29943" lon="5.97168">
        <ele>1514.9</ele>
        <time>2021-10-07T02:48:24.030Z</time>
      </trkpt>
      <trkpt lat="46.2982" lon="5.97034">
        <ele>1508.3</ele>
        <time>2021-10-07T02:51:45.827Z</time>
      </trkpt>
      <trkpt lat="46.29764" lon="5.96993">
        <ele>1507.4</ele>
        <time>2021-10-07T02:53:06.185Z</time>
      </trkpt>
      <trkpt lat="46.29734" lon="5.96965">
        <ele>1505.3</ele>
        <time>2021-10-07T02:53:53.193Z</time>
      </trkpt>
      <trkpt lat="46.29713" lon="5.96937">
        <ele>1506.8</ele>
        <time>2021-10-07T02:54:32.338Z</time>
      </trkpt>
      <trkpt lat="46.29661" lon="5.969">
        <ele>1511.3</ele>
        <time>2021-10-07T02:55:51.990Z</time>
      </trkpt>
      <trkpt lat="46.29656" lon="5.96895">
        <ele>1510.3</ele>
        <time>2021-10-07T02:55:59.733Z</time>
      </trkpt>
      <trkpt lat="46.29653" lon="5.9689">
        <ele>1509.2</ele>
        <time>2021-10-07T02:56:06.468Z</time>
      </trkpt>
      <trkpt lat="46.29647" lon="5.9688">
        <ele>1507.4</ele>
        <time>2021-10-07T02:56:18.678Z</time>
      </trkpt>
      <trkpt lat="46.29642" lon="5.96874">
        <ele>1505.5</ele>
        <time>2021-10-07T02:56:28.543Z</time>
      </trkpt>
      <trkpt lat="46.29618" lon="5.96837">
        <ele>1497.4</ele>
        <time>2021-10-07T02:57:07.630Z</time>
      </trkpt>
      <trkpt lat="46.29598" lon="5.96808">
        <ele>1491.8</ele>
        <time>2021-10-07T02:57:40.241Z</time>
      </trkpt>
      <trkpt lat="46.2956" lon="5.96707">
        <ele>1479.6</ele>
        <time>2021-10-07T02:59:10.905Z</time>
      </trkpt>
      <trkpt lat="46.29556" lon="5.967">
        <ele>1479.2</ele>
        <time>2021-10-07T02:59:19.066Z</time>
      </trkpt>
      <trkpt lat="46.29552" lon="5.96692">
        <ele>1479.1</ele>
        <time>2021-10-07T02:59:26.773Z</time>
      </trkpt>
      <trkpt lat="46.29493" lon="5.96624">
        <ele>1480.9</ele>
        <time>2021-10-07T03:00:52.909Z</time>
      </trkpt>
      <trkpt lat="46.29466" lon="5.9658">
        <ele>1478.6</ele>
        <time>2021-10-07T03:01:40.494Z</time>
      </trkpt>
      <trkpt lat="46.29465" lon="5.96572">
        <ele>1477.9</ele>
        <time>2021-10-07T03:01:46.974Z</time>
      </trkpt>
      <trkpt lat="46.29466" lon="5.96567">
        <ele>1477.3</ele>
        <time>2021-10-07T03:01:51.692Z</time>
      </trkpt>
      <trkpt lat="46.29462" lon="5.96543">
        <ele>1473.9</ele>
        <time>2021-10-07T03:02:11.995Z</time>
      </trkpt>
      <trkpt lat="46.29436" lon="5.96518">
        <ele>1470.4</ele>
        <time>2021-10-07T03:02:47.102Z</time>
      </trkpt>
      <trkpt lat="46.29455" lon="5.96466">
        <ele>1462.3</ele>
        <time>2021-10-07T03:03:33.888Z</time>
      </trkpt>
      <trkpt lat="46.295" lon="5.96405">
        <ele>1450.4</ele>
        <time>2021-10-07T03:04:45.216Z</time>
      </trkpt>
      <trkpt lat="46.29499" lon="5.96367">
        <ele>1446.4</ele>
        <time>2021-10-07T03:05:16.197Z</time>
      </trkpt>
      <trkpt lat="46.29416" lon="5.96262">
        <ele>1442.4</ele>
        <time>2021-10-07T03:07:18.701Z</time>
      </trkpt>
      <trkpt lat="46.29381" lon="5.96209">
        <ele>1444.6</ele>
        <time>2021-10-07T03:08:10.864Z</time>
      </trkpt>
      <trkpt lat="46.29374" lon="5.96186">
        <ele>1445.5</ele>
        <time>2021-10-07T03:08:28.522Z</time>
      </trkpt>
      <trkpt lat="46.29375" lon="5.96165">
        <ele>1445.1</ele>
        <time>2021-10-07T03:08:43.015Z</time>
      </trkpt>
      <trkpt lat="46.2938" lon="5.96138">
        <ele>1445.4</ele>
        <time>2021-10-07T03:09:03.753Z</time>
      </trkpt>
      <trkpt lat="46.29379" lon="5.96123">
        <ele>1445.8</ele>
        <time>2021-10-07T03:09:14.019Z</time>
      </trkpt>
      <trkpt lat="46.29374" lon="5.96115">
        <ele>1446.6</ele>
        <time>2021-10-07T03:09:23.147Z</time>
      </trkpt>
      <trkpt lat="46.29371" lon="5.96107">
        <ele>1446.9</ele>
        <time>2021-10-07T03:09:34.659Z</time>
      </trkpt>
      <trkpt lat="46.29353" lon="5.96053">
        <ele>1447.6</ele>
        <time>2021-10-07T03:10:26.039Z</time>
      </trkpt>
      <trkpt lat="46.29339" lon="5.9601">
        <ele>1448.8</ele>
        <time>2021-10-07T03:11:08.716Z</time>
      </trkpt>
      <trkpt lat="46.29332" lon="5.95964">
        <ele>1448.9</ele>
        <time>2021-10-07T03:11:51.995Z</time>
      </trkpt>
      <trkpt lat="46.2933" lon="5.95956">
        <ele>1448.7</ele>
        <time>2021-10-07T03:12:00.042Z</time>
      </trkpt>
      <trkpt lat="46.29318" lon="5.95937">
        <ele>1450.7</ele>
        <time>2021-10-07T03:12:21.537Z</time>
      </trkpt>
      <trkpt lat="46.29311" lon="5.95934">
        <ele>1452.3</ele>
        <time>2021-10-07T03:12:32.740Z</time>
      </trkpt>
      <trkpt lat="46.29306" lon="5.95932">
        <ele>1453.4</ele>
        <time>2021-10-07T03:12:45.617Z</time>
      </trkpt>
      <trkpt lat="46.29294" lon="5.95922">
        <ele>1456.5</ele>
        <time>2021-10-07T03:13:05.561Z</time>
      </trkpt>
      <trkpt lat="46.29278" lon="5.95891">
        <ele>1462.8</ele>
        <time>2021-10-07T03:13:48.622Z</time>
      </trkpt>
      <trkpt lat="46.29226" lon="5.95856">
        <ele>1472.2</ele>
        <time>2021-10-07T03:15:22.190Z</time>
      </trkpt>
      <trkpt lat="46.29171" lon="5.95842">
        <ele>1484.6</ele>
        <time>2021-10-07T03:17:04.278Z</time>
      </trkpt>
      <trkpt lat="46.29096" lon="5.95769">
        <ele>1499.9</ele>
        <time>2021-10-07T03:19:38.257Z</time>
      </trkpt>
      <trkpt lat="46.29042" lon="5.95755">
        <ele>1504.4</ele>
        <time>2021-10-07T03:21:14.554Z</time>
      </trkpt>
      <trkpt lat="46.28982" lon="5.95784">
        <ele>1515.4</ele>
        <time>2021-10-07T03:22:52.908Z</time>
      </trkpt>
      <trkpt lat="46.2897" lon="5.9579">
        <ele>1517.8</ele>
        <time>2021-10-07T03:23:15.708Z</time>
      </trkpt>
      <trkpt lat="46.28949" lon="5.95776">
        <ele>1519.2</ele>
        <time>2021-10-07T03:23:53.562Z</time>
      </trkpt>
      <trkpt lat="46.28911" lon="5.95743">
        <ele>1522.7</ele>
        <time>2021-10-07T03:25:13.694Z</time>
      </trkpt>
      <trkpt lat="46.28899" lon="5.95744">
        <ele>1524.6</ele>
        <time>2021-10-07T03:25:35.524Z</time>
      </trkpt>
      <trkpt lat="46.2888" lon="5.95757">
        <ele>1526.9</ele>
        <time>2021-10-07T03:26:11.032Z</time>
      </trkpt>
      <trkpt lat="46.28805" lon="5.95653">
        <ele>1532.5</ele>
        <time>2021-10-07T03:29:00.820Z</time>
      </trkpt>
      <trkpt lat="46.28726" lon="5.95621">
        <ele>1528.3</ele>
        <time>2021-10-07T03:31:16.287Z</time>
      </trkpt>
      <trkpt lat="46.28719" lon="5.95613">
        <ele>1528.9</ele>
        <time>2021-10-07T03:31:32.007Z</time>
      </trkpt>
      <trkpt lat="46.28705" lon="5.95575">
        <ele>1531.7</ele>
        <time>2021-10-07T03:32:21.615Z</time>
      </trkpt>
      <trkpt lat="46.28655" lon="5.95515">
        <ele>1540.4</ele>
        <time>2021-10-07T03:34:11.669Z</time>
      </trkpt>
      <trkpt lat="46.28648" lon="5.95517">
        <ele>1542.9</ele>
        <time>2021-10-07T03:34:23.143Z</time>
      </trkpt>
      <trkpt lat="46.28621" lon="5.95499">
        <ele>1551.4</ele>
        <time>2021-10-07T03:35:13.114Z</time>
      </trkpt>
      <trkpt lat="46.28595" lon="5.95466">
        <ele>1553.4</ele>
        <time>2021-10-07T03:36:08.836Z</time>
      </trkpt>
      <trkpt lat="46.28572" lon="5.95458">
        <ele>1557.6</ele>
        <time>2021-10-07T03:36:46.181Z</time>
      </trkpt>
      <trkpt lat="46.2856" lon="5.95438">
        <ele>1556.2</ele>
        <time>2021-10-07T03:37:12.794Z</time>
      </trkpt>
      <trkpt lat="46.28514" lon="5.9543">
        <ele>1566.2</ele>
        <time>2021-10-07T03:38:26.094Z</time>
      </trkpt>
      <trkpt lat="46.28495" lon="5.95395">
        <ele>1570.7</ele>
        <time>2021-10-07T03:39:11.529Z</time>
      </trkpt>
      <trkpt lat="46.28499" lon="5.95369">
        <ele>1568.8</ele>
        <time>2021-10-07T03:39:40.582Z</time>
      </trkpt>
      <trkpt lat="46.28482" lon="5.95314">
        <ele>1570</ele>
        <time>2021-10-07T03:40:42.705Z</time>
      </trkpt>
      <trkpt lat="46.28479" lon="5.95301">
        <ele>1568.8</ele>
        <time>2021-10-07T03:40:54.150Z</time>
      </trkpt>
      <trkpt lat="46.28475" lon="5.95295">
        <ele>1568.9</ele>
        <time>2021-10-07T03:41:04.491Z</time>
      </trkpt>
      <trkpt lat="46.28457" lon="5.9528">
        <ele>1569.7</ele>
        <time>2021-10-07T03:41:28.911Z</time>
      </trkpt>
      <trkpt lat="46.2839" lon="5.95246">
        <ele>1566</ele>
        <time>2021-10-07T03:42:56.119Z</time>
      </trkpt>
      <trkpt lat="46.28381" lon="5.95212">
        <ele>1571.4</ele>
        <time>2021-10-07T03:43:28.137Z</time>
      </trkpt>
      <trkpt lat="46.28381" lon="5.95147">
        <ele>1575.4</ele>
        <time>2021-10-07T03:44:26.202Z</time>
      </trkpt>
      <trkpt lat="46.28372" lon="5.95127">
        <ele>1582.1</ele>
        <time>2021-10-07T03:44:48.530Z</time>
      </trkpt>
      <trkpt lat="46.28366" lon="5.95084">
        <ele>1584.7</ele>
        <time>2021-10-07T03:45:28.073Z</time>
      </trkpt>
      <trkpt lat="46.28353" lon="5.95066">
        <ele>1589.4</ele>
        <time>2021-10-07T03:45:51.039Z</time>
      </trkpt>
      <trkpt lat="46.28353" lon="5.95057">
        <ele>1589.3</ele>
        <time>2021-10-07T03:45:59.123Z</time>
      </trkpt>
      <trkpt lat="46.28332" lon="5.95033">
        <ele>1595</ele>
        <time>2021-10-07T03:46:34.250Z</time>
      </trkpt>
      <trkpt lat="46.28316" lon="5.95026">
        <ele>1598.8</ele>
        <time>2021-10-07T03:46:56.033Z</time>
      </trkpt>
      <trkpt lat="46.28302" lon="5.95034">
        <ele>1603.7</ele>
        <time>2021-10-07T03:47:15.470Z</time>
      </trkpt>
      <trkpt lat="46.28285" lon="5.95034">
        <ele>1606.1</ele>
        <time>2021-10-07T03:47:38.859Z</time>
      </trkpt>
      <trkpt lat="46.28195" lon="5.95078">
        <ele>1614.9</ele>
        <time>2021-10-07T03:49:47.302Z</time>
      </trkpt>
      <trkpt lat="46.28162" lon="5.95064">
        <ele>1614.1</ele>
        <time>2021-10-07T03:50:32.624Z</time>
      </trkpt>
      <trkpt lat="46.28148" lon="5.95068">
        <ele>1616</ele>
        <time>2021-10-07T03:50:50.941Z</time>
      </trkpt>
      <trkpt lat="46.28144" lon="5.95071">
        <ele>1617.2</ele>
        <time>2021-10-07T03:51:00.907Z</time>
      </trkpt>
      <trkpt lat="46.28116" lon="5.95103">
        <ele>1624.3</ele>
        <time>2021-10-07T03:51:49.516Z</time>
      </trkpt>
      <trkpt lat="46.28094" lon="5.95108">
        <ele>1625.8</ele>
        <time>2021-10-07T03:52:18.593Z</time>
      </trkpt>
      <trkpt lat="46.2805" lon="5.95064">
        <ele>1623.8</ele>
        <time>2021-10-07T03:53:35.891Z</time>
      </trkpt>
      <trkpt lat="46.28033" lon="5.95053">
        <ele>1623.2</ele>
        <time>2021-10-07T03:54:00.576Z</time>
      </trkpt>
      <trkpt lat="46.28012" lon="5.95053">
        <ele>1625.7</ele>
        <time>2021-10-07T03:54:30.762Z</time>
      </trkpt>
      <trkpt lat="46.28005" lon="5.9506">
        <ele>1628.2</ele>
        <time>2021-10-07T03:54:41.751Z</time>
      </trkpt>
      <trkpt lat="46.27983" lon="5.95061">
        <ele>1630.1</ele>
        <time>2021-10-07T03:55:10.101Z</time>
      </trkpt>
      <trkpt lat="46.27971" lon="5.95067">
        <ele>1633.2</ele>
        <time>2021-10-07T03:55:26.982Z</time>
      </trkpt>
      <trkpt lat="46.27972" lon="5.95079">
        <ele>1636.8</ele>
        <time>2021-10-07T03:55:38.271Z</time>
      </trkpt>
      <trkpt lat="46.27964" lon="5.95088">
        <ele>1640</ele>
        <time>2021-10-07T03:55:51.083Z</time>
      </trkpt>
      <trkpt lat="46.27956" lon="5.95085">
        <ele>1641.4</ele>
        <time>2021-10-07T03:56:01.397Z</time>
      </trkpt>
      <trkpt lat="46.27953" lon="5.95075">
        <ele>1640.2</ele>
        <time>2021-10-07T03:56:10.714Z</time>
      </trkpt>
      <trkpt lat="46.27932" lon="5.95071">
        <ele>1643.9</ele>
        <time>2021-10-07T03:56:38.229Z</time>
      </trkpt>
      <trkpt lat="46.27889" lon="5.95107">
        <ele>1657.8</ele>
        <time>2021-10-07T03:57:40.695Z</time>
      </trkpt>
      <trkpt lat="46.27872" lon="5.95138">
        <ele>1665.2</ele>
        <time>2021-10-07T03:58:14.669Z</time>
      </trkpt>
      <trkpt lat="46.27858" lon="5.95141">
        <ele>1665.7</ele>
        <time>2021-10-07T03:58:31.471Z</time>
      </trkpt>
      <trkpt lat="46.27843" lon="5.95154">
        <ele>1670.2</ele>
        <time>2021-10-07T03:58:52.325Z</time>
      </trkpt>
      <trkpt lat="46.27834" lon="5.95151">
        <ele>1670.1</ele>
        <time>2021-10-07T03:59:01.402Z</time>
      </trkpt>
      <trkpt lat="46.27809" lon="5.95159">
        <ele>1673.2</ele>
        <time>2021-10-07T03:59:30.959Z</time>
      </trkpt>
      <trkpt lat="46.27799" lon="5.95178">
        <ele>1678.4</ele>
        <time>2021-10-07T03:59:48.498Z</time>
      </trkpt>
      <trkpt lat="46.2778" lon="5.95181">
        <ele>1681.3</ele>
        <time>2021-10-07T04:00:09.113Z</time>
      </trkpt>
      <trkpt lat="46.27777" lon="5.95187">
        <ele>1682</ele>
        <time>2021-10-07T04:00:14.478Z</time>
      </trkpt>
      <trkpt lat="46.27736" lon="5.9513">
        <ele>1674.4</ele>
        <time>2021-10-07T04:01:29.590Z</time>
      </trkpt>
      <trkpt lat="46.27714" lon="5.95081">
        <ele>1673.4</ele>
        <time>2021-10-07T04:02:20.581Z</time>
      </trkpt>
      <trkpt lat="46.27654" lon="5.95046">
        <ele>1673.5</ele>
        <time>2021-10-07T04:03:41.862Z</time>
      </trkpt>
      <trkpt lat="46.27648" lon="5.95035">
        <ele>1673.3</ele>
        <time>2021-10-07T04:03:56.358Z</time>
      </trkpt>
      <trkpt lat="46.27643" lon="5.95014">
        <ele>1673.6</ele>
        <time>2021-10-07T04:04:18.524Z</time>
      </trkpt>
      <trkpt lat="46.2762" lon="5.94968">
        <ele>1672.7</ele>
        <time>2021-10-07T04:05:14.136Z</time>
      </trkpt>
      <trkpt lat="46.27605" lon="5.94859">
        <ele>1668.8</ele>
        <time>2021-10-07T04:07:11.514Z</time>
      </trkpt>
      <trkpt lat="46.27602" lon="5.94851">
        <ele>1669.1</ele>
        <time>2021-10-07T04:07:21.319Z</time>
      </trkpt>
      <trkpt lat="46.27596" lon="5.94824">
        <ele>1672.8</ele>
        <time>2021-10-07T04:07:46.783Z</time>
      </trkpt>
      <trkpt lat="46.27582" lon="5.94806">
        <ele>1676.1</ele>
        <time>2021-10-07T04:08:11.258Z</time>
      </trkpt>
      <trkpt lat="46.27579" lon="5.94795">
        <ele>1678.1</ele>
        <time>2021-10-07T04:08:22.167Z</time>
      </trkpt>
      <trkpt lat="46.27562" lon="5.94782">
        <ele>1682.3</ele>
        <time>2021-10-07T04:08:46.002Z</time>
      </trkpt>
      <trkpt lat="46.27554" lon="5.9478">
        <ele>1684</ele>
        <time>2021-10-07T04:08:57.884Z</time>
      </trkpt>
      <trkpt lat="46.27527" lon="5.94791">
        <ele>1686.7</ele>
        <time>2021-10-07T04:09:34.354Z</time>
      </trkpt>
      <trkpt lat="46.27508" lon="5.94779">
        <ele>1690.2</ele>
        <time>2021-10-07T04:10:02.322Z</time>
      </trkpt>
      <trkpt lat="46.27471" lon="5.9478">
        <ele>1696.7</ele>
        <time>2021-10-07T04:10:50.914Z</time>
      </trkpt>
      <trkpt lat="46.27437" lon="5.94721">
        <ele>1704.9</ele>
        <time>2021-10-07T04:11:55.202Z</time>
      </trkpt>
      <trkpt lat="46.27393" lon="5.94692">
        <ele>1710</ele>
        <time>2021-10-07T04:12:51.767Z</time>
      </trkpt>
      <trkpt lat="46.27369" lon="5.9466">
        <ele>1712</ele>
        <time>2021-10-07T04:13:28.474Z</time>
      </trkpt>
      <trkpt lat="46.27353" lon="5.9463">
        <ele>1710.2</ele>
        <time>2021-10-07T04:13:56.635Z</time>
      </trkpt>
      <trkpt lat="46.27302" lon="5.9462">
        <ele>1706.6</ele>
        <time>2021-10-07T04:14:50.494Z</time>
      </trkpt>
      <trkpt lat="46.2729" lon="5.9461">
        <ele>1704.1</ele>
        <time>2021-10-07T04:15:04.208Z</time>
      </trkpt>
      <trkpt lat="46.27294" lon="5.94579">
        <ele>1700.3</ele>
        <time>2021-10-07T04:15:26.547Z</time>
      </trkpt>
      <trkpt lat="46.27283" lon="5.94503">
        <ele>1703.9</ele>
        <time>2021-10-07T04:16:21.319Z</time>
      </trkpt>
      <trkpt lat="46.27261" lon="5.94445">
        <ele>1705.3</ele>
        <time>2021-10-07T04:17:07.534Z</time>
      </trkpt>
      <trkpt lat="46.27259" lon="5.94442">
        <ele>1705.3</ele>
        <time>2021-10-07T04:17:11.038Z</time>
      </trkpt>
      <trkpt lat="46.27258" lon="5.94435">
        <ele>1706.2</ele>
        <time>2021-10-07T04:17:15.789Z</time>
      </trkpt>
      <trkpt lat="46.2724" lon="5.94399">
        <ele>1705.9</ele>
        <time>2021-10-07T04:17:48.025Z</time>
      </trkpt>
      <trkpt lat="46.2723" lon="5.94351">
        <ele>1704.8</ele>
        <time>2021-10-07T04:18:23.450Z</time>
      </trkpt>
      <trkpt lat="46.27213" lon="5.94326">
        <ele>1701.6</ele>
        <time>2021-10-07T04:18:48.352Z</time>
      </trkpt>
      <trkpt lat="46.27197" lon="5.94312">
        <ele>1702.3</ele>
        <time>2021-10-07T04:19:07.443Z</time>
      </trkpt>
      <trkpt lat="46.27174" lon="5.94222">
        <ele>1702.9</ele>
        <time>2021-10-07T04:20:18.004Z</time>
      </trkpt>
      <trkpt lat="46.27134" lon="5.94136">
        <ele>1705.3</ele>
        <time>2021-10-07T04:21:32.110Z</time>
      </trkpt>
      <trkpt lat="46.27117" lon="5.94063">
        <ele>1709.3</ele>
        <time>2021-10-07T04:22:25.831Z</time>
      </trkpt>
      <trkpt lat="46.27112" lon="5.94058">
        <ele>1711.4</ele>
        <time>2021-10-07T04:22:33.455Z</time>
      </trkpt>
      <trkpt lat="46.2711" lon="5.94054">
        <ele>1711.8</ele>
        <time>2021-10-07T04:22:37.151Z</time>
      </trkpt>
      <trkpt lat="46.27107" lon="5.94051">
        <ele>1711.2</ele>
        <time>2021-10-07T04:22:42.513Z</time>
      </trkpt>
      <trkpt lat="46.27095" lon="5.94046">
        <ele>1709.1</ele>
        <time>2021-10-07T04:22:55.819Z</time>
      </trkpt>
      <trkpt lat="46.27107" lon="5.94051">
        <ele>1711.2</ele>
        <time>2021-10-07T04:23:09.226Z</time>
      </trkpt>
      <trkpt lat="46.2711" lon="5.94054">
        <ele>1711.8</ele>
        <time>2021-10-07T04:23:16.446Z</time>
      </trkpt>
      <trkpt lat="46.27112" lon="5.94058">
        <ele>1711.4</ele>
        <time>2021-10-07T04:23:19.884Z</time>
      </trkpt>
      <trkpt lat="46.27117" lon="5.94063">
        <ele>1709.3</ele>
        <time>2021-10-07T04:23:26.779Z</time>
      </trkpt>
      <trkpt lat="46.27134" lon="5.94136">
        <ele>1705.3</ele>
        <time>2021-10-07T04:24:20.984Z</time>
      </trkpt>
      <trkpt lat="46.27174" lon="5.94222">
        <ele>1702.9</ele>
        <time>2021-10-07T04:25:36.573Z</time>
      </trkpt>
      <trkpt lat="46.27197" lon="5.94312">
        <ele>1702.3</ele>
        <time>2021-10-07T04:26:49.825Z</time>
      </trkpt>
      <trkpt lat="46.27213" lon="5.94326">
        <ele>1701.6</ele>
        <time>2021-10-07T04:27:09.296Z</time>
      </trkpt>
      <trkpt lat="46.2723" lon="5.94351">
        <ele>1704.8</ele>
        <time>2021-10-07T04:27:34.748Z</time>
      </trkpt>
      <trkpt lat="46.2724" lon="5.94399">
        <ele>1705.9</ele>
        <time>2021-10-07T04:28:10.982Z</time>
      </trkpt>
      <trkpt lat="46.27258" lon="5.94435">
        <ele>1706.2</ele>
        <time>2021-10-07T04:28:43.857Z</time>
      </trkpt>
      <trkpt lat="46.27259" lon="5.94442">
        <ele>1705.3</ele>
        <time>2021-10-07T04:28:48.714Z</time>
      </trkpt>
      <trkpt lat="46.27261" lon="5.94445">
        <ele>1705.3</ele>
        <time>2021-10-07T04:28:52.166Z</time>
      </trkpt>
      <trkpt lat="46.27283" lon="5.94503">
        <ele>1703.9</ele>
        <time>2021-10-07T04:29:39.186Z</time>
      </trkpt>
      <trkpt lat="46.27294" lon="5.94579">
        <ele>1700.3</ele>
        <time>2021-10-07T04:30:34.420Z</time>
      </trkpt>
      <trkpt lat="46.2729" lon="5.9461">
        <ele>1704.1</ele>
        <time>2021-10-07T04:30:56.666Z</time>
      </trkpt>
      <trkpt lat="46.27302" lon="5.9462">
        <ele>1706.6</ele>
        <time>2021-10-07T04:31:10.378Z</time>
      </trkpt>
      <trkpt lat="46.27353" lon="5.9463">
        <ele>1710.2</ele>
        <time>2021-10-07T04:32:03.416Z</time>
      </trkpt>
      <trkpt lat="46.27369" lon="5.9466">
        <ele>1712</ele>
        <time>2021-10-07T04:32:30.734Z</time>
      </trkpt>
      <trkpt lat="46.27393" lon="5.94692">
        <ele>1710</ele>
        <time>2021-10-07T04:33:05.892Z</time>
      </trkpt>
      <trkpt lat="46.27437" lon="5.94721">
        <ele>1704.9</ele>
        <time>2021-10-07T04:33:59.182Z</time>
      </trkpt>
      <trkpt lat="46.27471" lon="5.9478">
        <ele>1696.7</ele>
        <time>2021-10-07T04:34:58.619Z</time>
      </trkpt>
      <trkpt lat="46.27508" lon="5.94779">
        <ele>1690.2</ele>
        <time>2021-10-07T04:35:42.399Z</time>
      </trkpt>
      <trkpt lat="46.27527" lon="5.94791">
        <ele>1686.7</ele>
        <time>2021-10-07T04:36:07.392Z</time>
      </trkpt>
      <trkpt lat="46.27554" lon="5.9478">
        <ele>1684</ele>
        <time>2021-10-07T04:36:40.369Z</time>
      </trkpt>
      <trkpt lat="46.27562" lon="5.94782">
        <ele>1682.3</ele>
        <time>2021-10-07T04:36:51.050Z</time>
      </trkpt>
      <trkpt lat="46.27579" lon="5.94795">
        <ele>1678.1</ele>
        <time>2021-10-07T04:37:12.771Z</time>
      </trkpt>
      <trkpt lat="46.27582" lon="5.94806">
        <ele>1676.1</ele>
        <time>2021-10-07T04:37:22.526Z</time>
      </trkpt>
      <trkpt lat="46.27596" lon="5.94824">
        <ele>1672.8</ele>
        <time>2021-10-07T04:37:44.968Z</time>
      </trkpt>
      <trkpt lat="46.27602" lon="5.94851">
        <ele>1669.1</ele>
        <time>2021-10-07T04:38:07.894Z</time>
      </trkpt>
      <trkpt lat="46.27605" lon="5.94859">
        <ele>1668.8</ele>
        <time>2021-10-07T04:38:16.809Z</time>
      </trkpt>
      <trkpt lat="46.2762" lon="5.94968">
        <ele>1672.7</ele>
        <time>2021-10-07T04:40:05.544Z</time>
      </trkpt>
      <trkpt lat="46.27643" lon="5.95014">
        <ele>1673.6</ele>
        <time>2021-10-07T04:40:58.045Z</time>
      </trkpt>
      <trkpt lat="46.27648" lon="5.95035">
        <ele>1673.3</ele>
        <time>2021-10-07T04:41:19.033Z</time>
      </trkpt>
      <trkpt lat="46.27654" lon="5.95046">
        <ele>1673.5</ele>
        <time>2021-10-07T04:41:32.690Z</time>
      </trkpt>
      <trkpt lat="46.27714" lon="5.95081">
        <ele>1673.4</ele>
        <time>2021-10-07T04:42:53.784Z</time>
      </trkpt>
      <trkpt lat="46.27736" lon="5.9513">
        <ele>1674.4</ele>
        <time>2021-10-07T04:43:44.326Z</time>
      </trkpt>
      <trkpt lat="46.27777" lon="5.95187">
        <ele>1682</ele>
        <time>2021-10-07T04:44:57.909Z</time>
      </trkpt>
      <trkpt lat="46.2778" lon="5.95181">
        <ele>1681.3</ele>
        <time>2021-10-07T04:45:03.378Z</time>
      </trkpt>
      <trkpt lat="46.27799" lon="5.95178">
        <ele>1678.4</ele>
        <time>2021-10-07T04:45:23.236Z</time>
      </trkpt>
      <trkpt lat="46.27809" lon="5.95159">
        <ele>1673.2</ele>
        <time>2021-10-07T04:45:40.334Z</time>
      </trkpt>
      <trkpt lat="46.27834" lon="5.95151">
        <ele>1670.1</ele>
        <time>2021-10-07T04:46:08.511Z</time>
      </trkpt>
      <trkpt lat="46.27843" lon="5.95154">
        <ele>1670.2</ele>
        <time>2021-10-07T04:46:17.319Z</time>
      </trkpt>
      <trkpt lat="46.27858" lon="5.95141">
        <ele>1665.7</ele>
        <time>2021-10-07T04:46:37.017Z</time>
      </trkpt>
      <trkpt lat="46.27872" lon="5.95138">
        <ele>1665.2</ele>
        <time>2021-10-07T04:46:52.896Z</time>
      </trkpt>
      <trkpt lat="46.27889" lon="5.95107">
        <ele>1657.8</ele>
        <time>2021-10-07T04:47:24.028Z</time>
      </trkpt>
      <trkpt lat="46.27932" lon="5.95071">
        <ele>1643.9</ele>
        <time>2021-10-07T04:48:21.320Z</time>
      </trkpt>
      <trkpt lat="46.27953" lon="5.95075">
        <ele>1640.2</ele>
        <time>2021-10-07T04:48:46.127Z</time>
      </trkpt>
      <trkpt lat="46.27956" lon="5.95085">
        <ele>1641.4</ele>
        <time>2021-10-07T04:48:54.692Z</time>
      </trkpt>
      <trkpt lat="46.27964" lon="5.95088">
        <ele>1640</ele>
        <time>2021-10-07T04:49:04.156Z</time>
      </trkpt>
      <trkpt lat="46.27972" lon="5.95079">
        <ele>1636.8</ele>
        <time>2021-10-07T04:49:15.703Z</time>
      </trkpt>
      <trkpt lat="46.27971" lon="5.95067">
        <ele>1633.2</ele>
        <time>2021-10-07T04:49:25.848Z</time>
      </trkpt>
      <trkpt lat="46.27983" lon="5.95061">
        <ele>1630.1</ele>
        <time>2021-10-07T04:49:41.363Z</time>
      </trkpt>
      <trkpt lat="46.28005" lon="5.9506">
        <ele>1628.2</ele>
        <time>2021-10-07T04:50:06.894Z</time>
      </trkpt>
      <trkpt lat="46.28012" lon="5.95053">
        <ele>1625.7</ele>
        <time>2021-10-07T04:50:16.910Z</time>
      </trkpt>
      <trkpt lat="46.28033" lon="5.95053">
        <ele>1623.2</ele>
        <time>2021-10-07T04:50:42.476Z</time>
      </trkpt>
      <trkpt lat="46.2805" lon="5.95064">
        <ele>1623.8</ele>
        <time>2021-10-07T04:51:04.792Z</time>
      </trkpt>
      <trkpt lat="46.28094" lon="5.95108">
        <ele>1625.8</ele>
        <time>2021-10-07T04:52:10.925Z</time>
      </trkpt>
      <trkpt lat="46.28116" lon="5.95103">
        <ele>1624.3</ele>
        <time>2021-10-07T04:52:37.196Z</time>
      </trkpt>
      <trkpt lat="46.28144" lon="5.95071">
        <ele>1617.2</ele>
        <time>2021-10-07T04:53:20.407Z</time>
      </trkpt>
      <trkpt lat="46.28148" lon="5.95068">
        <ele>1616</ele>
        <time>2021-10-07T04:53:27.822Z</time>
      </trkpt>
      <trkpt lat="46.28162" lon="5.95064">
        <ele>1614.1</ele>
        <time>2021-10-07T04:53:44.377Z</time>
      </trkpt>
      <trkpt lat="46.28195" lon="5.95078">
        <ele>1614.9</ele>
        <time>2021-10-07T04:54:25.122Z</time>
      </trkpt>
      <trkpt lat="46.28285" lon="5.95034">
        <ele>1606.1</ele>
        <time>2021-10-07T04:56:19.731Z</time>
      </trkpt>
      <trkpt lat="46.28302" lon="5.95034">
        <ele>1603.7</ele>
        <time>2021-10-07T04:56:40.288Z</time>
      </trkpt>
      <trkpt lat="46.28316" lon="5.95026">
        <ele>1598.8</ele>
        <time>2021-10-07T04:56:57.826Z</time>
      </trkpt>
      <trkpt lat="46.28332" lon="5.95033">
        <ele>1595</ele>
        <time>2021-10-07T04:57:17.545Z</time>
      </trkpt>
      <trkpt lat="46.28353" lon="5.95057">
        <ele>1589.3</ele>
        <time>2021-10-07T04:57:49.249Z</time>
      </trkpt>
      <trkpt lat="46.28353" lon="5.95066">
        <ele>1589.4</ele>
        <time>2021-10-07T04:57:56.578Z</time>
      </trkpt>
      <trkpt lat="46.28366" lon="5.95084">
        <ele>1584.7</ele>
        <time>2021-10-07T04:58:17.323Z</time>
      </trkpt>
      <trkpt lat="46.28372" lon="5.95127">
        <ele>1582.1</ele>
        <time>2021-10-07T04:58:53.107Z</time>
      </trkpt>
      <trkpt lat="46.28381" lon="5.95147">
        <ele>1575.4</ele>
        <time>2021-10-07T04:59:13.296Z</time>
      </trkpt>
      <trkpt lat="46.28381" lon="5.95212">
        <ele>1571.4</ele>
        <time>2021-10-07T05:00:08.876Z</time>
      </trkpt>
      <trkpt lat="46.2839" lon="5.95246">
        <ele>1566</ele>
        <time>2021-10-07T05:00:40.922Z</time>
      </trkpt>
      <trkpt lat="46.28457" lon="5.9528">
        <ele>1569.7</ele>
        <time>2021-10-07T05:02:11.506Z</time>
      </trkpt>
      <trkpt lat="46.28475" lon="5.95295">
        <ele>1568.9</ele>
        <time>2021-10-07T05:02:37.166Z</time>
      </trkpt>
      <trkpt lat="46.28479" lon="5.95301">
        <ele>1568.8</ele>
        <time>2021-10-07T05:02:46.405Z</time>
      </trkpt>
      <trkpt lat="46.28493" lon="5.9531">
        <ele>1566.1</ele>
        <time>2021-10-07T05:03:06.476Z</time>
      </trkpt>
      <trkpt lat="46.285" lon="5.95308">
        <ele>1563.9</ele>
        <time>2021-10-07T05:03:16.330Z</time>
      </trkpt>
      <trkpt lat="46.28511" lon="5.95316">
        <ele>1560.4</ele>
        <time>2021-10-07T05:03:32.440Z</time>
      </trkpt>
      <trkpt lat="46.2852" lon="5.95338">
        <ele>1557.7</ele>
        <time>2021-10-07T05:03:56.784Z</time>
      </trkpt>
      <trkpt lat="46.28527" lon="5.95343">
        <ele>1555.6</ele>
        <time>2021-10-07T05:04:05.968Z</time>
      </trkpt>
      <trkpt lat="46.28552" lon="5.95343">
        <ele>1550.2</ele>
        <time>2021-10-07T05:04:40.294Z</time>
      </trkpt>
      <trkpt lat="46.28573" lon="5.95312">
        <ele>1543.2</ele>
        <time>2021-10-07T05:05:20.929Z</time>
      </trkpt>
      <trkpt lat="46.28599" lon="5.95311">
        <ele>1533</ele>
        <time>2021-10-07T05:05:55.429Z</time>
      </trkpt>
      <trkpt lat="46.28615" lon="5.95288">
        <ele>1525.8</ele>
        <time>2021-10-07T05:06:26.746Z</time>
      </trkpt>
      <trkpt lat="46.28629" lon="5.9529">
        <ele>1519.5</ele>
        <time>2021-10-07T05:06:44.931Z</time>
      </trkpt>
      <trkpt lat="46.28641" lon="5.95278">
        <ele>1513.6</ele>
        <time>2021-10-07T05:07:03.892Z</time>
      </trkpt>
      <trkpt lat="46.28633" lon="5.95239">
        <ele>1507.8</ele>
        <time>2021-10-07T05:07:43.564Z</time>
      </trkpt>
      <trkpt lat="46.28622" lon="5.95217">
        <ele>1505.3</ele>
        <time>2021-10-07T05:08:12.015Z</time>
      </trkpt>
      <trkpt lat="46.28592" lon="5.95167">
        <ele>1498.1</ele>
        <time>2021-10-07T05:09:12.587Z</time>
      </trkpt>
      <trkpt lat="46.28579" lon="5.95154">
        <ele>1499.6</ele>
        <time>2021-10-07T05:09:33.135Z</time>
      </trkpt>
      <trkpt lat="46.28565" lon="5.95119">
        <ele>1494</ele>
        <time>2021-10-07T05:10:09.926Z</time>
      </trkpt>
      <trkpt lat="46.28565" lon="5.95108">
        <ele>1491</ele>
        <time>2021-10-07T05:10:19.988Z</time>
      </trkpt>
      <trkpt lat="46.28568" lon="5.95106">
        <ele>1489.8</ele>
        <time>2021-10-07T05:10:29.358Z</time>
      </trkpt>
      <trkpt lat="46.28596" lon="5.95091">
        <ele>1484.3</ele>
        <time>2021-10-07T05:11:06.543Z</time>
      </trkpt>
      <trkpt lat="46.28635" lon="5.9509">
        <ele>1479.8</ele>
        <time>2021-10-07T05:11:58.669Z</time>
      </trkpt>
      <trkpt lat="46.28647" lon="5.9508">
        <ele>1481.9</ele>
        <time>2021-10-07T05:12:18.661Z</time>
      </trkpt>
      <trkpt lat="46.28657" lon="5.95082">
        <ele>1482.5</ele>
        <time>2021-10-07T05:12:30.956Z</time>
      </trkpt>
      <trkpt lat="46.28686" lon="5.95115">
        <ele>1478.4</ele>
        <time>2021-10-07T05:13:18.467Z</time>
      </trkpt>
      <trkpt lat="46.287" lon="5.95148">
        <ele>1474</ele>
        <time>2021-10-07T05:13:53.793Z</time>
      </trkpt>
      <trkpt lat="46.28718" lon="5.95165">
        <ele>1473.6</ele>
        <time>2021-10-07T05:14:19.420Z</time>
      </trkpt>
      <trkpt lat="46.28733" lon="5.95169">
        <ele>1473.7</ele>
        <time>2021-10-07T05:14:37.559Z</time>
      </trkpt>
      <trkpt lat="46.28752" lon="5.95161">
        <ele>1474</ele>
        <time>2021-10-07T05:15:00.913Z</time>
      </trkpt>
      <trkpt lat="46.28774" lon="5.95142">
        <ele>1477</ele>
        <time>2021-10-07T05:15:30.821Z</time>
      </trkpt>
      <trkpt lat="46.28813" lon="5.95194">
        <ele>1480.3</ele>
        <time>2021-10-07T05:16:33.467Z</time>
      </trkpt>
      <trkpt lat="46.28836" lon="5.95199">
        <ele>1479.8</ele>
        <time>2021-10-07T05:16:59.964Z</time>
      </trkpt>
      <trkpt lat="46.2886" lon="5.95216">
        <ele>1477.5</ele>
        <time>2021-10-07T05:17:29.540Z</time>
      </trkpt>
      <trkpt lat="46.28876" lon="5.95216">
        <ele>1474.8</ele>
        <time>2021-10-07T05:17:49.262Z</time>
      </trkpt>
      <trkpt lat="46.28884" lon="5.95196">
        <ele>1472.1</ele>
        <time>2021-10-07T05:18:06.112Z</time>
      </trkpt>
      <trkpt lat="46.28888" lon="5.95185">
        <ele>1470.5</ele>
        <time>2021-10-07T05:18:16.191Z</time>
      </trkpt>
      <trkpt lat="46.28897" lon="5.9518">
        <ele>1468.7</ele>
        <time>2021-10-07T05:18:28.167Z</time>
      </trkpt>
      <trkpt lat="46.28907" lon="5.95196">
        <ele>1468.5</ele>
        <time>2021-10-07T05:18:43.752Z</time>
      </trkpt>
      <trkpt lat="46.28944" lon="5.95219">
        <ele>1461.9</ele>
        <time>2021-10-07T05:19:29.815Z</time>
      </trkpt>
      <trkpt lat="46.28959" lon="5.95231">
        <ele>1459.4</ele>
        <time>2021-10-07T05:19:49.551Z</time>
      </trkpt>
      <trkpt lat="46.28989" lon="5.95285">
        <ele>1455.5</ele>
        <time>2021-10-07T05:20:44.102Z</time>
      </trkpt>
      <trkpt lat="46.29013" lon="5.953">
        <ele>1451.4</ele>
        <time>2021-10-07T05:21:14.307Z</time>
      </trkpt>
      <trkpt lat="46.29066" lon="5.95359">
        <ele>1445.5</ele>
        <time>2021-10-07T05:22:29.999Z</time>
      </trkpt>
      <trkpt lat="46.29079" lon="5.95367">
        <ele>1445.2</ele>
        <time>2021-10-07T05:22:46.790Z</time>
      </trkpt>
      <trkpt lat="46.29107" lon="5.95368">
        <ele>1445.4</ele>
        <time>2021-10-07T05:23:17.773Z</time>
      </trkpt>
      <trkpt lat="46.29152" lon="5.95389">
        <ele>1441.1</ele>
        <time>2021-10-07T05:24:10.895Z</time>
      </trkpt>
      <trkpt lat="46.29181" lon="5.95392">
        <ele>1439.2</ele>
        <time>2021-10-07T05:24:44.677Z</time>
      </trkpt>
      <trkpt lat="46.29222" lon="5.95427">
        <ele>1435.8</ele>
        <time>2021-10-07T05:25:41.036Z</time>
      </trkpt>
      <trkpt lat="46.2924" lon="5.95467">
        <ele>1435.2</ele>
        <time>2021-10-07T05:26:19.903Z</time>
      </trkpt>
      <trkpt lat="46.29272" lon="5.95481">
        <ele>1433</ele>
        <time>2021-10-07T05:27:00.631Z</time>
      </trkpt>
      <trkpt lat="46.29284" lon="5.9548">
        <ele>1432.6</ele>
        <time>2021-10-07T05:27:15.369Z</time>
      </trkpt>
      <trkpt lat="46.29292" lon="5.95481">
        <ele>1432.3</ele>
        <time>2021-10-07T05:27:26.998Z</time>
      </trkpt>
      <trkpt lat="46.29315" lon="5.95483">
        <ele>1431.1</ele>
        <time>2021-10-07T05:27:53.660Z</time>
      </trkpt>
      <trkpt lat="46.29328" lon="5.95482">
        <ele>1430.1</ele>
        <time>2021-10-07T05:28:11.168Z</time>
      </trkpt>
      <trkpt lat="46.29353" lon="5.95493">
        <ele>1425.5</ele>
        <time>2021-10-07T05:28:43.176Z</time>
      </trkpt>
      <trkpt lat="46.29363" lon="5.95499">
        <ele>1423.6</ele>
        <time>2021-10-07T05:28:58.078Z</time>
      </trkpt>
      <trkpt lat="46.29374" lon="5.9552">
        <ele>1421.5</ele>
        <time>2021-10-07T05:29:19.469Z</time>
      </trkpt>
      <trkpt lat="46.29376" lon="5.95527">
        <ele>1421.3</ele>
        <time>2021-10-07T05:29:27.216Z</time>
      </trkpt>
      <trkpt lat="46.29378" lon="5.95534">
        <ele>1420.7</ele>
        <time>2021-10-07T05:29:33.542Z</time>
      </trkpt>
      <trkpt lat="46.29385" lon="5.95532">
        <ele>1419.7</ele>
        <time>2021-10-07T05:29:44.149Z</time>
      </trkpt>
      <trkpt lat="46.29429" lon="5.95538">
        <ele>1411.7</ele>
        <time>2021-10-07T05:30:39.342Z</time>
      </trkpt>
      <trkpt lat="46.29437" lon="5.9555">
        <ele>1411.3</ele>
        <time>2021-10-07T05:30:53.004Z</time>
      </trkpt>
      <trkpt lat="46.2947" lon="5.95566">
        <ele>1405.8</ele>
        <time>2021-10-07T05:31:37.274Z</time>
      </trkpt>
      <trkpt lat="46.29512" lon="5.95614">
        <ele>1390.9</ele>
        <time>2021-10-07T05:32:45.606Z</time>
      </trkpt>
      <trkpt lat="46.29521" lon="5.95633">
        <ele>1387.3</ele>
        <time>2021-10-07T05:33:05.899Z</time>
      </trkpt>
      <trkpt lat="46.29543" lon="5.95627">
        <ele>1383.3</ele>
        <time>2021-10-07T05:33:34.502Z</time>
      </trkpt>
      <trkpt lat="46.29554" lon="5.95637">
        <ele>1382.1</ele>
        <time>2021-10-07T05:33:51.826Z</time>
      </trkpt>
      <trkpt lat="46.29556" lon="5.95648">
        <ele>1382.1</ele>
        <time>2021-10-07T05:34:01.061Z</time>
      </trkpt>
      <trkpt lat="46.29579" lon="5.95681">
        <ele>1375.2</ele>
        <time>2021-10-07T05:34:42.991Z</time>
      </trkpt>
      <trkpt lat="46.29618" lon="5.95715">
        <ele>1365.6</ele>
        <time>2021-10-07T05:35:43.031Z</time>
      </trkpt>
      <trkpt lat="46.29624" lon="5.95708">
        <ele>1364.3</ele>
        <time>2021-10-07T05:35:58.375Z</time>
      </trkpt>
      <trkpt lat="46.29628" lon="5.95702">
        <ele>1363.2</ele>
        <time>2021-10-07T05:36:11.914Z</time>
      </trkpt>
      <trkpt lat="46.29634" lon="5.95666">
        <ele>1357.4</ele>
        <time>2021-10-07T05:36:43.117Z</time>
      </trkpt>
      <trkpt lat="46.29636" lon="5.95658">
        <ele>1356.7</ele>
        <time>2021-10-07T05:36:55.455Z</time>
      </trkpt>
      <trkpt lat="46.29641" lon="5.95657">
        <ele>1355.8</ele>
        <time>2021-10-07T05:37:05.475Z</time>
      </trkpt>
      <trkpt lat="46.29664" lon="5.95644">
        <ele>1351.1</ele>
        <time>2021-10-07T05:37:35.423Z</time>
      </trkpt>
      <trkpt lat="46.2969" lon="5.95615">
        <ele>1344.3</ele>
        <time>2021-10-07T05:38:21.895Z</time>
      </trkpt>
      <trkpt lat="46.29697" lon="5.95609">
        <ele>1342.3</ele>
        <time>2021-10-07T05:38:39.567Z</time>
      </trkpt>
      <trkpt lat="46.29701" lon="5.95612">
        <ele>1341.6</ele>
        <time>2021-10-07T05:38:49.615Z</time>
      </trkpt>
      <trkpt lat="46.29716" lon="5.95613">
        <ele>1338.5</ele>
        <time>2021-10-07T05:39:08.885Z</time>
      </trkpt>
      <trkpt lat="46.29727" lon="5.95614">
        <ele>1336.5</ele>
        <time>2021-10-07T05:39:22.897Z</time>
      </trkpt>
      <trkpt lat="46.29739" lon="5.95616">
        <ele>1334.8</ele>
        <time>2021-10-07T05:39:48.829Z</time>
      </trkpt>
      <trkpt lat="46.29785" lon="5.95616">
        <ele>1327.2</ele>
        <time>2021-10-07T05:40:50.240Z</time>
      </trkpt>
      <trkpt lat="46.29795" lon="5.95599">
        <ele>1324.1</ele>
        <time>2021-10-07T05:41:08.892Z</time>
      </trkpt>
      <trkpt lat="46.29796" lon="5.95598">
        <ele>1323.8</ele>
        <time>2021-10-07T05:41:11.265Z</time>
      </trkpt>
      <trkpt lat="46.29795" lon="5.95583">
        <ele>1322.8</ele>
        <time>2021-10-07T05:41:28.070Z</time>
      </trkpt>
      <trkpt lat="46.29793" lon="5.95555">
        <ele>1319.8</ele>
        <time>2021-10-07T05:41:51.270Z</time>
      </trkpt>
      <trkpt lat="46.29791" lon="5.95534">
        <ele>1317.8</ele>
        <time>2021-10-07T05:42:14.708Z</time>
      </trkpt>
      <trkpt lat="46.29792" lon="5.95523">
        <ele>1316.4</ele>
        <time>2021-10-07T05:42:25.241Z</time>
      </trkpt>
      <trkpt lat="46.29798" lon="5.95436">
        <ele>1306.4</ele>
        <time>2021-10-07T05:43:40.616Z</time>
      </trkpt>
      <trkpt lat="46.29805" lon="5.95401">
        <ele>1301.3</ele>
        <time>2021-10-07T05:44:12.653Z</time>
      </trkpt>
      <trkpt lat="46.29803" lon="5.95351">
        <ele>1295</ele>
        <time>2021-10-07T05:44:56.185Z</time>
      </trkpt>
      <trkpt lat="46.2978" lon="5.95277">
        <ele>1287.6</ele>
        <time>2021-10-07T05:46:04.403Z</time>
      </trkpt>
      <trkpt lat="46.29758" lon="5.95131">
        <ele>1269.3</ele>
        <time>2021-10-07T05:48:09.496Z</time>
      </trkpt>
      <trkpt lat="46.29729" lon="5.95047">
        <ele>1259</ele>
        <time>2021-10-07T05:49:30.087Z</time>
      </trkpt>
      <trkpt lat="46.2972" lon="5.94988">
        <ele>1249.9</ele>
        <time>2021-10-07T05:50:22.367Z</time>
      </trkpt>
      <trkpt lat="46.29711" lon="5.94969">
        <ele>1247.4</ele>
        <time>2021-10-07T05:50:41.649Z</time>
      </trkpt>
      <trkpt lat="46.29706" lon="5.94955">
        <ele>1245.6</ele>
        <time>2021-10-07T05:50:56.022Z</time>
      </trkpt>
      <trkpt lat="46.29697" lon="5.94924">
        <ele>1241</ele>
        <time>2021-10-07T05:51:26.432Z</time>
      </trkpt>
      <trkpt lat="46.2969" lon="5.94899">
        <ele>1237.3</ele>
        <time>2021-10-07T05:51:49.751Z</time>
      </trkpt>
      <trkpt lat="46.29682" lon="5.94876">
        <ele>1234.8</ele>
        <time>2021-10-07T05:52:16.408Z</time>
      </trkpt>
      <trkpt lat="46.29667" lon="5.94816">
        <ele>1229.4</ele>
        <time>2021-10-07T05:53:13.768Z</time>
      </trkpt>
      <trkpt lat="46.29659" lon="5.94747">
        <ele>1221.3</ele>
        <time>2021-10-07T05:54:22.381Z</time>
      </trkpt>
      <trkpt lat="46.29661" lon="5.94741">
        <ele>1220.1</ele>
        <time>2021-10-07T05:54:31.540Z</time>
      </trkpt>
      <trkpt lat="46.29666" lon="5.94739">
        <ele>1218.5</ele>
        <time>2021-10-07T05:54:39.454Z</time>
      </trkpt>
      <trkpt lat="46.29671" lon="5.94741">
        <ele>1217.6</ele>
        <time>2021-10-07T05:54:46.109Z</time>
      </trkpt>
      <trkpt lat="46.29678" lon="5.94748">
        <ele>1216.8</ele>
        <time>2021-10-07T05:54:56.835Z</time>
      </trkpt>
      <trkpt lat="46.29696" lon="5.94734">
        <ele>1210.1</ele>
        <time>2021-10-07T05:55:28.523Z</time>
      </trkpt>
      <trkpt lat="46.29706" lon="5.9473">
        <ele>1206.6</ele>
        <time>2021-10-07T05:55:41.858Z</time>
      </trkpt>
      <trkpt lat="46.2971" lon="5.94718">
        <ele>1203.9</ele>
        <time>2021-10-07T05:55:53.793Z</time>
      </trkpt>
      <trkpt lat="46.29705" lon="5.94696">
        <ele>1202.4</ele>
        <time>2021-10-07T05:56:17.527Z</time>
      </trkpt>
      <trkpt lat="46.29685" lon="5.94636">
        <ele>1196.4</ele>
        <time>2021-10-07T05:57:21.600Z</time>
      </trkpt>
      <trkpt lat="46.29679" lon="5.94589">
        <ele>1187.1</ele>
        <time>2021-10-07T05:58:25.368Z</time>
      </trkpt>
      <trkpt lat="46.29665" lon="5.94542">
        <ele>1179.3</ele>
        <time>2021-10-07T05:59:30.876Z</time>
      </trkpt>
      <trkpt lat="46.29636" lon="5.9449">
        <ele>1172.2</ele>
        <time>2021-10-07T06:00:50.701Z</time>
      </trkpt>
      <trkpt lat="46.29608" lon="5.94381">
        <ele>1155.2</ele>
        <time>2021-10-07T06:02:53.386Z</time>
      </trkpt>
      <trkpt lat="46.29587" lon="5.94323">
        <ele>1139.8</ele>
        <time>2021-10-07T06:04:13.574Z</time>
      </trkpt>
      <trkpt lat="46.29597" lon="5.94324">
        <ele>1137.3</ele>
        <time>2021-10-07T06:04:32.477Z</time>
      </trkpt>
      <trkpt lat="46.296" lon="5.94312">
        <ele>1131.8</ele>
        <time>2021-10-07T06:04:44.492Z</time>
      </trkpt>
      <trkpt lat="46.29624" lon="5.94299">
        <ele>1120.8</ele>
        <time>2021-10-07T06:05:36.018Z</time>
      </trkpt>
      <trkpt lat="46.29615" lon="5.94279">
        <ele>1115.9</ele>
        <time>2021-10-07T06:06:00.073Z</time>
      </trkpt>
      <trkpt lat="46.2962" lon="5.94275">
        <ele>1114</ele>
        <time>2021-10-07T06:06:09.260Z</time>
      </trkpt>
      <trkpt lat="46.29617" lon="5.94266">
        <ele>1112.2</ele>
        <time>2021-10-07T06:06:26.329Z</time>
      </trkpt>
      <trkpt lat="46.29591" lon="5.94224">
        <ele>1102.7</ele>
        <time>2021-10-07T06:07:51.740Z</time>
      </trkpt>
      <trkpt lat="46.29587" lon="5.94219">
        <ele>1101.4</ele>
        <time>2021-10-07T06:08:02.656Z</time>
      </trkpt>
      <trkpt lat="46.29577" lon="5.94207">
        <ele>1098.6</ele>
        <time>2021-10-07T06:08:24.069Z</time>
      </trkpt>
      <trkpt lat="46.29571" lon="5.94194">
        <ele>1093.9</ele>
        <time>2021-10-07T06:08:51.566Z</time>
      </trkpt>
      <trkpt lat="46.29578" lon="5.94183">
        <ele>1087.6</ele>
        <time>2021-10-07T06:09:17.901Z</time>
      </trkpt>
      <trkpt lat="46.29625" lon="5.94178">
        <ele>1073.7</ele>
        <time>2021-10-07T06:10:53.368Z</time>
      </trkpt>
      <trkpt lat="46.29668" lon="5.94188">
        <ele>1061.3</ele>
        <time>2021-10-07T06:12:24.407Z</time>
      </trkpt>
      <trkpt lat="46.29714" lon="5.94214">
        <ele>1051.3</ele>
        <time>2021-10-07T06:14:00.807Z</time>
      </trkpt>
      <trkpt lat="46.29746" lon="5.94213">
        <ele>1039.1</ele>
        <time>2021-10-07T06:14:53.965Z</time>
      </trkpt>
      <trkpt lat="46.29762" lon="5.94227">
        <ele>1036.5</ele>
        <time>2021-10-07T06:15:24.544Z</time>
      </trkpt>
      <trkpt lat="46.29787" lon="5.94259">
        <ele>1031.8</ele>
        <time>2021-10-07T06:16:20.844Z</time>
      </trkpt>
      <trkpt lat="46.29898" lon="5.9433">
        <ele>1014.4</ele>
        <time>2021-10-07T06:20:01.285Z</time>
      </trkpt>
      <trkpt lat="46.29915" lon="5.94338">
        <ele>1011.8</ele>
        <time>2021-10-07T06:20:32.123Z</time>
      </trkpt>
      <trkpt lat="46.29919" lon="5.94347">
        <ele>1012.8</ele>
        <time>2021-10-07T06:20:41.379Z</time>
      </trkpt>
      <trkpt lat="46.29926" lon="5.94349">
        <ele>1011.6</ele>
        <time>2021-10-07T06:20:56.236Z</time>
      </trkpt>
      <trkpt lat="46.29957" lon="5.94352">
        <ele>1004.4</ele>
        <time>2021-10-07T06:21:51.617Z</time>
      </trkpt>
      <trkpt lat="46.29978" lon="5.94377">
        <ele>1004.5</ele>
        <time>2021-10-07T06:22:42.552Z</time>
      </trkpt>
      <trkpt lat="46.2999" lon="5.94377">
        <ele>1002.4</ele>
        <time>2021-10-07T06:23:08.523Z</time>
      </trkpt>
      <trkpt lat="46.29998" lon="5.9437">
        <ele>999.8</ele>
        <time>2021-10-07T06:23:31.626Z</time>
      </trkpt>
      <trkpt lat="46.30029" lon="5.94365">
        <ele>992.6</ele>
        <time>2021-10-07T06:24:34.253Z</time>
      </trkpt>
      <trkpt lat="46.30037" lon="5.94348">
        <ele>985.6</ele>
        <time>2021-10-07T06:25:04.099Z</time>
      </trkpt>
      <trkpt lat="46.30031" lon="5.94325">
        <ele>980.7</ele>
        <time>2021-10-07T06:25:36.942Z</time>
      </trkpt>
      <trkpt lat="46.30001" lon="5.94287">
        <ele>972.1</ele>
        <time>2021-10-07T06:27:03.347Z</time>
      </trkpt>
      <trkpt lat="46.29995" lon="5.94261">
        <ele>966.5</ele>
        <time>2021-10-07T06:27:47.797Z</time>
      </trkpt>
      <trkpt lat="46.29994" lon="5.94248">
        <ele>963.5</ele>
        <time>2021-10-07T06:28:08.781Z</time>
      </trkpt>
      <trkpt lat="46.29999" lon="5.94247">
        <ele>962.2</ele>
        <time>2021-10-07T06:28:18.343Z</time>
      </trkpt>
      <trkpt lat="46.30005" lon="5.94245">
        <ele>960.5</ele>
        <time>2021-10-07T06:28:28.725Z</time>
      </trkpt>
      <trkpt lat="46.30011" lon="5.94245">
        <ele>958.9</ele>
        <time>2021-10-07T06:28:49.209Z</time>
      </trkpt>
      <trkpt lat="46.30037" lon="5.94256">
        <ele>955.7</ele>
        <time>2021-10-07T06:29:42.493Z</time>
      </trkpt>
      <trkpt lat="46.30075" lon="5.94246">
        <ele>945.7</ele>
        <time>2021-10-07T06:31:13.243Z</time>
      </trkpt>
      <trkpt lat="46.30082" lon="5.94247">
        <ele>944.6</ele>
        <time>2021-10-07T06:31:39.514Z</time>
      </trkpt>
      <trkpt lat="46.30104" lon="5.94209">
        <ele>932.2</ele>
        <time>2021-10-07T06:32:39.292Z</time>
      </trkpt>
      <trkpt lat="46.30103" lon="5.94206">
        <ele>931.5</ele>
        <time>2021-10-07T06:32:49.212Z</time>
      </trkpt>
      <trkpt lat="46.30082" lon="5.94147">
        <ele>921.7</ele>
        <time>2021-10-07T06:34:33.647Z</time>
      </trkpt>
      <trkpt lat="46.30082" lon="5.94131">
        <ele>919.1</ele>
        <time>2021-10-07T06:34:50.471Z</time>
      </trkpt>
      <trkpt lat="46.30085" lon="5.94123">
        <ele>917.4</ele>
        <time>2021-10-07T06:35:04.405Z</time>
      </trkpt>
      <trkpt lat="46.30092" lon="5.94121">
        <ele>916</ele>
        <time>2021-10-07T06:35:21.293Z</time>
      </trkpt>
      <trkpt lat="46.30102" lon="5.94121">
        <ele>914.5</ele>
        <time>2021-10-07T06:35:40.547Z</time>
      </trkpt>
      <trkpt lat="46.30123" lon="5.94122">
        <ele>911.9</ele>
        <time>2021-10-07T06:36:11.918Z</time>
      </trkpt>
      <trkpt lat="46.30199" lon="5.94096">
        <ele>897.1</ele>
        <time>2021-10-07T06:38:16.772Z</time>
      </trkpt>
      <trkpt lat="46.30203" lon="5.94096">
        <ele>896.8</ele>
        <time>2021-10-07T06:38:23.979Z</time>
      </trkpt>
      <trkpt lat="46.30206" lon="5.94096">
        <ele>896.6</ele>
        <time>2021-10-07T06:38:28.369Z</time>
      </trkpt>
      <trkpt lat="46.30234" lon="5.94097">
        <ele>894.7</ele>
        <time>2021-10-07T06:39:03.527Z</time>
      </trkpt>
      <trkpt lat="46.30243" lon="5.94091">
        <ele>893.2</ele>
        <time>2021-10-07T06:39:17.873Z</time>
      </trkpt>
      <trkpt lat="46.30254" lon="5.94079">
        <ele>891.5</ele>
        <time>2021-10-07T06:39:33.616Z</time>
      </trkpt>
      <trkpt lat="46.30225" lon="5.94045">
        <ele>889.3</ele>
        <time>2021-10-07T06:40:16.603Z</time>
      </trkpt>
      <trkpt lat="46.30226" lon="5.94037">
        <ele>888.8</ele>
        <time>2021-10-07T06:40:22.732Z</time>
      </trkpt>
      <trkpt lat="46.30229" lon="5.94029">
        <ele>888.3</ele>
        <time>2021-10-07T06:40:30.305Z</time>
      </trkpt>
      <trkpt lat="46.30241" lon="5.94034">
        <ele>889</ele>
        <time>2021-10-07T06:40:46.101Z</time>
      </trkpt>
      <trkpt lat="46.30279" lon="5.94057">
        <ele>889</ele>
        <time>2021-10-07T06:41:32.537Z</time>
      </trkpt>
      <trkpt lat="46.30286" lon="5.94063">
        <ele>889.2</ele>
        <time>2021-10-07T06:41:40.510Z</time>
      </trkpt>
      <trkpt lat="46.30313" lon="5.94099">
        <ele>889.5</ele>
        <time>2021-10-07T06:42:18.974Z</time>
      </trkpt>
      <trkpt lat="46.30315" lon="5.94101">
        <ele>889.6</ele>
        <time>2021-10-07T06:42:21.001Z</time>
      </trkpt>
    </trkseg>
  </trk>
</gpx>